PWSweather.com
Personal Weather Stations
Station Observations
1A3COP
Copperhill Airport Community, Copperhill, TN 37317

Copperhill Airport CommunityCopperhill, TN 37317

Lat: 35.015465, Lon: -84.340598

Elevation: 1830

Station Type: Acurite Pro 5 in 1

Latest ConditionsUpdated 8:37:01 PM EDT Wednesday, Aug 15, 2018
Currently Today's Max Today's Min Today's Average
Temperature 75.4°F24.1°C 89.4°F31.9°C 58.5°F14.7°C 72.3°F22.4°C
Dew Point 69.2°F20.7°C 74.2°F23.4°C 57.4°F14.1°C 65.4°F18.6°C
Winds Calm Calm 4.6 mph -7.4 kmh - - 0.8 mph 1.3 kmh
Wind Gusts -- 5.8 mph9.3 kmh - -
Humidity 81% 96% 51% 81%
Pressure 28.28 in957.7 mb 28.32 in959.0 mb 28.25 in956.7 mb -
Hour Temp Dew Point Humidity Winds Wind Gusts Pressure Precip Precip Rate Daily Precip Total
08:37 PM 75.4°F24.1°C 69.2°F20.7°C 81% Calm Calm -- 28.28 in957.7 mb - 0.00 in0.0 mm 0.00 in0.0 mm
08:36 PM 75.5°F24.2°C 69.3°F20.7°C 81% Calm Calm -- 28.28 in957.7 mb - 0.00 in0.0 mm 0.00 in0.0 mm
08:35 PM 75.6°F24.2°C 69.0°F20.6°C 80% Calm Calm -- 28.28 in957.7 mb - 0.00 in0.0 mm 0.00 in0.0 mm
08:34 PM 75.6°F24.2°C 69.0°F20.6°C 80% Calm Calm -- 28.28 in957.7 mb - 0.00 in0.0 mm 0.00 in0.0 mm
08:33 PM 75.6°F24.2°C 69.0°F20.6°C 80% Calm Calm -- 28.28 in957.7 mb - 0.00 in0.0 mm 0.00 in0.0 mm
08:32 PM 75.7°F24.3°C 69.5°F20.8°C 81% Calm Calm -- 28.28 in957.7 mb - 0.00 in0.0 mm 0.00 in0.0 mm
08:31 PM 75.8°F24.3°C 69.5°F20.8°C 81% Calm Calm -- 28.28 in957.7 mb - 0.00 in0.0 mm 0.00 in0.0 mm
08:30 PM 75.9°F24.4°C 69.6°F20.9°C 81% Calm Calm -- 28.28 in957.7 mb - 0.00 in0.0 mm 0.00 in0.0 mm
08:29 PM 75.9°F24.4°C 69.6°F20.9°C 81% Calm Calm -- 28.28 in957.7 mb - 0.00 in0.0 mm 0.00 in0.0 mm
08:28 PM 76.0°F24.4°C 69.8°F21.0°C 81% Calm Calm -- 28.28 in957.7 mb - 0.00 in0.0 mm 0.00 in0.0 mm
08:27 PM 76.2°F24.6°C 70.0°F21.1°C 81% Calm Calm -- 28.28 in957.7 mb - 0.00 in0.0 mm 0.00 in0.0 mm
08:26 PM 76.3°F24.6°C 70.0°F21.1°C 81% Calm Calm -- 28.28 in957.7 mb - 0.00 in0.0 mm 0.00 in0.0 mm
08:25 PM 76.5°F24.7°C 70.2°F21.2°C 81% Calm Calm -- 28.28 in957.7 mb - 0.00 in0.0 mm 0.00 in0.0 mm
08:24 PM 76.6°F24.8°C 70.3°F21.3°C 81% Calm Calm -- 28.28 in957.7 mb - 0.00 in0.0 mm 0.00 in0.0 mm
08:23 PM 76.6°F24.8°C 70.0°F21.1°C 80% Calm Calm -- 28.28 in957.7 mb - 0.00 in0.0 mm 0.00 in0.0 mm
08:22 PM 76.6°F24.8°C 70.0°F21.1°C 80% Calm Calm -- 28.28 in957.7 mb - 0.00 in0.0 mm 0.00 in0.0 mm
08:21 PM 76.8°F24.9°C 69.4°F20.8°C 78% Calm Calm -- 28.28 in957.7 mb - 0.00 in0.0 mm 0.00 in0.0 mm
08:20 PM 76.8°F24.9°C 68.7°F20.4°C 76% Calm Calm -- 28.28 in957.7 mb - 0.00 in0.0 mm 0.00 in0.0 mm
08:19 PM 76.8°F24.9°C 68.7°F20.4°C 76% Calm Calm -- 28.28 in957.7 mb - 0.00 in0.0 mm 0.00 in0.0 mm
08:18 PM 77.0°F25.0°C 68.8°F20.4°C 76% Calm Calm -- 28.28 in957.7 mb - 0.00 in0.0 mm 0.00 in0.0 mm
08:17 PM 77.0°F25.0°C 68.5°F20.3°C 75% Calm Calm -- 28.28 in957.7 mb - 0.00 in0.0 mm 0.00 in0.0 mm
08:16 PM 77.2°F25.1°C 68.7°F20.4°C 75% Calm Calm -- 28.28 in957.7 mb - 0.00 in0.0 mm 0.00 in0.0 mm
08:15 PM 77.2°F25.1°C 68.3°F20.2°C 74% Calm Calm -- 28.28 in957.7 mb - 0.00 in0.0 mm 0.00 in0.0 mm
08:14 PM 77.4°F25.2°C 68.1°F20.1°C 73% Calm Calm -- 28.28 in957.7 mb - 0.00 in0.0 mm 0.00 in0.0 mm
08:13 PM 77.4°F25.2°C 68.1°F20.1°C 73% Calm Calm -- 28.28 in957.7 mb - 0.00 in0.0 mm 0.00 in0.0 mm
08:12 PM 77.5°F25.3°C 68.2°F20.1°C 73% Calm Calm -- 28.28 in957.7 mb - 0.00 in0.0 mm 0.00 in0.0 mm
08:11 PM 77.5°F25.3°C 68.2°F20.1°C 73% Calm Calm -- 28.28 in957.7 mb - 0.00 in0.0 mm 0.00 in0.0 mm
08:10 PM 77.6°F25.3°C 68.2°F20.1°C 73% Calm Calm -- 28.28 in957.7 mb - 0.00 in0.0 mm 0.00 in0.0 mm
08:09 PM 77.7°F25.4°C 68.4°F20.2°C 73% Calm Calm -- 28.28 in957.7 mb - 0.00 in0.0 mm 0.00 in0.0 mm
08:08 PM 77.7°F25.4°C 68.4°F20.2°C 73% Calm Calm -- 28.28 in957.7 mb - 0.00 in0.0 mm 0.00 in0.0 mm
08:07 PM 77.7°F25.4°C 68.4°F20.2°C 73% Calm Calm -- 28.28 in957.7 mb - 0.00 in0.0 mm 0.00 in0.0 mm
08:06 PM 77.9°F25.5°C 68.9°F20.5°C 74% Calm Calm -- 28.28 in957.7 mb - 0.00 in0.0 mm 0.00 in0.0 mm
08:05 PM 78.0°F25.6°C 69.0°F20.6°C 74% Calm Calm -- 28.28 in957.7 mb - 0.00 in0.0 mm 0.00 in0.0 mm
08:04 PM 78.1°F25.6°C 69.1°F20.6°C 74% Calm Calm -- 28.28 in957.7 mb - 0.00 in0.0 mm 0.00 in0.0 mm
08:03 PM 78.1°F25.6°C 68.7°F20.4°C 73% Calm Calm -- 28.28 in957.7 mb - 0.00 in0.0 mm 0.00 in0.0 mm
08:02 PM 78.3°F25.7°C 68.9°F20.5°C 73% Calm Calm -- 28.28 in957.7 mb - 0.00 in0.0 mm 0.00 in0.0 mm
08:01 PM 78.3°F25.7°C 68.9°F20.5°C 73% Calm Calm -- 28.28 in957.7 mb - 0.00 in0.0 mm 0.00 in0.0 mm
08:00 PM 78.3°F25.7°C 69.0°F20.6°C 73% Calm Calm -- 28.28 in957.7 mb - 0.00 in0.0 mm 0.00 in0.0 mm
07:59 PM 78.4°F25.8°C 69.1°F20.6°C 73% Calm Calm -- 28.28 in957.7 mb - 0.00 in0.0 mm 0.00 in0.0 mm
07:58 PM 78.6°F25.9°C 69.2°F20.7°C 73% Calm Calm -- 28.28 in957.7 mb - 0.00 in0.0 mm 0.00 in0.0 mm
07:57 PM 78.8°F26.0°C 69.4°F20.8°C 73% Calm Calm -- 28.28 in957.7 mb - 0.00 in0.0 mm 0.00 in0.0 mm
07:56 PM 78.8°F26.0°C 69.8°F21.0°C 74% Calm Calm -- 28.28 in957.7 mb - 0.00 in0.0 mm 0.00 in0.0 mm
07:55 PM 79.0°F26.1°C 70.0°F21.1°C 74% Calm Calm -- 28.28 in957.7 mb - 0.00 in0.0 mm 0.00 in0.0 mm
07:54 PM 79.1°F26.2°C 70.1°F21.2°C 74% Calm Calm -- 28.28 in957.7 mb - 0.00 in0.0 mm 0.00 in0.0 mm
07:53 PM 79.2°F26.2°C 70.2°F21.2°C 74% Calm Calm -- 28.28 in957.7 mb - 0.00 in0.0 mm 0.00 in0.0 mm
07:52 PM 79.3°F26.3°C 70.3°F21.3°C 74% Calm Calm -- 28.28 in957.7 mb - 0.00 in0.0 mm 0.00 in0.0 mm
07:51 PM 79.3°F26.3°C 70.3°F21.3°C 74% Calm Calm -- 28.27 in957.3 mb - 0.00 in0.0 mm 0.00 in0.0 mm
07:50 PM 79.4°F26.3°C 70.8°F21.6°C 75% Calm Calm -- 28.27 in957.3 mb - 0.00 in0.0 mm 0.00 in0.0 mm
07:49 PM 79.6°F26.4°C 71.0°F21.7°C 75% Calm Calm -- 28.27 in957.3 mb - 0.00 in0.0 mm 0.00 in0.0 mm
07:48 PM 79.7°F26.5°C 71.1°F21.7°C 75% Calm Calm -- 28.27 in957.3 mb - 0.00 in0.0 mm 0.00 in0.0 mm
07:47 PM 79.9°F26.6°C 71.7°F22.1°C 76% Calm Calm -- 28.27 in957.3 mb - 0.00 in0.0 mm 0.00 in0.0 mm
07:46 PM 80.1°F26.7°C 71.4°F21.9°C 75% Calm Calm -- 28.27 in957.3 mb - 0.00 in0.0 mm 0.00 in0.0 mm
07:45 PM 80.1°F26.7°C 71.5°F21.9°C 75% Calm Calm -- 28.27 in957.3 mb - 0.00 in0.0 mm 0.00 in0.0 mm
07:44 PM 80.2°F26.8°C 71.6°F22.0°C 75% Calm Calm -- 28.27 in957.3 mb - 0.00 in0.0 mm 0.00 in0.0 mm
07:43 PM 80.3°F26.8°C 71.3°F21.8°C 74% Calm Calm -- 28.27 in957.3 mb - 0.00 in0.0 mm 0.00 in0.0 mm
07:42 PM 80.4°F26.9°C 70.5°F21.4°C 72% Calm Calm -- 28.27 in957.3 mb - 0.00 in0.0 mm 0.00 in0.0 mm
07:41 PM 80.4°F26.9°C 70.5°F21.4°C 72% Calm Calm -- 28.27 in957.3 mb - 0.00 in0.0 mm 0.00 in0.0 mm
07:40 PM 80.4°F26.9°C 70.2°F21.2°C 71% Calm Calm -- 28.27 in957.3 mb - 0.00 in0.0 mm 0.00 in0.0 mm
07:39 PM 80.6°F27.0°C 70.3°F21.3°C 71% Calm Calm -- 28.27 in957.3 mb - 0.00 in0.0 mm 0.00 in0.0 mm
07:38 PM 80.6°F27.0°C 70.3°F21.3°C 71% Calm Calm -- 28.27 in957.3 mb - 0.00 in0.0 mm 0.00 in0.0 mm
07:37 PM 80.6°F27.0°C 70.3°F21.3°C 71% Calm Calm -- 28.27 in957.3 mb - 0.00 in0.0 mm 0.00 in0.0 mm
07:36 PM 80.6°F27.0°C 70.3°F21.3°C 71% Calm Calm -- 28.27 in957.3 mb - 0.00 in0.0 mm 0.00 in0.0 mm
07:35 PM 80.6°F27.0°C 70.3°F21.3°C 71% Calm Calm -- 28.27 in957.3 mb - 0.00 in0.0 mm 0.00 in0.0 mm
07:34 PM 80.6°F27.0°C 70.3°F21.3°C 71% Calm Calm -- 28.27 in957.3 mb - 0.00 in0.0 mm 0.00 in0.0 mm
07:33 PM 80.6°F27.0°C 70.3°F21.3°C 71% Calm Calm -- 28.27 in957.3 mb - 0.00 in0.0 mm 0.00 in0.0 mm
07:32 PM 80.6°F27.0°C 70.3°F21.3°C 71% Calm Calm -- 28.27 in957.3 mb - 0.00 in0.0 mm 0.00 in0.0 mm
07:31 PM 80.4°F26.9°C 70.5°F21.4°C 72% Calm Calm -- 28.27 in957.3 mb - 0.00 in0.0 mm 0.00 in0.0 mm
07:30 PM 80.2°F26.8°C 70.4°F21.3°C 72% Calm Calm -- 28.27 in957.3 mb - 0.00 in0.0 mm 0.00 in0.0 mm
07:29 PM 80.0°F26.7°C 70.6°F21.4°C 73% Calm Calm -- 28.27 in957.3 mb - 0.00 in0.0 mm 0.00 in0.0 mm
07:28 PM 79.6°F26.4°C 70.2°F21.2°C 73% Calm Calm -- 28.27 in957.3 mb - 0.00 in0.0 mm 0.00 in0.0 mm
07:27 PM 79.3°F26.3°C 70.3°F21.3°C 74% Calm Calm -- 28.27 in957.3 mb - 0.00 in0.0 mm 0.00 in0.0 mm
07:26 PM 79.1°F26.2°C 70.5°F21.4°C 75% Calm Calm -- 28.27 in957.3 mb - 0.00 in0.0 mm 0.00 in0.0 mm
07:25 PM 78.8°F26.0°C 70.6°F21.4°C 76% Calm Calm -- 28.27 in957.3 mb - 0.00 in0.0 mm 0.00 in0.0 mm
07:24 PM 78.8°F26.0°C 71.0°F21.7°C 77% Calm Calm -- 28.27 in957.3 mb - 0.00 in0.0 mm 0.00 in0.0 mm
07:23 PM 78.6°F25.9°C 70.8°F21.6°C 77% Calm Calm -- 28.27 in957.3 mb - 0.00 in0.0 mm 0.00 in0.0 mm
07:22 PM 78.6°F25.9°C 71.5°F21.9°C 79% Calm Calm -- 28.27 in957.3 mb - 0.00 in0.0 mm 0.00 in0.0 mm
07:21 PM 78.3°F25.7°C 71.7°F22.1°C 80% Calm Calm -- 28.27 in957.3 mb - 0.00 in0.0 mm 0.00 in0.0 mm
07:20 PM 78.3°F25.7°C 72.0°F22.2°C 81% Calm Calm -- 28.27 in957.3 mb - 0.00 in0.0 mm 0.00 in0.0 mm
07:19 PM 78.6°F25.9°C 71.9°F22.2°C 80% Calm Calm -- 28.27 in957.3 mb - 0.00 in0.0 mm 0.00 in0.0 mm
07:18 PM 78.7°F25.9°C 71.6°F22.0°C 79% Calm Calm -- 28.27 in957.3 mb - 0.00 in0.0 mm 0.00 in0.0 mm
07:17 PM 79.0°F26.1°C 71.9°F22.2°C 79% Calm Calm -- 28.27 in957.3 mb - 0.00 in0.0 mm 0.00 in0.0 mm
07:16 PM 79.0°F26.1°C 71.6°F22.0°C 78% Calm Calm -- 28.27 in957.3 mb - 0.00 in0.0 mm 0.00 in0.0 mm
07:15 PM 79.1°F26.2°C 72.4°F22.4°C 80% Calm Calm -- 28.27 in957.3 mb - 0.00 in0.0 mm 0.00 in0.0 mm
07:14 PM 79.3°F26.3°C 72.6°F22.6°C 80% Calm Calm -- 28.27 in957.3 mb - 0.00 in0.0 mm 0.00 in0.0 mm
07:13 PM 79.4°F26.3°C 73.1°F22.8°C 81% Calm Calm -- 28.27 in957.3 mb - 0.00 in0.0 mm 0.00 in0.0 mm
07:12 PM 79.8°F26.6°C 73.0°F22.8°C 80% Calm Calm -- 28.27 in957.3 mb - 0.00 in0.0 mm 0.00 in0.0 mm
07:11 PM 80.1°F26.7°C 73.7°F23.2°C 81% Calm Calm -- 28.27 in957.3 mb - 0.00 in0.0 mm 0.00 in0.0 mm
07:10 PM 80.3°F26.8°C 73.2°F22.9°C 79% Calm Calm -- 28.27 in957.3 mb - 0.00 in0.0 mm 0.00 in0.0 mm
07:09 PM 80.6°F27.0°C 73.1°F22.8°C 78% Calm Calm -- 28.27 in957.3 mb - 0.00 in0.0 mm 0.00 in0.0 mm
07:08 PM 80.9°F27.2°C 72.2°F22.3°C 75% Calm Calm -- 28.27 in957.3 mb - 0.00 in0.0 mm 0.00 in0.0 mm
07:07 PM 81.0°F27.2°C 72.3°F22.4°C 75% Calm Calm -- 28.27 in957.3 mb - 0.00 in0.0 mm 0.00 in0.0 mm
07:06 PM 81.0°F27.2°C 72.7°F22.6°C 76% Calm Calm -- 28.27 in957.3 mb - 0.00 in0.0 mm 0.00 in0.0 mm
07:05 PM 81.1°F27.3°C 73.2°F22.9°C 77% Calm Calm -- 28.27 in957.3 mb - 0.00 in0.0 mm 0.00 in0.0 mm
07:04 PM 81.1°F27.3°C 73.2°F22.9°C 77% Calm Calm -- 28.27 in957.3 mb - 0.00 in0.0 mm 0.00 in0.0 mm
07:03 PM 81.3°F27.4°C 73.4°F23.0°C 77% Calm Calm -- 28.27 in957.3 mb - 0.00 in0.0 mm 0.00 in0.0 mm
07:02 PM 81.3°F27.4°C 72.6°F22.6°C 75% Calm Calm -- 28.27 in957.3 mb - 0.00 in0.0 mm 0.00 in0.0 mm
07:01 PM 81.3°F27.4°C 72.6°F22.6°C 75% Calm Calm -- 28.27 in957.3 mb - 0.00 in0.0 mm 0.00 in0.0 mm
07:00 PM 81.4°F27.4°C 72.3°F22.4°C 74% Calm Calm -- 28.27 in957.3 mb - 0.00 in0.0 mm 0.00 in0.0 mm
06:59 PM 81.7°F27.6°C 72.6°F22.6°C 74% Calm Calm -- 28.27 in957.3 mb - 0.00 in0.0 mm 0.00 in0.0 mm
06:58 PM 81.7°F27.6°C 72.6°F22.6°C 74% Calm Calm -- 28.27 in957.3 mb - 0.00 in0.0 mm 0.00 in0.0 mm
06:57 PM 81.7°F27.6°C 72.6°F22.6°C 74% Calm Calm -- 28.27 in957.3 mb - 0.00 in0.0 mm 0.00 in0.0 mm
06:56 PM 81.7°F27.6°C 72.6°F22.6°C 74% Calm Calm -- 28.27 in957.3 mb - 0.00 in0.0 mm 0.00 in0.0 mm
06:55 PM 81.7°F27.6°C 72.6°F22.6°C 74% Calm Calm -- 28.27 in957.3 mb - 0.00 in0.0 mm 0.00 in0.0 mm
06:54 PM 81.9°F27.7°C 72.8°F22.7°C 74% Calm Calm -- 28.27 in957.3 mb - 0.00 in0.0 mm 0.00 in0.0 mm
06:53 PM 81.9°F27.7°C 72.8°F22.7°C 74% Calm Calm -- 28.28 in957.7 mb - 0.00 in0.0 mm 0.00 in0.0 mm
06:52 PM 81.9°F27.7°C 72.8°F22.7°C 74% Calm Calm -- 28.28 in957.7 mb - 0.00 in0.0 mm 0.00 in0.0 mm
06:51 PM 81.9°F27.7°C 72.8°F22.7°C 74% Calm Calm -- 28.28 in957.7 mb - 0.00 in0.0 mm 0.00 in0.0 mm
06:50 PM 82.0°F27.8°C 73.3°F22.9°C 75% Calm Calm -- 28.28 in957.7 mb - 0.00 in0.0 mm 0.00 in0.0 mm
06:49 PM 82.2°F27.9°C 73.1°F22.8°C 74% Calm Calm -- 28.28 in957.7 mb - 0.00 in0.0 mm 0.00 in0.0 mm
06:48 PM 82.1°F27.8°C 73.0°F22.8°C 74% Calm Calm -- 28.28 in957.7 mb - 0.00 in0.0 mm 0.00 in0.0 mm
06:47 PM 82.1°F27.8°C 73.4°F23.0°C 75% Calm Calm -- 28.28 in957.7 mb - 0.00 in0.0 mm 0.00 in0.0 mm
06:46 PM 82.2°F27.9°C 73.5°F23.1°C 75% Calm Calm -- 28.28 in957.7 mb - 0.00 in0.0 mm 0.00 in0.0 mm
06:45 PM 82.2°F27.9°C 73.9°F23.3°C 76% Calm Calm -- 28.28 in957.7 mb - 0.00 in0.0 mm 0.00 in0.0 mm
06:44 PM 82.2°F27.9°C 73.9°F23.3°C 76% Calm Calm -- 28.28 in957.7 mb - 0.00 in0.0 mm 0.00 in0.0 mm
06:43 PM 82.2°F27.9°C 73.5°F23.1°C 75% Calm Calm -- 28.28 in957.7 mb - 0.00 in0.0 mm 0.00 in0.0 mm
06:42 PM 82.2°F27.9°C 73.5°F23.1°C 75% Calm Calm -- 28.28 in957.7 mb - 0.00 in0.0 mm 0.00 in0.0 mm
06:41 PM 82.3°F27.9°C 73.2°F22.9°C 74% Calm Calm -- 28.28 in957.7 mb - 0.00 in0.0 mm 0.00 in0.0 mm
06:40 PM 82.7°F28.2°C 73.1°F22.8°C 73% Calm Calm -- 28.27 in957.3 mb - 0.00 in0.0 mm 0.00 in0.0 mm
06:39 PM 82.9°F28.3°C 72.5°F22.5°C 71% Calm Calm -- 28.27 in957.3 mb - 0.00 in0.0 mm 0.00 in0.0 mm
06:38 PM 82.9°F28.3°C 72.1°F22.3°C 70% Calm Calm -- 28.27 in957.3 mb - 0.00 in0.0 mm 0.00 in0.0 mm
06:37 PM 82.9°F28.3°C 71.7°F22.1°C 69% Calm Calm -- 28.27 in957.3 mb - 0.00 in0.0 mm 0.00 in0.0 mm
06:36 PM 82.9°F28.3°C 71.7°F22.1°C 69% Calm Calm -- 28.27 in957.3 mb - 0.00 in0.0 mm 0.00 in0.0 mm
06:35 PM 82.9°F28.3°C 72.1°F22.3°C 70% Calm Calm -- 28.27 in957.3 mb - 0.00 in0.0 mm 0.00 in0.0 mm
06:34 PM 82.6°F28.1°C 72.3°F22.4°C 71% Calm Calm -- 28.27 in957.3 mb - 0.00 in0.0 mm 0.00 in0.0 mm
06:33 PM 82.4°F28.0°C 72.0°F22.2°C 71% Calm Calm -- 28.27 in957.3 mb - 0.00 in0.0 mm 0.00 in0.0 mm
06:32 PM 82.4°F28.0°C 72.5°F22.5°C 72% Calm Calm -- 28.27 in957.3 mb - 0.00 in0.0 mm 0.00 in0.0 mm
06:31 PM 82.4°F28.0°C 71.6°F22.0°C 70% Calm Calm -- 28.27 in957.3 mb - 0.00 in0.0 mm 0.00 in0.0 mm
06:30 PM 82.3°F27.9°C 71.6°F22.0°C 70% Calm Calm -- 28.27 in957.3 mb - 0.00 in0.0 mm 0.00 in0.0 mm
06:29 PM 82.0°F27.8°C 71.7°F22.1°C 71% Calm Calm -- 28.27 in957.3 mb - 0.00 in0.0 mm 0.00 in0.0 mm
06:28 PM 82.0°F27.8°C 72.0°F22.2°C 72% Calm Calm -- 28.27 in957.3 mb - 0.00 in0.0 mm 0.00 in0.0 mm
06:27 PM 82.0°F27.8°C 72.4°F22.4°C 73% Calm Calm -- 28.27 in957.3 mb - 0.00 in0.0 mm 0.00 in0.0 mm
06:26 PM 81.9°F27.7°C 72.8°F22.7°C 74% Calm Calm -- 28.27 in957.3 mb - 0.00 in0.0 mm 0.00 in0.0 mm
06:25 PM 81.7°F27.6°C 73.0°F22.8°C 75% Calm Calm -- 28.27 in957.3 mb - 0.00 in0.0 mm 0.00 in0.0 mm
06:24 PM 81.5°F27.5°C 72.8°F22.7°C 75% Calm Calm -- 28.27 in957.3 mb - 0.00 in0.0 mm 0.00 in0.0 mm
06:23 PM 81.5°F27.5°C 72.8°F22.7°C 75% Calm Calm -- 28.27 in957.3 mb - 0.00 in0.0 mm 0.00 in0.0 mm
06:22 PM 81.5°F27.5°C 73.2°F22.9°C 76% Calm Calm -- 28.27 in957.3 mb - 0.00 in0.0 mm 0.00 in0.0 mm
06:21 PM 81.5°F27.5°C 73.2°F22.9°C 76% Calm Calm -- 28.27 in957.3 mb - 0.00 in0.0 mm 0.00 in0.0 mm
06:20 PM 81.5°F27.5°C 72.8°F22.7°C 75% Calm Calm -- 28.27 in957.3 mb - 0.00 in0.0 mm 0.00 in0.0 mm
06:19 PM 81.8°F27.7°C 72.3°F22.4°C 73% Calm Calm -- 28.27 in957.3 mb - 0.00 in0.0 mm 0.00 in0.0 mm
06:18 PM 82.4°F28.0°C 72.0°F22.2°C 71% Calm Calm -- 28.27 in957.3 mb - 0.00 in0.0 mm 0.00 in0.0 mm
06:17 PM 83.0°F28.3°C 71.4°F21.9°C 68% Calm Calm -- 28.27 in957.3 mb - 0.00 in0.0 mm 0.00 in0.0 mm
06:16 PM 83.5°F28.6°C 70.9°F21.6°C 66% Calm Calm -- 28.27 in957.3 mb - 0.00 in0.0 mm 0.00 in0.0 mm
06:15 PM 83.8°F28.8°C 69.8°F21.0°C 63% Calm Calm -- 28.27 in957.3 mb - 0.00 in0.0 mm 0.00 in0.0 mm
06:14 PM 83.9°F28.8°C 69.0°F20.6°C 61% Calm Calm -- 28.27 in957.3 mb - 0.00 in0.0 mm 0.00 in0.0 mm
06:13 PM 84.0°F28.9°C 69.1°F20.6°C 61% Calm Calm -- 28.27 in957.3 mb - 0.00 in0.0 mm 0.00 in0.0 mm
06:12 PM 84.1°F28.9°C 68.7°F20.4°C 60% Calm Calm -- 28.27 in957.3 mb - 0.00 in0.0 mm 0.00 in0.0 mm
06:11 PM 84.2°F29.0°C 68.8°F20.4°C 60% Calm Calm -- 28.27 in957.3 mb - 0.00 in0.0 mm 0.00 in0.0 mm
06:10 PM 84.2°F29.0°C 68.8°F20.4°C 60% Calm Calm -- 28.27 in957.3 mb - 0.00 in0.0 mm 0.00 in0.0 mm
06:09 PM 84.1°F28.9°C 68.7°F20.4°C 60% Calm Calm -- 28.27 in957.3 mb - 0.00 in0.0 mm 0.00 in0.0 mm
06:08 PM 84.0°F28.9°C 68.6°F20.3°C 60% Calm Calm -- 28.27 in957.3 mb - 0.00 in0.0 mm 0.00 in0.0 mm
06:07 PM 83.8°F28.8°C 68.9°F20.5°C 61% Calm Calm -- 28.27 in957.3 mb - 0.00 in0.0 mm 0.00 in0.0 mm
06:06 PM 83.8°F28.8°C 68.9°F20.5°C 61% Calm Calm -- 28.27 in957.3 mb - 0.00 in0.0 mm 0.00 in0.0 mm
06:05 PM 84.0°F28.9°C 68.6°F20.3°C 60% Calm Calm -- 28.27 in957.3 mb - 0.00 in0.0 mm 0.00 in0.0 mm
06:04 PM 84.1°F28.9°C 68.2°F20.1°C 59% Calm Calm -- 28.27 in957.3 mb - 0.00 in0.0 mm 0.00 in0.0 mm
06:03 PM 84.7°F29.3°C 68.8°F20.4°C 59% Calm Calm -- 28.27 in957.3 mb - 0.00 in0.0 mm 0.00 in0.0 mm
06:02 PM 84.8°F29.3°C 68.4°F20.2°C 58% Calm Calm -- 28.27 in957.3 mb - 0.00 in0.0 mm 0.00 in0.0 mm
06:01 PM 85.1°F29.5°C 68.7°F20.4°C 58% Calm Calm -- 28.27 in957.3 mb - 0.00 in0.0 mm 0.00 in0.0 mm
06:00 PM 85.1°F29.5°C 68.7°F20.4°C 58% Calm Calm -- 28.27 in957.3 mb - 0.00 in0.0 mm 0.00 in0.0 mm
05:59 PM 85.2°F29.6°C 68.8°F20.4°C 58% Calm Calm -- 28.27 in957.3 mb - 0.00 in0.0 mm 0.00 in0.0 mm
05:58 PM 85.0°F29.4°C 69.1°F20.6°C 59% Calm Calm -- 28.27 in957.3 mb - 0.00 in0.0 mm 0.00 in0.0 mm
05:57 PM 84.8°F29.3°C 69.3°F20.7°C 60% Calm Calm -- 28.27 in957.3 mb - 0.00 in0.0 mm 0.00 in0.0 mm
05:56 PM 84.7°F29.3°C 70.2°F21.2°C 62% Calm Calm -- 28.27 in957.3 mb - 0.00 in0.0 mm 0.00 in0.0 mm
05:55 PM 84.9°F29.4°C 72.3°F22.4°C 66% Calm Calm -- 28.27 in957.3 mb - 0.00 in0.0 mm 0.00 in0.0 mm
05:54 PM 85.2°F29.6°C 71.7°F22.1°C 64% Calm Calm 1.2 mph1.9 kmh 28.27 in957.3 mb - 0.00 in0.0 mm 0.00 in0.0 mm
05:53 PM 85.6°F29.8°C 71.1°F21.7°C 62% Calm Calm 1.2 mph1.9 kmh 28.27 in957.3 mb - 0.00 in0.0 mm 0.00 in0.0 mm
05:52 PM 86.3°F30.2°C 70.3°F21.3°C 59% 1.2 mph SE1.9 kmh SE 1.2 mph1.9 kmh 28.27 in957.3 mb - 0.00 in0.0 mm 0.00 in0.0 mm
05:51 PM 86.6°F30.3°C 70.1°F21.2°C 58% 2.3 mph SE3.7 kmh SE 2.3 mph3.7 kmh 28.27 in957.3 mb - 0.00 in0.0 mm 0.00 in0.0 mm
05:50 PM 87.1°F30.6°C 70.5°F21.4°C 58% 2.3 mph SSE3.7 kmh SSE 3.5 mph5.6 kmh 28.27 in957.3 mb - 0.00 in0.0 mm 0.00 in0.0 mm
05:49 PM 87.4°F30.8°C 70.8°F21.6°C 58% 2.3 mph SW3.7 kmh SW 3.5 mph5.6 kmh 28.27 in957.3 mb - 0.00 in0.0 mm 0.00 in0.0 mm
05:48 PM 87.5°F30.8°C 71.4°F21.9°C 59% 2.3 mph SE3.7 kmh SE 3.5 mph5.6 kmh 28.27 in957.3 mb - 0.00 in0.0 mm 0.00 in0.0 mm
05:47 PM 87.6°F30.9°C 71.0°F21.7°C 58% 3.5 mph SW5.6 kmh SW 2.3 mph3.7 kmh 28.27 in957.3 mb - 0.00 in0.0 mm 0.00 in0.0 mm
05:46 PM 87.9°F31.1°C 71.8°F22.1°C 59% 3.5 mph SSE5.6 kmh SSE 4.6 mph7.4 kmh 28.27 in957.3 mb - 0.00 in0.0 mm 0.00 in0.0 mm
05:45 PM 88.1°F31.2°C 72.4°F22.4°C 60% 2.3 mph SSE3.7 kmh SSE 2.3 mph3.7 kmh 28.27 in957.3 mb - 0.00 in0.0 mm 0.00 in0.0 mm
05:44 PM 88.3°F31.3°C 72.1°F22.3°C 59% 2.3 mph SW3.7 kmh SW 2.3 mph3.7 kmh 28.27 in957.3 mb - 0.00 in0.0 mm 0.00 in0.0 mm
05:43 PM 88.2°F31.2°C 71.6°F22.0°C 58% 1.2 mph WSW1.9 kmh WSW 1.2 mph1.9 kmh 28.27 in957.3 mb - 0.00 in0.0 mm 0.00 in0.0 mm
05:42 PM 88.2°F31.2°C 71.0°F21.7°C 57% 1.2 mph SE1.9 kmh SE 1.2 mph1.9 kmh 28.27 in957.3 mb - 0.00 in0.0 mm 0.00 in0.0 mm
05:41 PM 88.0°F31.1°C 70.9°F21.6°C 57% 1.2 mph SE1.9 kmh SE 1.2 mph1.9 kmh 28.26 in957.0 mb - 0.00 in0.0 mm 0.00 in0.0 mm
05:40 PM 87.9°F31.1°C 70.2°F21.2°C 56% 2.3 mph ESE3.7 kmh ESE 2.3 mph3.7 kmh 28.26 in957.0 mb - 0.00 in0.0 mm 0.00 in0.0 mm
05:39 PM 87.4°F30.8°C 69.8°F21.0°C 56% 1.2 mph SE1.9 kmh SE 2.3 mph3.7 kmh 28.26 in957.0 mb - 0.00 in0.0 mm 0.00 in0.0 mm
05:38 PM 87.3°F30.7°C 70.2°F21.2°C 57% 1.2 mph SSE1.9 kmh SSE 1.2 mph1.9 kmh 28.26 in957.0 mb - 0.00 in0.0 mm 0.00 in0.0 mm
05:37 PM 87.2°F30.7°C 70.1°F21.2°C 57% 2.3 mph SSE3.7 kmh SSE 2.3 mph3.7 kmh 28.26 in957.0 mb - 0.00 in0.0 mm 0.00 in0.0 mm
05:36 PM 87.1°F30.6°C 71.1°F21.7°C 59% 2.3 mph SW3.7 kmh SW 2.3 mph3.7 kmh 28.26 in957.0 mb - 0.00 in0.0 mm 0.00 in0.0 mm
05:35 PM 87.4°F30.8°C 70.8°F21.6°C 58% 2.3 mph S3.7 kmh S 3.5 mph5.6 kmh 28.26 in957.0 mb - 0.00 in0.0 mm 0.00 in0.0 mm
05:34 PM 87.4°F30.8°C 69.8°F21.0°C 56% 2.3 mph SW3.7 kmh SW 3.5 mph5.6 kmh 28.26 in957.0 mb - 0.00 in0.0 mm 0.00 in0.0 mm
05:33 PM 87.4°F30.8°C 70.8°F21.6°C 58% 3.5 mph S5.6 kmh S 3.5 mph5.6 kmh 28.26 in957.0 mb - 0.00 in0.0 mm 0.00 in0.0 mm
05:32 PM 87.4°F30.8°C 70.8°F21.6°C 58% 3.5 mph SE5.6 kmh SE 3.5 mph5.6 kmh 28.26 in957.0 mb - 0.00 in0.0 mm 0.00 in0.0 mm
05:31 PM 87.4°F30.8°C 70.3°F21.3°C 57% 3.5 mph SSE5.6 kmh SSE 3.5 mph5.6 kmh 28.26 in957.0 mb - 0.00 in0.0 mm 0.00 in0.0 mm
05:30 PM 87.4°F30.8°C 69.8°F21.0°C 56% 3.5 mph S5.6 kmh S 3.5 mph5.6 kmh 28.26 in957.0 mb - 0.00 in0.0 mm 0.00 in0.0 mm
05:29 PM 87.4°F30.8°C 70.3°F21.3°C 57% 3.5 mph S5.6 kmh S 3.5 mph5.6 kmh 28.26 in957.0 mb - 0.00 in0.0 mm 0.00 in0.0 mm
05:28 PM 87.6°F30.9°C 70.4°F21.3°C 57% 3.5 mph SSE5.6 kmh SSE 3.5 mph5.6 kmh 28.27 in957.3 mb - 0.00 in0.0 mm 0.00 in0.0 mm
05:27 PM 87.6°F30.9°C 70.0°F21.1°C 56% 2.3 mph SE3.7 kmh SE 3.5 mph5.6 kmh 28.27 in957.3 mb - 0.00 in0.0 mm 0.00 in0.0 mm
05:26 PM 88.0°F31.1°C 70.8°F21.6°C 57% 3.5 mph SE5.6 kmh SE 3.5 mph5.6 kmh 28.27 in957.3 mb - 0.00 in0.0 mm 0.00 in0.0 mm
05:25 PM 88.3°F31.3°C 70.6°F21.4°C 56% 3.5 mph SW5.6 kmh SW 4.6 mph7.4 kmh 28.27 in957.3 mb - 0.00 in0.0 mm 0.00 in0.0 mm
05:24 PM 88.6°F31.4°C 71.4°F21.9°C 57% 3.5 mph SW5.6 kmh SW 4.6 mph7.4 kmh 28.27 in957.3 mb - 0.00 in0.0 mm 0.00 in0.0 mm
05:23 PM 88.6°F31.4°C 70.4°F21.3°C 55% 3.5 mph SW5.6 kmh SW 5.8 mph9.3 kmh 28.27 in957.3 mb - 0.00 in0.0 mm 0.00 in0.0 mm
05:22 PM 88.2°F31.2°C 70.0°F21.1°C 55% 2.3 mph WSW3.7 kmh WSW 5.8 mph9.3 kmh 28.27 in957.3 mb - 0.00 in0.0 mm 0.00 in0.0 mm
05:21 PM 87.9°F31.1°C 70.8°F21.6°C 57% 1.2 mph SW1.9 kmh SW 3.5 mph5.6 kmh 28.27 in957.3 mb - 0.00 in0.0 mm 0.00 in0.0 mm
05:20 PM 87.8°F31.0°C 70.7°F21.5°C 57% 1.2 mph SW1.9 kmh SW 1.2 mph1.9 kmh 28.27 in957.3 mb - 0.00 in0.0 mm 0.00 in0.0 mm
05:19 PM 87.7°F30.9°C 71.1°F21.7°C 58% 2.3 mph WSW3.7 kmh WSW 2.3 mph3.7 kmh 28.27 in957.3 mb - 0.00 in0.0 mm 0.00 in0.0 mm
05:18 PM 87.8°F31.0°C 71.2°F21.8°C 58% 2.3 mph SSW3.7 kmh SSW 4.6 mph7.4 kmh 28.27 in957.3 mb - 0.00 in0.0 mm 0.00 in0.0 mm
05:17 PM 87.7°F30.9°C 70.1°F21.2°C 56% 1.2 mph SW1.9 kmh SW 2.3 mph3.7 kmh 28.27 in957.3 mb - 0.00 in0.0 mm 0.00 in0.0 mm
05:16 PM 87.8°F31.0°C 69.6°F20.9°C 55% 3.5 mph S5.6 kmh S 3.5 mph5.6 kmh 28.27 in957.3 mb - 0.00 in0.0 mm 0.00 in0.0 mm
05:15 PM 87.8°F31.0°C 71.2°F21.8°C 58% 2.3 mph S3.7 kmh S 4.6 mph7.4 kmh 28.27 in957.3 mb - 0.00 in0.0 mm 0.00 in0.0 mm
05:14 PM 87.9°F31.1°C 71.3°F21.8°C 58% 2.3 mph SW3.7 kmh SW 2.3 mph3.7 kmh 28.27 in957.3 mb - 0.00 in0.0 mm 0.00 in0.0 mm
05:13 PM 88.2°F31.2°C 71.1°F21.7°C 57% 4.6 mph WSW7.4 kmh WSW 4.6 mph7.4 kmh 28.27 in957.3 mb - 0.00 in0.0 mm 0.00 in0.0 mm
05:12 PM 88.6°F31.4°C 70.4°F21.3°C 55% 4.6 mph SE7.4 kmh SE 5.8 mph9.3 kmh 28.27 in957.3 mb - 0.00 in0.0 mm 0.00 in0.0 mm
05:11 PM 88.7°F31.5°C 70.5°F21.4°C 55% 3.5 mph SSW5.6 kmh SSW 4.6 mph7.4 kmh 28.27 in957.3 mb - 0.00 in0.0 mm 0.00 in0.0 mm
05:10 PM 88.7°F31.5°C 71.5°F21.9°C 57% 3.5 mph S5.6 kmh S 4.6 mph7.4 kmh 28.27 in957.3 mb - 0.00 in0.0 mm 0.00 in0.0 mm
05:09 PM 88.7°F31.5°C 71.5°F21.9°C 57% 2.3 mph SE3.7 kmh SE 3.5 mph5.6 kmh 28.27 in957.3 mb - 0.00 in0.0 mm 0.00 in0.0 mm
05:08 PM 88.4°F31.3°C 71.2°F21.8°C 57% 2.3 mph SSE3.7 kmh SSE 3.5 mph5.6 kmh 28.27 in957.3 mb - 0.00 in0.0 mm 0.00 in0.0 mm
05:07 PM 87.9°F31.1°C 71.3°F21.8°C 58% 2.3 mph SE3.7 kmh SE 2.3 mph3.7 kmh 28.27 in957.3 mb - 0.00 in0.0 mm 0.00 in0.0 mm
05:06 PM 87.7°F30.9°C 70.0°F21.1°C 56% 1.2 mph S1.9 kmh S 2.3 mph3.7 kmh 28.27 in957.3 mb - 0.00 in0.0 mm 0.00 in0.0 mm
05:05 PM 87.4°F30.8°C 68.7°F20.4°C 54% 2.3 mph SW3.7 kmh SW 3.5 mph5.6 kmh 28.27 in957.3 mb - 0.00 in0.0 mm 0.00 in0.0 mm
05:04 PM 87.4°F30.8°C 69.7°F20.9°C 56% Calm Calm 3.5 mph5.6 kmh 28.27 in957.3 mb - 0.00 in0.0 mm 0.00 in0.0 mm
05:03 PM 87.7°F30.9°C 70.0°F21.1°C 56% 1.2 mph W1.9 kmh W 1.2 mph1.9 kmh 28.27 in957.3 mb - 0.00 in0.0 mm 0.00 in0.0 mm
05:02 PM 88.1°F31.2°C 71.0°F21.7°C 57% 2.3 mph S3.7 kmh S 2.3 mph3.7 kmh 28.27 in957.3 mb - 0.00 in0.0 mm 0.00 in0.0 mm
05:01 PM 88.6°F31.4°C 70.9°F21.6°C 56% 1.2 mph SE1.9 kmh SE 2.3 mph3.7 kmh 28.27 in957.3 mb - 0.00 in0.0 mm 0.00 in0.0 mm
05:00 PM 88.7°F31.5°C 71.0°F21.7°C 56% 1.2 mph SE1.9 kmh SE 2.3 mph3.7 kmh 28.27 in957.3 mb - 0.00 in0.0 mm 0.00 in0.0 mm
04:59 PM 88.5°F31.4°C 72.4°F22.4°C 59% 1.2 mph NE1.9 kmh NE 2.3 mph3.7 kmh 28.27 in957.3 mb - 0.00 in0.0 mm 0.00 in0.0 mm
04:58 PM 88.6°F31.4°C 71.9°F22.2°C 58% Calm Calm 1.2 mph1.9 kmh 28.27 in957.3 mb - 0.00 in0.0 mm 0.00 in0.0 mm
04:57 PM 88.9°F31.6°C 70.6°F21.4°C 55% Calm Calm -- 28.27 in957.3 mb - 0.00 in0.0 mm 0.00 in0.0 mm
04:56 PM 88.6°F31.4°C 69.3°F20.7°C 53% Calm Calm -- 28.27 in957.3 mb - 0.00 in0.0 mm 0.00 in0.0 mm
04:55 PM 88.5°F31.4°C 69.2°F20.7°C 53% Calm Calm -- 28.27 in957.3 mb - 0.00 in0.0 mm 0.00 in0.0 mm
04:54 PM 88.5°F31.4°C 69.2°F20.7°C 53% 1.2 mph SSW1.9 kmh SSW -- 28.27 in957.3 mb - 0.00 in0.0 mm 0.00 in0.0 mm
04:53 PM 88.2°F31.2°C 70.5°F21.4°C 56% 1.2 mph SE1.9 kmh SE 2.3 mph3.7 kmh 28.27 in957.3 mb - 0.00 in0.0 mm 0.00 in0.0 mm
04:52 PM 88.1°F31.2°C 70.5°F21.4°C 56% 1.2 mph SE1.9 kmh SE 2.3 mph3.7 kmh 28.27 in957.3 mb - 0.00 in0.0 mm 0.00 in0.0 mm
04:51 PM 88.1°F31.2°C 71.0°F21.7°C 57% 1.2 mph S1.9 kmh S 2.3 mph3.7 kmh 28.27 in957.3 mb - 0.00 in0.0 mm 0.00 in0.0 mm
04:50 PM 88.0°F31.1°C 70.3°F21.3°C 56% 1.2 mph S1.9 kmh S 1.2 mph1.9 kmh 28.27 in957.3 mb - 0.00 in0.0 mm 0.00 in0.0 mm
04:49 PM 87.7°F30.9°C 69.6°F20.9°C 55% Calm Calm 2.3 mph3.7 kmh 28.27 in957.3 mb - 0.00 in0.0 mm 0.00 in0.0 mm
04:48 PM 87.6°F30.9°C 70.0°F21.1°C 56% Calm Calm -- 28.27 in957.3 mb - 0.00 in0.0 mm 0.00 in0.0 mm
04:47 PM 87.1°F30.6°C 71.5°F21.9°C 60% Calm Calm -- 28.27 in957.3 mb - 0.00 in0.0 mm 0.00 in0.0 mm
04:46 PM 86.5°F30.3°C 73.3°F22.9°C 65% Calm Calm -- 28.27 in957.3 mb - 0.00 in0.0 mm 0.00 in0.0 mm
04:45 PM 86.2°F30.1°C 72.6°F22.6°C 64% Calm Calm -- 28.27 in957.3 mb - 0.00 in0.0 mm 0.00 in0.0 mm
04:44 PM 86.2°F30.1°C 72.1°F22.3°C 63% Calm Calm -- 28.27 in957.3 mb - 0.00 in0.0 mm 0.00 in0.0 mm
04:43 PM 85.9°F29.9°C 71.4°F21.9°C 62% Calm Calm -- 28.27 in957.3 mb - 0.00 in0.0 mm 0.00 in0.0 mm
04:42 PM 85.7°F29.8°C 71.2°F21.8°C 62% Calm Calm -- 28.27 in957.3 mb - 0.00 in0.0 mm 0.00 in0.0 mm
04:41 PM 85.3°F29.6°C 72.7°F22.6°C 66% Calm Calm -- 28.27 in957.3 mb - 0.00 in0.0 mm 0.00 in0.0 mm
04:40 PM 85.2°F29.6°C 71.6°F22.0°C 64% Calm Calm -- 28.27 in957.3 mb - 0.00 in0.0 mm 0.00 in0.0 mm
04:39 PM 84.9°F29.4°C 71.8°F22.1°C 65% Calm Calm -- 28.27 in957.3 mb - 0.00 in0.0 mm 0.00 in0.0 mm
04:38 PM 84.8°F29.3°C 71.7°F22.1°C 65% 1.2 mph S1.9 kmh S 1.2 mph1.9 kmh 28.27 in957.3 mb - 0.00 in0.0 mm 0.00 in0.0 mm
04:37 PM 84.8°F29.3°C 70.3°F21.3°C 62% 1.2 mph S1.9 kmh S 2.3 mph3.7 kmh 28.27 in957.3 mb - 0.00 in0.0 mm 0.00 in0.0 mm
04:36 PM 85.0°F29.4°C 70.6°F21.4°C 62% 2.3 mph SE3.7 kmh SE 3.5 mph5.6 kmh 28.27 in957.3 mb - 0.00 in0.0 mm 0.00 in0.0 mm
04:35 PM 85.3°F29.6°C 70.3°F21.3°C 61% 2.3 mph S3.7 kmh S 3.5 mph5.6 kmh 28.27 in957.3 mb - 0.00 in0.0 mm 0.00 in0.0 mm
04:34 PM 85.2°F29.6°C 71.6°F22.0°C 64% 1.2 mph SE1.9 kmh SE 2.3 mph3.7 kmh 28.27 in957.3 mb - 0.00 in0.0 mm 0.00 in0.0 mm
04:33 PM 85.3°F29.6°C 71.3°F21.8°C 63% Calm Calm -- 28.27 in957.3 mb - 0.00 in0.0 mm 0.00 in0.0 mm
04:32 PM 85.4°F29.7°C 69.9°F21.1°C 60% Calm Calm -- 28.27 in957.3 mb - 0.00 in0.0 mm 0.00 in0.0 mm
04:31 PM 85.0°F29.4°C 70.6°F21.4°C 62% Calm Calm -- 28.27 in957.3 mb - 0.00 in0.0 mm 0.00 in0.0 mm
04:30 PM 84.9°F29.4°C 69.9°F21.1°C 61% Calm Calm -- 28.27 in957.3 mb - 0.00 in0.0 mm 0.00 in0.0 mm
04:29 PM 84.9°F29.4°C 69.5°F20.8°C 60% Calm Calm -- 28.27 in957.3 mb - 0.00 in0.0 mm 0.00 in0.0 mm
04:28 PM 84.9°F29.4°C 69.5°F20.8°C 60% Calm Calm -- 28.27 in957.3 mb - 0.00 in0.0 mm 0.00 in0.0 mm
04:27 PM 84.9°F29.4°C 69.5°F20.8°C 60% 1.2 mph E1.9 kmh E 1.2 mph1.9 kmh 28.27 in957.3 mb - 0.00 in0.0 mm 0.00 in0.0 mm
04:26 PM 85.2°F29.6°C 69.2°F20.7°C 59% 2.3 mph SW3.7 kmh SW 2.3 mph3.7 kmh 28.27 in957.3 mb - 0.00 in0.0 mm 0.00 in0.0 mm
04:25 PM 85.2°F29.6°C 69.2°F20.7°C 59% 1.2 mph SW1.9 kmh SW 2.3 mph3.7 kmh 28.27 in957.3 mb - 0.00 in0.0 mm 0.00 in0.0 mm
04:24 PM 85.3°F29.6°C 69.3°F20.7°C 59% 1.2 mph SW1.9 kmh SW 2.3 mph3.7 kmh 28.27 in957.3 mb - 0.00 in0.0 mm 0.00 in0.0 mm
04:23 PM 85.3°F29.6°C 68.8°F20.4°C 58% 1.2 mph SW1.9 kmh SW 2.3 mph3.7 kmh 28.27 in957.3 mb - 0.00 in0.0 mm 0.00 in0.0 mm
04:22 PM 85.5°F29.7°C 69.5°F20.8°C 59% Calm Calm 2.3 mph3.7 kmh 28.27 in957.3 mb - 0.00 in0.0 mm 0.00 in0.0 mm
04:21 PM 86.1°F30.1°C 70.1°F21.2°C 59% 1.2 mph SSE1.9 kmh SSE -- 28.27 in957.3 mb - 0.00 in0.0 mm 0.00 in0.0 mm
04:20 PM 87.0°F30.6°C 70.0°F21.1°C 57% 3.5 mph SE5.6 kmh SE 3.5 mph5.6 kmh 28.27 in957.3 mb - 0.00 in0.0 mm 0.00 in0.0 mm
04:19 PM 87.7°F30.9°C 69.5°F20.8°C 55% 4.6 mph SE7.4 kmh SE 4.6 mph7.4 kmh 28.27 in957.3 mb - 0.00 in0.0 mm 0.00 in0.0 mm
04:18 PM 88.6°F31.4°C 71.4°F21.9°C 57% 3.5 mph SE5.6 kmh SE 5.8 mph9.3 kmh 28.27 in957.3 mb - 0.00 in0.0 mm 0.00 in0.0 mm
04:17 PM 89.4°F31.9°C 71.6°F22.0°C 56% 3.5 mph ESE5.6 kmh ESE 3.5 mph5.6 kmh 28.27 in957.3 mb - 0.00 in0.0 mm 0.00 in0.0 mm
04:16 PM 89.4°F31.9°C 71.6°F22.0°C 56% 2.3 mph SE3.7 kmh SE 3.5 mph5.6 kmh 28.27 in957.3 mb - 0.00 in0.0 mm 0.00 in0.0 mm
04:15 PM 89.3°F31.8°C 71.0°F21.7°C 55% 1.2 mph S1.9 kmh S 2.3 mph3.7 kmh 28.27 in957.3 mb - 0.00 in0.0 mm 0.00 in0.0 mm
04:14 PM 89.4°F31.9°C 71.1°F21.7°C 55% 2.3 mph SSW3.7 kmh SSW 2.3 mph3.7 kmh 28.27 in957.3 mb - 0.00 in0.0 mm 0.00 in0.0 mm
04:13 PM 89.0°F31.7°C 72.3°F22.4°C 58% 3.5 mph SSE5.6 kmh SSE 2.3 mph3.7 kmh 28.27 in957.3 mb - 0.00 in0.0 mm 0.00 in0.0 mm
04:12 PM 88.8°F31.6°C 72.6°F22.6°C 59% 3.5 mph S5.6 kmh S 4.6 mph7.4 kmh 28.27 in957.3 mb - 0.00 in0.0 mm 0.00 in0.0 mm
04:11 PM 88.5°F31.4°C 72.3°F22.4°C 59% 2.3 mph S3.7 kmh S 4.6 mph7.4 kmh 28.27 in957.3 mb - 0.00 in0.0 mm 0.00 in0.0 mm
04:10 PM 88.3°F31.3°C 71.1°F21.7°C 57% 2.3 mph SW3.7 kmh SW 2.3 mph3.7 kmh 28.27 in957.3 mb - 0.00 in0.0 mm 0.00 in0.0 mm
04:09 PM 87.9°F31.1°C 70.8°F21.6°C 57% 3.5 mph S5.6 kmh S 3.5 mph5.6 kmh 28.27 in957.3 mb - 0.00 in0.0 mm 0.00 in0.0 mm
04:08 PM 87.3°F30.7°C 70.2°F21.2°C 57% 2.3 mph ESE3.7 kmh ESE 4.6 mph7.4 kmh 28.27 in957.3 mb - 0.00 in0.0 mm 0.00 in0.0 mm
04:07 PM 87.1°F30.6°C 70.5°F21.4°C 58% 3.5 mph SW5.6 kmh SW 3.5 mph5.6 kmh 28.27 in957.3 mb - 0.00 in0.0 mm 0.00 in0.0 mm
04:06 PM 87.2°F30.7°C 70.7°F21.5°C 58% 3.5 mph S5.6 kmh S 4.6 mph7.4 kmh 28.27 in957.3 mb - 0.00 in0.0 mm 0.00 in0.0 mm
04:05 PM 87.2°F30.7°C 72.1°F22.3°C 61% 2.3 mph S3.7 kmh S 2.3 mph3.7 kmh 28.28 in957.7 mb - 0.00 in0.0 mm 0.00 in0.0 mm
04:04 PM 87.1°F30.6°C 72.5°F22.5°C 62% 2.3 mph SW3.7 kmh SW 2.3 mph3.7 kmh 28.28 in957.7 mb - 0.00 in0.0 mm 0.00 in0.0 mm
04:03 PM 86.9°F30.5°C 71.3°F21.8°C 60% 2.3 mph S3.7 kmh S 3.5 mph5.6 kmh 28.28 in957.7 mb - 0.00 in0.0 mm 0.00 in0.0 mm
04:02 PM 87.1°F30.6°C 70.5°F21.4°C 58% 2.3 mph S3.7 kmh S 2.3 mph3.7 kmh 28.28 in957.7 mb - 0.00 in0.0 mm 0.00 in0.0 mm
04:01 PM 87.1°F30.6°C 70.0°F21.1°C 57% 2.3 mph SSE3.7 kmh SSE 3.5 mph5.6 kmh 28.28 in957.7 mb - 0.00 in0.0 mm 0.00 in0.0 mm
04:00 PM 86.9°F30.5°C 69.3°F20.7°C 56% Calm Calm 1.2 mph1.9 kmh 28.28 in957.7 mb - 0.00 in0.0 mm 0.00 in0.0 mm
03:59 PM 87.4°F30.8°C 69.3°F20.7°C 55% 1.2 mph W1.9 kmh W 1.2 mph1.9 kmh 28.28 in957.7 mb - 0.00 in0.0 mm 0.00 in0.0 mm
03:58 PM 87.4°F30.8°C 69.8°F21.0°C 56% 1.2 mph SSW1.9 kmh SSW 1.2 mph1.9 kmh 28.28 in957.7 mb - 0.00 in0.0 mm 0.00 in0.0 mm
03:57 PM 87.2°F30.7°C 70.6°F21.4°C 58% 1.2 mph SSE1.9 kmh SSE 2.3 mph3.7 kmh 28.28 in957.7 mb - 0.00 in0.0 mm 0.00 in0.0 mm
03:56 PM 86.9°F30.5°C 70.3°F21.3°C 58% 2.3 mph SW3.7 kmh SW 2.3 mph3.7 kmh 28.28 in957.7 mb - 0.00 in0.0 mm 0.00 in0.0 mm
03:55 PM 86.4°F30.2°C 70.4°F21.3°C 59% 1.2 mph S1.9 kmh S 2.3 mph3.7 kmh 28.28 in957.7 mb - 0.00 in0.0 mm 0.00 in0.0 mm
03:54 PM 86.4°F30.2°C 69.9°F21.1°C 58% 1.2 mph SSE1.9 kmh SSE 1.2 mph1.9 kmh 28.28 in957.7 mb - 0.00 in0.0 mm 0.00 in0.0 mm
03:53 PM 86.5°F30.3°C 69.0°F20.6°C 56% 2.3 mph SSW3.7 kmh SSW 2.3 mph3.7 kmh 28.28 in957.7 mb - 0.00 in0.0 mm 0.00 in0.0 mm
03:52 PM 86.6°F30.3°C 69.5°F20.8°C 57% 1.2 mph SW1.9 kmh SW 2.3 mph3.7 kmh 28.28 in957.7 mb - 0.00 in0.0 mm 0.00 in0.0 mm
03:51 PM 86.4°F30.2°C 70.4°F21.3°C 59% Calm Calm 2.3 mph3.7 kmh 28.28 in957.7 mb - 0.00 in0.0 mm 0.00 in0.0 mm
03:50 PM 86.4°F30.2°C 69.9°F21.1°C 58% Calm Calm -- 28.28 in957.7 mb - 0.00 in0.0 mm 0.00 in0.0 mm
03:49 PM 86.2°F30.1°C 70.2°F21.2°C 59% 1.2 mph SE1.9 kmh SE 1.2 mph1.9 kmh 28.28 in957.7 mb - 0.00 in0.0 mm 0.00 in0.0 mm
03:48 PM 86.2°F30.1°C 70.2°F21.2°C 59% 1.2 mph NE1.9 kmh NE 2.3 mph3.7 kmh 28.28 in957.7 mb - 0.00 in0.0 mm 0.00 in0.0 mm
03:47 PM 86.3°F30.2°C 71.8°F22.1°C 62% Calm Calm -- 28.28 in957.7 mb - 0.00 in0.0 mm 0.00 in0.0 mm
03:46 PM 86.8°F30.4°C 71.2°F21.8°C 60% 1.2 mph S1.9 kmh S 1.2 mph1.9 kmh 28.28 in957.7 mb - 0.00 in0.0 mm 0.00 in0.0 mm
03:45 PM 86.9°F30.5°C 70.9°F21.6°C 59% 2.3 mph SE3.7 kmh SE 2.3 mph3.7 kmh 28.28 in957.7 mb - 0.00 in0.0 mm 0.00 in0.0 mm
03:44 PM 87.3°F30.7°C 70.7°F21.5°C 58% 1.2 mph ESE1.9 kmh ESE 2.3 mph3.7 kmh 28.28 in957.7 mb - 0.00 in0.0 mm 0.00 in0.0 mm
03:43 PM 88.2°F31.2°C 69.4°F20.8°C 54% 2.3 mph S3.7 kmh S 2.3 mph3.7 kmh 28.28 in957.7 mb - 0.00 in0.0 mm 0.00 in0.0 mm
03:42 PM 88.2°F31.2°C 68.9°F20.5°C 53% 2.3 mph E3.7 kmh E 2.3 mph3.7 kmh 28.28 in957.7 mb - 0.00 in0.0 mm 0.00 in0.0 mm
03:41 PM 87.9°F31.1°C 69.7°F20.9°C 55% 2.3 mph E3.7 kmh E 2.3 mph3.7 kmh 28.28 in957.7 mb - 0.00 in0.0 mm 0.00 in0.0 mm
03:40 PM 87.6°F30.9°C 69.4°F20.8°C 55% 1.2 mph SSE1.9 kmh SSE 2.3 mph3.7 kmh 28.28 in957.7 mb - 0.00 in0.0 mm 0.00 in0.0 mm
03:39 PM 87.5°F30.8°C 67.7°F19.8°C 52% Calm Calm 1.2 mph1.9 kmh 28.28 in957.7 mb - 0.00 in0.0 mm 0.00 in0.0 mm
03:38 PM 87.9°F31.1°C 67.5°F19.7°C 51% Calm Calm 1.2 mph1.9 kmh 28.28 in957.7 mb - 0.00 in0.0 mm 0.00 in0.0 mm
03:37 PM 87.5°F30.8°C 68.2°F20.1°C 53% 1.2 mph S1.9 kmh S 1.2 mph1.9 kmh 28.28 in957.7 mb - 0.00 in0.0 mm 0.00 in0.0 mm
03:36 PM 87.1°F30.6°C 69.5°F20.8°C 56% 2.3 mph SSE3.7 kmh SSE 2.3 mph3.7 kmh 28.28 in957.7 mb - 0.00 in0.0 mm 0.00 in0.0 mm
03:35 PM 86.9°F30.5°C 70.4°F21.3°C 58% 3.5 mph S5.6 kmh S 3.5 mph5.6 kmh 28.28 in957.7 mb - 0.00 in0.0 mm 0.00 in0.0 mm
03:34 PM 87.0°F30.6°C 70.5°F21.4°C 58% 3.5 mph SE5.6 kmh SE 3.5 mph5.6 kmh 28.28 in957.7 mb - 0.00 in0.0 mm 0.00 in0.0 mm
03:33 PM 87.3°F30.7°C 71.2°F21.8°C 59% 2.3 mph SSE3.7 kmh SSE 3.5 mph5.6 kmh 28.28 in957.7 mb - 0.00 in0.0 mm 0.00 in0.0 mm
03:32 PM 87.3°F30.7°C 71.2°F21.8°C 59% 1.2 mph SSW1.9 kmh SSW 1.2 mph1.9 kmh 28.28 in957.7 mb - 0.00 in0.0 mm 0.00 in0.0 mm
03:31 PM 87.4°F30.8°C 71.3°F21.8°C 59% 1.2 mph S1.9 kmh S 1.2 mph1.9 kmh 28.28 in957.7 mb - 0.00 in0.0 mm 0.00 in0.0 mm
03:30 PM 87.4°F30.8°C 70.3°F21.3°C 57% 2.3 mph ESE3.7 kmh ESE 2.3 mph3.7 kmh 28.28 in957.7 mb - 0.00 in0.0 mm 0.00 in0.0 mm
03:29 PM 87.3°F30.7°C 71.2°F21.8°C 59% 1.2 mph SSE1.9 kmh SSE 2.3 mph3.7 kmh 28.28 in957.7 mb - 0.00 in0.0 mm 0.00 in0.0 mm
03:28 PM 87.0°F30.6°C 70.4°F21.3°C 58% 1.2 mph NNE1.9 kmh NNE 1.2 mph1.9 kmh 28.28 in957.7 mb - 0.00 in0.0 mm 0.00 in0.0 mm
03:27 PM 87.1°F30.6°C 71.0°F21.7°C 59% Calm Calm 1.2 mph1.9 kmh 28.28 in957.7 mb - 0.00 in0.0 mm 0.00 in0.0 mm
03:26 PM 87.1°F30.6°C 72.0°F22.2°C 61% 1.2 mph S1.9 kmh S -- 28.28 in957.7 mb - 0.00 in0.0 mm 0.00 in0.0 mm
03:25 PM 87.3°F30.7°C 71.7°F22.1°C 60% 1.2 mph SW1.9 kmh SW 2.3 mph3.7 kmh 28.28 in957.7 mb - 0.00 in0.0 mm 0.00 in0.0 mm
03:24 PM 87.1°F30.6°C 70.0°F21.1°C 57% 1.2 mph SW1.9 kmh SW 2.3 mph3.7 kmh 28.28 in957.7 mb - 0.00 in0.0 mm 0.00 in0.0 mm
03:23 PM 86.7°F30.4°C 69.1°F20.6°C 56% Calm Calm 2.3 mph3.7 kmh 28.28 in957.7 mb - 0.00 in0.0 mm 0.00 in0.0 mm
03:22 PM 86.9°F30.5°C 68.3°F20.2°C 54% 2.3 mph WSW3.7 kmh WSW 2.3 mph3.7 kmh 28.28 in957.7 mb - 0.00 in0.0 mm 0.00 in0.0 mm
03:21 PM 87.0°F30.6°C 69.4°F20.8°C 56% 2.3 mph WSW3.7 kmh WSW 3.5 mph5.6 kmh 28.28 in957.7 mb - 0.00 in0.0 mm 0.00 in0.0 mm
03:20 PM 86.9°F30.5°C 70.3°F21.3°C 58% 2.3 mph WSW3.7 kmh WSW 3.5 mph5.6 kmh 28.28 in957.7 mb - 0.00 in0.0 mm 0.00 in0.0 mm
03:19 PM 87.1°F30.6°C 70.0°F21.1°C 57% 2.3 mph SW3.7 kmh SW 2.3 mph3.7 kmh 28.28 in957.7 mb - 0.00 in0.0 mm 0.00 in0.0 mm
03:18 PM 87.4°F30.8°C 70.3°F21.3°C 57% 2.3 mph S3.7 kmh S 2.3 mph3.7 kmh 28.28 in957.7 mb - 0.00 in0.0 mm 0.00 in0.0 mm
03:17 PM 87.4°F30.8°C 70.8°F21.6°C 58% 2.3 mph S3.7 kmh S 3.5 mph5.6 kmh 28.28 in957.7 mb - 0.00 in0.0 mm 0.00 in0.0 mm
03:16 PM 87.4°F30.8°C 71.3°F21.8°C 59% 1.2 mph SE1.9 kmh SE 2.3 mph3.7 kmh 28.28 in957.7 mb - 0.00 in0.0 mm 0.00 in0.0 mm
03:15 PM 87.7°F30.9°C 69.5°F20.8°C 55% Calm Calm 1.2 mph1.9 kmh 28.28 in957.7 mb - 0.00 in0.0 mm 0.00 in0.0 mm
03:14 PM 87.3°F30.7°C 68.6°F20.3°C 54% Calm Calm -- 28.28 in957.7 mb - 0.00 in0.0 mm 0.00 in0.0 mm
03:13 PM 86.9°F30.5°C 67.7°F19.8°C 53% Calm Calm -- 28.28 in957.7 mb - 0.00 in0.0 mm 0.00 in0.0 mm
03:12 PM 86.7°F30.4°C 67.5°F19.7°C 53% Calm Calm -- 28.28 in957.7 mb - 0.00 in0.0 mm 0.00 in0.0 mm
03:11 PM 86.7°F30.4°C 68.1°F20.1°C 54% Calm Calm -- 28.28 in957.7 mb - 0.00 in0.0 mm 0.00 in0.0 mm
03:10 PM 86.9°F30.5°C 68.3°F20.2°C 54% Calm Calm -- 28.28 in957.7 mb - 0.00 in0.0 mm 0.00 in0.0 mm
03:09 PM 87.2°F30.7°C 69.0°F20.6°C 55% 1.2 mph SSE1.9 kmh SSE 1.2 mph1.9 kmh 28.28 in957.7 mb - 0.00 in0.0 mm 0.00 in0.0 mm
03:08 PM 87.4°F30.8°C 69.3°F20.7°C 55% 1.2 mph ENE1.9 kmh ENE 1.2 mph1.9 kmh 28.28 in957.7 mb - 0.00 in0.0 mm 0.00 in0.0 mm
03:07 PM 87.8°F31.0°C 69.6°F20.9°C 55% 2.3 mph E3.7 kmh E 2.3 mph3.7 kmh 28.28 in957.7 mb - 0.00 in0.0 mm 0.00 in0.0 mm
03:06 PM 87.6°F30.9°C 69.4°F20.8°C 55% 2.3 mph NE3.7 kmh NE 3.5 mph5.6 kmh 28.28 in957.7 mb - 0.00 in0.0 mm 0.00 in0.0 mm
03:05 PM 87.6°F30.9°C 68.9°F20.5°C 54% 2.3 mph SW3.7 kmh SW 1.2 mph1.9 kmh 28.28 in957.7 mb - 0.00 in0.0 mm 0.00 in0.0 mm
03:04 PM 87.6°F30.9°C 68.9°F20.5°C 54% 3.5 mph N5.6 kmh N 3.5 mph5.6 kmh 28.29 in958.0 mb - 0.00 in0.0 mm 0.00 in0.0 mm
03:03 PM 87.4°F30.8°C 68.7°F20.4°C 54% 3.5 mph NW5.6 kmh NW 3.5 mph5.6 kmh 28.29 in958.0 mb - 0.00 in0.0 mm 0.00 in0.0 mm
03:02 PM 87.2°F30.7°C 70.1°F21.2°C 57% 2.3 mph NNE3.7 kmh NNE 3.5 mph5.6 kmh 28.29 in958.0 mb - 0.00 in0.0 mm 0.00 in0.0 mm
03:01 PM 87.0°F30.6°C 69.4°F20.8°C 56% 3.5 mph W5.6 kmh W 3.5 mph5.6 kmh 28.29 in958.0 mb - 0.00 in0.0 mm 0.00 in0.0 mm
03:00 PM 86.7°F30.4°C 69.7°F20.9°C 57% 3.5 mph W5.6 kmh W 3.5 mph5.6 kmh 28.29 in958.0 mb - 0.00 in0.0 mm 0.00 in0.0 mm
02:59 PM 86.7°F30.4°C 70.2°F21.2°C 58% 2.3 mph WSW3.7 kmh WSW 3.5 mph5.6 kmh 28.29 in958.0 mb - 0.00 in0.0 mm 0.00 in0.0 mm
02:58 PM 86.8°F30.4°C 70.2°F21.2°C 58% 1.2 mph WSW1.9 kmh WSW 3.5 mph5.6 kmh 28.29 in958.0 mb - 0.00 in0.0 mm 0.00 in0.0 mm
02:57 PM 87.0°F30.6°C 69.9°F21.1°C 57% 2.3 mph WSW3.7 kmh WSW 1.2 mph1.9 kmh 28.29 in958.0 mb - 0.00 in0.0 mm 0.00 in0.0 mm
02:56 PM 87.3°F30.7°C 69.1°F20.6°C 55% 2.3 mph WNW3.7 kmh WNW 2.3 mph3.7 kmh 28.29 in958.0 mb - 0.00 in0.0 mm 0.00 in0.0 mm
02:55 PM 87.6°F30.9°C 68.4°F20.2°C 53% 2.3 mph NW3.7 kmh NW 2.3 mph3.7 kmh 28.29 in958.0 mb - 0.00 in0.0 mm 0.00 in0.0 mm
02:54 PM 88.1°F31.2°C 68.8°F20.4°C 53% 3.5 mph W5.6 kmh W 4.6 mph7.4 kmh 28.29 in958.0 mb - 0.00 in0.0 mm 0.00 in0.0 mm
02:53 PM 88.2°F31.2°C 68.9°F20.5°C 53% 2.3 mph W3.7 kmh W 4.6 mph7.4 kmh 28.29 in958.0 mb - 0.00 in0.0 mm 0.00 in0.0 mm
02:52 PM 88.2°F31.2°C 68.9°F20.5°C 53% 2.3 mph NNW3.7 kmh NNW 3.5 mph5.6 kmh 28.29 in958.0 mb - 0.00 in0.0 mm 0.00 in0.0 mm
02:51 PM 88.2°F31.2°C 68.9°F20.5°C 53% 2.3 mph WNW3.7 kmh WNW 3.5 mph5.6 kmh 28.29 in958.0 mb - 0.00 in0.0 mm 0.00 in0.0 mm
02:50 PM 88.5°F31.4°C 69.1°F20.6°C 53% 3.5 mph W5.6 kmh W 3.5 mph5.6 kmh 28.29 in958.0 mb - 0.00 in0.0 mm 0.00 in0.0 mm
02:49 PM 88.3°F31.3°C 69.0°F20.6°C 53% 3.5 mph WNW5.6 kmh WNW 3.5 mph5.6 kmh 28.29 in958.0 mb - 0.00 in0.0 mm 0.00 in0.0 mm
02:48 PM 88.1°F31.2°C 68.8°F20.4°C 53% 3.5 mph NW5.6 kmh NW 4.6 mph7.4 kmh 28.29 in958.0 mb - 0.00 in0.0 mm 0.00 in0.0 mm
02:47 PM 87.5°F30.8°C 69.3°F20.7°C 55% 2.3 mph N3.7 kmh N 4.6 mph7.4 kmh 28.29 in958.0 mb - 0.00 in0.0 mm 0.00 in0.0 mm
02:46 PM 87.1°F30.6°C 68.4°F20.2°C 54% 3.5 mph W5.6 kmh W 4.6 mph7.4 kmh 28.29 in958.0 mb - 0.00 in0.0 mm 0.00 in0.0 mm
02:45 PM 86.9°F30.5°C 68.8°F20.4°C 55% 3.5 mph SW5.6 kmh SW 4.6 mph7.4 kmh 28.29 in958.0 mb - 0.00 in0.0 mm 0.00 in0.0 mm
02:44 PM 86.9°F30.5°C 69.3°F20.7°C 56% 2.3 mph WSW3.7 kmh WSW 4.6 mph7.4 kmh 28.29 in958.0 mb - 0.00 in0.0 mm 0.00 in0.0 mm
02:43 PM 86.9°F30.5°C 68.8°F20.4°C 55% 2.3 mph NE3.7 kmh NE 4.6 mph7.4 kmh 28.29 in958.0 mb - 0.00 in0.0 mm 0.00 in0.0 mm
02:42 PM 87.1°F30.6°C 68.9°F20.5°C 55% 3.5 mph SW5.6 kmh SW 4.6 mph7.4 kmh 28.29 in958.0 mb - 0.00 in0.0 mm 0.00 in0.0 mm
02:41 PM 87.1°F30.6°C 69.0°F20.6°C 55% 3.5 mph W5.6 kmh W 4.6 mph7.4 kmh 28.29 in958.0 mb - 0.00 in0.0 mm 0.00 in0.0 mm
02:40 PM 87.1°F30.6°C 69.5°F20.8°C 56% 2.3 mph NW3.7 kmh NW 4.6 mph7.4 kmh 28.29 in958.0 mb - 0.00 in0.0 mm 0.00 in0.0 mm
02:39 PM 87.1°F30.6°C 69.0°F20.6°C 55% 2.3 mph NW3.7 kmh NW 2.3 mph3.7 kmh 28.29 in958.0 mb - 0.00 in0.0 mm 0.00 in0.0 mm
02:38 PM 87.6°F30.9°C 68.9°F20.5°C 54% 3.5 mph W5.6 kmh W 3.5 mph5.6 kmh 28.29 in958.0 mb - 0.00 in0.0 mm 0.00 in0.0 mm
02:37 PM 88.2°F31.2°C 68.3°F20.2°C 52% 4.6 mph SW7.4 kmh SW 5.8 mph9.3 kmh 28.29 in958.0 mb - 0.00 in0.0 mm 0.00 in0.0 mm
02:36 PM 88.9°F31.6°C 69.6°F20.9°C 53% 3.5 mph SW5.6 kmh SW 5.8 mph9.3 kmh 28.29 in958.0 mb - 0.00 in0.0 mm 0.00 in0.0 mm
02:35 PM 88.9°F31.6°C 69.6°F20.9°C 53% 4.6 mph WSW7.4 kmh WSW 5.8 mph9.3 kmh 28.29 in958.0 mb - 0.00 in0.0 mm 0.00 in0.0 mm
02:34 PM 88.6°F31.4°C 69.8°F21.0°C 54% 4.6 mph W7.4 kmh W 5.8 mph9.3 kmh 28.29 in958.0 mb - 0.00 in0.0 mm 0.00 in0.0 mm
02:33 PM 88.1°F31.2°C 70.4°F21.3°C 56% 2.3 mph SE3.7 kmh SE 5.8 mph9.3 kmh 28.29 in958.0 mb - 0.00 in0.0 mm 0.00 in0.0 mm
02:32 PM 87.8°F31.0°C 70.2°F21.2°C 56% 2.3 mph WSW3.7 kmh WSW 3.5 mph5.6 kmh 28.29 in958.0 mb - 0.00 in0.0 mm 0.00 in0.0 mm
02:31 PM 87.8°F31.0°C 70.6°F21.4°C 57% 3.5 mph SE5.6 kmh SE 3.5 mph5.6 kmh 28.29 in958.0 mb - 0.00 in0.0 mm 0.00 in0.0 mm
02:30 PM 87.6°F30.9°C 70.5°F21.4°C 57% 2.3 mph SSW3.7 kmh SSW 3.5 mph5.6 kmh 28.29 in958.0 mb - 0.00 in0.0 mm 0.00 in0.0 mm
02:29 PM 88.3°F31.3°C 70.1°F21.2°C 55% 2.3 mph NNW3.7 kmh NNW 2.3 mph3.7 kmh 28.29 in958.0 mb - 0.00 in0.0 mm 0.00 in0.0 mm
02:28 PM 88.3°F31.3°C 69.5°F20.8°C 54% 2.3 mph NW3.7 kmh NW 3.5 mph5.6 kmh 28.29 in958.0 mb - 0.00 in0.0 mm 0.00 in0.0 mm
02:27 PM 88.2°F31.2°C 70.5°F21.4°C 56% 2.3 mph ENE3.7 kmh ENE 3.5 mph5.6 kmh 28.29 in958.0 mb - 0.00 in0.0 mm 0.00 in0.0 mm
02:26 PM 87.9°F31.1°C 69.7°F20.9°C 55% 3.5 mph SSW5.6 kmh SSW 4.6 mph7.4 kmh 28.29 in958.0 mb - 0.00 in0.0 mm 0.00 in0.0 mm
02:25 PM 87.2°F30.7°C 69.6°F20.9°C 56% 2.3 mph N3.7 kmh N 4.6 mph7.4 kmh 28.29 in958.0 mb - 0.00 in0.0 mm 0.00 in0.0 mm
02:24 PM 87.3°F30.7°C 69.7°F20.9°C 56% 3.5 mph WNW5.6 kmh WNW 3.5 mph5.6 kmh 28.29 in958.0 mb - 0.00 in0.0 mm 0.00 in0.0 mm
02:23 PM 87.4°F30.8°C 70.3°F21.3°C 57% 3.5 mph WNW5.6 kmh WNW 4.6 mph7.4 kmh 28.29 in958.0 mb - 0.00 in0.0 mm 0.00 in0.0 mm
02:22 PM 87.6°F30.9°C 69.4°F20.8°C 55% 3.5 mph WSW5.6 kmh WSW 3.5 mph5.6 kmh 28.29 in958.0 mb - 0.00 in0.0 mm 0.00 in0.0 mm
02:21 PM 87.4°F30.8°C 69.3°F20.7°C 55% 3.5 mph WSW5.6 kmh WSW 3.5 mph5.6 kmh 28.29 in958.0 mb - 0.00 in0.0 mm 0.00 in0.0 mm
02:20 PM 87.4°F30.8°C 69.8°F21.0°C 56% 3.5 mph SW5.6 kmh SW 3.5 mph5.6 kmh 28.29 in958.0 mb - 0.00 in0.0 mm 0.00 in0.0 mm
02:19 PM 87.7°F30.9°C 70.5°F21.4°C 57% 2.3 mph SW3.7 kmh SW 3.5 mph5.6 kmh 28.29 in958.0 mb - 0.00 in0.0 mm 0.00 in0.0 mm
02:18 PM 87.8°F31.0°C 71.2°F21.8°C 58% 1.2 mph SW1.9 kmh SW 2.3 mph3.7 kmh 28.29 in958.0 mb - 0.00 in0.0 mm 0.00 in0.0 mm
02:17 PM 88.3°F31.3°C 72.2°F22.3°C 59% 1.2 mph S1.9 kmh S 1.2 mph1.9 kmh 28.29 in958.0 mb - 0.00 in0.0 mm 0.00 in0.0 mm
02:16 PM 88.3°F31.3°C 71.1°F21.7°C 57% 1.2 mph NE1.9 kmh NE 1.2 mph1.9 kmh 28.29 in958.0 mb - 0.00 in0.0 mm 0.00 in0.0 mm
02:15 PM 88.2°F31.2°C 70.6°F21.4°C 56% 2.3 mph E3.7 kmh E 2.3 mph3.7 kmh 28.30 in958.3 mb - 0.00 in0.0 mm 0.00 in0.0 mm
02:14 PM 87.6°F30.9°C 70.5°F21.4°C 57% 2.3 mph ESE3.7 kmh ESE 2.3 mph3.7 kmh 28.30 in958.3 mb - 0.00 in0.0 mm 0.00 in0.0 mm
02:13 PM 87.3°F30.7°C 70.7°F21.5°C 58% 2.3 mph ESE3.7 kmh ESE 3.5 mph5.6 kmh 28.30 in958.3 mb - 0.00 in0.0 mm 0.00 in0.0 mm
02:12 PM 87.4°F30.8°C 70.8°F21.6°C 58% 2.3 mph SSE3.7 kmh SSE 3.5 mph5.6 kmh 28.30 in958.3 mb - 0.00 in0.0 mm 0.00 in0.0 mm
02:11 PM 87.4°F30.8°C 71.3°F21.8°C 59% 3.5 mph S5.6 kmh S 3.5 mph5.6 kmh 28.30 in958.3 mb - 0.00 in0.0 mm 0.00 in0.0 mm
02:10 PM 87.4°F30.8°C 71.8°F22.1°C 60% 2.3 mph SSW3.7 kmh SSW 3.5 mph5.6 kmh 28.30 in958.3 mb - 0.00 in0.0 mm 0.00 in0.0 mm
02:09 PM 87.5°F30.8°C 72.9°F22.7°C 62% 2.3 mph SE3.7 kmh SE 2.3 mph3.7 kmh 28.30 in958.3 mb - 0.00 in0.0 mm 0.00 in0.0 mm
02:08 PM 87.4°F30.8°C 72.3°F22.4°C 61% 2.3 mph S3.7 kmh S 2.3 mph3.7 kmh 28.30 in958.3 mb - 0.00 in0.0 mm 0.00 in0.0 mm
02:07 PM 87.4°F30.8°C 72.8°F22.7°C 62% 2.3 mph S3.7 kmh S 2.3 mph3.7 kmh 28.30 in958.3 mb - 0.00 in0.0 mm 0.00 in0.0 mm
02:06 PM 87.3°F30.7°C 72.7°F22.6°C 62% 2.3 mph S3.7 kmh S 2.3 mph3.7 kmh 28.30 in958.3 mb - 0.00 in0.0 mm 0.00 in0.0 mm
02:05 PM 87.3°F30.7°C 72.2°F22.3°C 61% 1.2 mph SE1.9 kmh SE 2.3 mph3.7 kmh 28.30 in958.3 mb - 0.00 in0.0 mm 0.00 in0.0 mm
02:04 PM 87.0°F30.6°C 71.9°F22.2°C 61% 2.3 mph ESE3.7 kmh ESE 2.3 mph3.7 kmh 28.30 in958.3 mb - 0.00 in0.0 mm 0.00 in0.0 mm
02:03 PM 86.8°F30.4°C 71.7°F22.1°C 61% 2.3 mph E3.7 kmh E 2.3 mph3.7 kmh 28.30 in958.3 mb - 0.00 in0.0 mm 0.00 in0.0 mm
02:02 PM 87.1°F30.6°C 72.0°F22.2°C 61% 2.3 mph WSW3.7 kmh WSW 2.3 mph3.7 kmh 28.30 in958.3 mb - 0.00 in0.0 mm 0.00 in0.0 mm
02:01 PM 87.2°F30.7°C 72.1°F22.3°C 61% 1.2 mph SW1.9 kmh SW 2.3 mph3.7 kmh 28.30 in958.3 mb - 0.00 in0.0 mm 0.00 in0.0 mm
02:00 PM 87.5°F30.8°C 72.4°F22.4°C 61% 1.2 mph S1.9 kmh S 2.3 mph3.7 kmh 28.30 in958.3 mb - 0.00 in0.0 mm 0.00 in0.0 mm
01:59 PM 87.8°F31.0°C 72.2°F22.3°C 60% 2.3 mph ESE3.7 kmh ESE 2.3 mph3.7 kmh 28.30 in958.3 mb - 0.00 in0.0 mm 0.00 in0.0 mm
01:58 PM 87.6°F30.9°C 71.5°F21.9°C 59% 2.3 mph NE3.7 kmh NE 2.3 mph3.7 kmh 28.30 in958.3 mb - 0.00 in0.0 mm 0.00 in0.0 mm
01:57 PM 87.3°F30.7°C 72.7°F22.6°C 62% 2.3 mph N3.7 kmh N 4.6 mph7.4 kmh 28.30 in958.3 mb - 0.00 in0.0 mm 0.00 in0.0 mm
01:56 PM 86.6°F30.3°C 72.0°F22.2°C 62% 1.2 mph SSE1.9 kmh SSE 1.2 mph1.9 kmh 28.30 in958.3 mb - 0.00 in0.0 mm 0.00 in0.0 mm
01:55 PM 86.5°F30.3°C 71.9°F22.2°C 62% 2.3 mph SSE3.7 kmh SSE 2.3 mph3.7 kmh 28.30 in958.3 mb - 0.00 in0.0 mm 0.00 in0.0 mm
01:54 PM 86.5°F30.3°C 71.9°F22.2°C 62% 2.3 mph ESE3.7 kmh ESE 2.3 mph3.7 kmh 28.30 in958.3 mb - 0.00 in0.0 mm 0.00 in0.0 mm
01:53 PM 86.3°F30.2°C 72.2°F22.3°C 63% 2.3 mph ESE3.7 kmh ESE 2.3 mph3.7 kmh 28.30 in958.3 mb - 0.00 in0.0 mm 0.00 in0.0 mm
01:52 PM 86.3°F30.2°C 71.7°F22.1°C 62% 2.3 mph S3.7 kmh S 3.5 mph5.6 kmh 28.30 in958.3 mb - 0.00 in0.0 mm 0.00 in0.0 mm
01:51 PM 86.5°F30.3°C 72.4°F22.4°C 63% 2.3 mph S3.7 kmh S 2.3 mph3.7 kmh 28.30 in958.3 mb - 0.00 in0.0 mm 0.00 in0.0 mm
01:50 PM 86.4°F30.2°C 73.2°F22.9°C 65% 2.3 mph ESE3.7 kmh ESE 3.5 mph5.6 kmh 28.30 in958.3 mb - 0.00 in0.0 mm 0.00 in0.0 mm
01:49 PM 86.0°F30.0°C 74.2°F23.4°C 68% 2.3 mph SE3.7 kmh SE 3.5 mph5.6 kmh 28.30 in958.3 mb - 0.00 in0.0 mm 0.00 in0.0 mm
01:48 PM 85.7°F29.8°C 73.5°F23.1°C 67% 2.3 mph ESE3.7 kmh ESE 3.5 mph5.6 kmh 28.30 in958.3 mb - 0.00 in0.0 mm 0.00 in0.0 mm
01:47 PM 85.2°F29.6°C 73.0°F22.8°C 67% 1.2 mph SE1.9 kmh SE 3.5 mph5.6 kmh 28.30 in958.3 mb - 0.00 in0.0 mm 0.00 in0.0 mm
01:46 PM 84.7°F29.3°C 72.1°F22.3°C 66% 1.2 mph SW1.9 kmh SW 1.2 mph1.9 kmh 28.30 in958.3 mb - 0.00 in0.0 mm 0.00 in0.0 mm
01:45 PM 84.5°F29.2°C 71.4°F21.9°C 65% 2.3 mph WSW3.7 kmh WSW 2.3 mph3.7 kmh 28.30 in958.3 mb - 0.00 in0.0 mm 0.00 in0.0 mm
01:44 PM 84.6°F29.2°C 71.6°F22.0°C 65% 2.3 mph WSW3.7 kmh WSW 2.3 mph3.7 kmh 28.30 in958.3 mb - 0.00 in0.0 mm 0.00 in0.0 mm
01:43 PM 85.1°F29.5°C 71.5°F21.9°C 64% 2.3 mph W3.7 kmh W 3.5 mph5.6 kmh 28.30 in958.3 mb - 0.00 in0.0 mm 0.00 in0.0 mm
01:42 PM 84.8°F29.3°C 71.3°F21.8°C 64% 2.3 mph SSW3.7 kmh SSW 3.5 mph5.6 kmh 28.30 in958.3 mb - 0.00 in0.0 mm 0.00 in0.0 mm
01:41 PM 84.2°F29.0°C 71.6°F22.0°C 66% 1.2 mph ESE1.9 kmh ESE 2.3 mph3.7 kmh 28.30 in958.3 mb - 0.00 in0.0 mm 0.00 in0.0 mm
01:40 PM 83.9°F28.8°C 72.7°F22.6°C 69% 2.3 mph S3.7 kmh S 1.2 mph1.9 kmh 28.30 in958.3 mb - 0.00 in0.0 mm 0.00 in0.0 mm
01:39 PM 84.1°F28.9°C 72.4°F22.4°C 68% 3.5 mph SW5.6 kmh SW 4.6 mph7.4 kmh 28.30 in958.3 mb - 0.00 in0.0 mm 0.00 in0.0 mm
01:38 PM 83.8°F28.8°C 71.7°F22.1°C 67% 2.3 mph WSW3.7 kmh WSW 3.5 mph5.6 kmh 28.30 in958.3 mb - 0.00 in0.0 mm 0.00 in0.0 mm
01:37 PM 83.5°F28.6°C 71.4°F21.9°C 67% 1.2 mph NW1.9 kmh NW 2.3 mph3.7 kmh 28.30 in958.3 mb - 0.00 in0.0 mm 0.00 in0.0 mm
01:36 PM 83.0°F28.3°C 71.3°F21.8°C 68% 2.3 mph NW3.7 kmh NW 3.5 mph5.6 kmh 28.30 in958.3 mb - 0.00 in0.0 mm 0.00 in0.0 mm
01:35 PM 82.9°F28.3°C 71.7°F22.1°C 69% 2.3 mph WSW3.7 kmh WSW 3.5 mph5.6 kmh 28.30 in958.3 mb - 0.00 in0.0 mm 0.00 in0.0 mm
01:34 PM 83.0°F28.3°C 72.2°F22.3°C 70% 2.3 mph WSW3.7 kmh WSW 3.5 mph5.6 kmh 28.30 in958.3 mb - 0.00 in0.0 mm 0.00 in0.0 mm
01:33 PM 82.9°F28.3°C 72.5°F22.5°C 71% 2.3 mph S3.7 kmh S 2.3 mph3.7 kmh 28.30 in958.3 mb - 0.00 in0.0 mm 0.00 in0.0 mm
01:32 PM 82.8°F28.2°C 72.0°F22.2°C 70% 3.5 mph WSW5.6 kmh WSW 3.5 mph5.6 kmh 28.30 in958.3 mb - 0.00 in0.0 mm 0.00 in0.0 mm
01:31 PM 82.7°F28.2°C 71.9°F22.2°C 70% 1.2 mph WSW1.9 kmh WSW 3.5 mph5.6 kmh 28.30 in958.3 mb - 0.00 in0.0 mm 0.00 in0.0 mm
01:30 PM 82.6°F28.1°C 72.2°F22.3°C 71% 1.2 mph SW1.9 kmh SW -- 28.30 in958.3 mb - 0.00 in0.0 mm 0.00 in0.0 mm
01:29 PM 82.7°F28.2°C 72.3°F22.4°C 71% 1.2 mph SSW1.9 kmh SSW 2.3 mph3.7 kmh 28.30 in958.3 mb - 0.00 in0.0 mm 0.00 in0.0 mm
01:28 PM 82.8°F28.2°C 72.0°F22.2°C 70% 1.2 mph SW1.9 kmh SW 2.3 mph3.7 kmh 28.31 in958.7 mb - 0.00 in0.0 mm 0.00 in0.0 mm
01:27 PM 82.8°F28.2°C 72.4°F22.4°C 71% 2.3 mph S3.7 kmh S 3.5 mph5.6 kmh 28.31 in958.7 mb - 0.00 in0.0 mm 0.00 in0.0 mm
01:26 PM 82.6°F28.1°C 72.7°F22.6°C 72% 2.3 mph SSE3.7 kmh SSE 3.5 mph5.6 kmh 28.31 in958.7 mb - 0.00 in0.0 mm 0.00 in0.0 mm
01:25 PM 82.6°F28.1°C 73.1°F22.8°C 73% 1.2 mph E1.9 kmh E 1.2 mph1.9 kmh 28.31 in958.7 mb - 0.00 in0.0 mm 0.00 in0.0 mm
01:24 PM 82.7°F28.2°C 73.2°F22.9°C 73% 1.2 mph NE1.9 kmh NE 1.2 mph1.9 kmh 28.31 in958.7 mb - 0.00 in0.0 mm 0.00 in0.0 mm
01:23 PM 82.7°F28.2°C 72.8°F22.7°C 72% Calm Calm 2.3 mph3.7 kmh 28.31 in958.7 mb - 0.00 in0.0 mm 0.00 in0.0 mm
01:22 PM 82.6°F28.1°C 72.2°F22.3°C 71% 2.3 mph SE3.7 kmh SE 2.3 mph3.7 kmh 28.31 in958.7 mb - 0.00 in0.0 mm 0.00 in0.0 mm
01:21 PM 82.7°F28.2°C 71.9°F22.2°C 70% 1.2 mph SE1.9 kmh SE 2.3 mph3.7 kmh 28.31 in958.7 mb - 0.00 in0.0 mm 0.00 in0.0 mm
01:20 PM 82.8°F28.2°C 72.0°F22.2°C 70% Calm Calm 2.3 mph3.7 kmh 28.31 in958.7 mb - 0.00 in0.0 mm 0.00 in0.0 mm
01:19 PM 82.8°F28.2°C 72.4°F22.4°C 71% Calm Calm -- 28.31 in958.7 mb - 0.00 in0.0 mm 0.00 in0.0 mm
01:18 PM 82.6°F28.1°C 72.7°F22.6°C 72% 1.2 mph SE1.9 kmh SE 1.2 mph1.9 kmh 28.31 in958.7 mb - 0.00 in0.0 mm 0.00 in0.0 mm
01:17 PM 82.6°F28.1°C 73.1°F22.8°C 73% 2.3 mph S3.7 kmh S 2.3 mph3.7 kmh 28.31 in958.7 mb - 0.00 in0.0 mm 0.00 in0.0 mm
01:16 PM 82.6°F28.1°C 73.1°F22.8°C 73% 1.2 mph S1.9 kmh S 2.3 mph3.7 kmh 28.31 in958.7 mb - 0.00 in0.0 mm 0.00 in0.0 mm
01:15 PM 82.6°F28.1°C 73.1°F22.8°C 73% 2.3 mph S3.7 kmh S 3.5 mph5.6 kmh 28.31 in958.7 mb - 0.00 in0.0 mm 0.00 in0.0 mm
01:14 PM 82.7°F28.2°C 72.3°F22.4°C 71% 1.2 mph E1.9 kmh E 3.5 mph5.6 kmh 28.31 in958.7 mb - 0.00 in0.0 mm 0.00 in0.0 mm
01:13 PM 82.9°F28.3°C 72.5°F22.5°C 71% Calm Calm -- 28.31 in958.7 mb - 0.00 in0.0 mm 0.00 in0.0 mm
01:12 PM 82.8°F28.2°C 72.0°F22.2°C 70% Calm Calm -- 28.31 in958.7 mb - 0.00 in0.0 mm 0.00 in0.0 mm
01:11 PM 82.8°F28.2°C 72.0°F22.2°C 70% Calm Calm -- 28.31 in958.7 mb - 0.00 in0.0 mm 0.00 in0.0 mm
01:10 PM 82.6°F28.1°C 72.2°F22.3°C 71% 1.2 mph NE1.9 kmh NE 1.2 mph1.9 kmh 28.31 in958.7 mb - 0.00 in0.0 mm 0.00 in0.0 mm
01:09 PM 82.6°F28.1°C 71.8°F22.1°C 70% 2.3 mph W3.7 kmh W 2.3 mph3.7 kmh 28.31 in958.7 mb - 0.00 in0.0 mm 0.00 in0.0 mm
01:08 PM 82.4°F28.0°C 71.6°F22.0°C 70% 1.2 mph NNE1.9 kmh NNE 2.3 mph3.7 kmh 28.31 in958.7 mb - 0.00 in0.0 mm 0.00 in0.0 mm
01:07 PM 82.2°F27.9°C 71.4°F21.9°C 70% 2.3 mph W3.7 kmh W 2.3 mph3.7 kmh 28.31 in958.7 mb - 0.00 in0.0 mm 0.00 in0.0 mm
01:06 PM 82.2°F27.9°C 71.9°F22.2°C 71% 3.5 mph SW5.6 kmh SW 3.5 mph5.6 kmh 28.31 in958.7 mb - 0.00 in0.0 mm 0.00 in0.0 mm
01:05 PM 82.2°F27.9°C 71.9°F22.2°C 71% 2.3 mph SW3.7 kmh SW 3.5 mph5.6 kmh 28.31 in958.7 mb - 0.00 in0.0 mm 0.00 in0.0 mm
01:04 PM 82.3°F27.9°C 72.8°F22.7°C 73% 3.5 mph SSW5.6 kmh SSW 4.6 mph7.4 kmh 28.31 in958.7 mb - 0.00 in0.0 mm 0.00 in0.0 mm
01:03 PM 82.0°F27.8°C 72.5°F22.5°C 73% 2.3 mph WSW3.7 kmh WSW 3.5 mph5.6 kmh 28.31 in958.7 mb - 0.00 in0.0 mm 0.00 in0.0 mm
01:02 PM 82.1°F27.8°C 73.4°F23.0°C 75% 1.2 mph SW1.9 kmh SW 2.3 mph3.7 kmh 28.31 in958.7 mb - 0.00 in0.0 mm 0.00 in0.0 mm
01:01 PM 81.7°F27.6°C 73.4°F23.0°C 76% Calm Calm -- 28.31 in958.7 mb - 0.00 in0.0 mm 0.00 in0.0 mm
01:00 PM 81.5°F27.5°C 72.4°F22.4°C 74% Calm Calm -- 28.31 in958.7 mb - 0.00 in0.0 mm 0.00 in0.0 mm
12:59 PM 81.7°F27.6°C 72.2°F22.3°C 73% 1.2 mph SE1.9 kmh SE 1.2 mph1.9 kmh 28.31 in958.7 mb - 0.00 in0.0 mm 0.00 in0.0 mm
12:58 PM 81.9°F27.7°C 72.8°F22.7°C 74% 1.2 mph S1.9 kmh S 2.3 mph3.7 kmh 28.31 in958.7 mb - 0.00 in0.0 mm 0.00 in0.0 mm
12:57 PM 81.6°F27.6°C 73.3°F22.9°C 76% Calm Calm 2.3 mph3.7 kmh 28.31 in958.7 mb - 0.00 in0.0 mm 0.00 in0.0 mm
12:56 PM 81.5°F27.5°C 72.4°F22.4°C 74% 1.2 mph ENE1.9 kmh ENE -- 28.31 in958.7 mb - 0.00 in0.0 mm 0.00 in0.0 mm
12:55 PM 81.4°F27.4°C 71.9°F22.2°C 73% 2.3 mph SE3.7 kmh SE 2.3 mph3.7 kmh 28.31 in958.7 mb - 0.00 in0.0 mm 0.00 in0.0 mm
12:54 PM 81.1°F27.3°C 71.6°F22.0°C 73% 2.3 mph S3.7 kmh S 3.5 mph5.6 kmh 28.31 in958.7 mb - 0.00 in0.0 mm 0.00 in0.0 mm
12:53 PM 80.8°F27.1°C 71.4°F21.9°C 73% 1.2 mph S1.9 kmh S 3.5 mph5.6 kmh 28.31 in958.7 mb - 0.00 in0.0 mm 0.00 in0.0 mm
12:52 PM 80.9°F27.2°C 71.4°F21.9°C 73% 2.3 mph WSW3.7 kmh WSW 2.3 mph3.7 kmh 28.31 in958.7 mb - 0.00 in0.0 mm 0.00 in0.0 mm
12:51 PM 81.0°F27.2°C 70.7°F21.5°C 71% 2.3 mph WSW3.7 kmh WSW 2.3 mph3.7 kmh 28.31 in958.7 mb - 0.00 in0.0 mm 0.00 in0.0 mm
12:50 PM 81.1°F27.3°C 71.2°F21.8°C 72% 3.5 mph WSW5.6 kmh WSW 3.5 mph5.6 kmh 28.31 in958.7 mb - 0.00 in0.0 mm 0.00 in0.0 mm
12:49 PM 81.1°F27.3°C 71.2°F21.8°C 72% 2.3 mph WSW3.7 kmh WSW 3.5 mph5.6 kmh 28.31 in958.7 mb - 0.00 in0.0 mm 0.00 in0.0 mm
12:48 PM 81.3°F27.4°C 71.4°F21.9°C 72% 2.3 mph WNW3.7 kmh WNW 3.5 mph5.6 kmh 28.31 in958.7 mb - 0.00 in0.0 mm 0.00 in0.0 mm
12:47 PM 81.6°F27.6°C 72.1°F22.3°C 73% 3.5 mph WSW5.6 kmh WSW 3.5 mph5.6 kmh 28.31 in958.7 mb - 0.00 in0.0 mm 0.00 in0.0 mm
12:46 PM 81.8°F27.7°C 72.7°F22.6°C 74% 2.3 mph W3.7 kmh W 3.5 mph5.6 kmh 28.31 in958.7 mb - 0.00 in0.0 mm 0.00 in0.0 mm
12:45 PM 81.9°F27.7°C 72.8°F22.7°C 74% 1.2 mph S1.9 kmh S 2.3 mph3.7 kmh 28.31 in958.7 mb - 0.00 in0.0 mm 0.00 in0.0 mm
12:44 PM 81.9°F27.7°C 72.4°F22.4°C 73% 1.2 mph ENE1.9 kmh ENE 2.3 mph3.7 kmh 28.31 in958.7 mb - 0.00 in0.0 mm 0.00 in0.0 mm
12:43 PM 82.0°F27.8°C 72.1°F22.3°C 72% 2.3 mph NNW3.7 kmh NNW 3.5 mph5.6 kmh 28.31 in958.7 mb - 0.00 in0.0 mm 0.00 in0.0 mm
12:42 PM 82.0°F27.8°C 72.1°F22.3°C 72% 1.2 mph WSW1.9 kmh WSW 3.5 mph5.6 kmh 28.31 in958.7 mb - 0.00 in0.0 mm 0.00 in0.0 mm
12:41 PM 81.5°F27.5°C 71.6°F22.0°C 72% 1.2 mph WNW1.9 kmh WNW 1.2 mph1.9 kmh 28.31 in958.7 mb - 0.00 in0.0 mm 0.00 in0.0 mm
12:40 PM 81.3°F27.4°C 71.4°F21.9°C 72% 1.2 mph W1.9 kmh W 2.3 mph3.7 kmh 28.31 in958.7 mb - 0.00 in0.0 mm 0.00 in0.0 mm
12:39 PM 80.8°F27.1°C 72.1°F22.3°C 75% 1.2 mph SW1.9 kmh SW 2.3 mph3.7 kmh 28.31 in958.7 mb - 0.00 in0.0 mm 0.00 in0.0 mm
12:38 PM 80.5°F26.9°C 71.9°F22.2°C 75% Calm Calm 1.2 mph1.9 kmh 28.31 in958.7 mb - 0.00 in0.0 mm 0.00 in0.0 mm
12:37 PM 80.3°F26.8°C 71.2°F21.8°C 74% 1.2 mph SW1.9 kmh SW 1.2 mph1.9 kmh 28.31 in958.7 mb - 0.00 in0.0 mm 0.00 in0.0 mm
12:36 PM 80.4°F26.9°C 71.3°F21.8°C 74% 1.2 mph W1.9 kmh W 1.2 mph1.9 kmh 28.31 in958.7 mb - 0.00 in0.0 mm 0.00 in0.0 mm
12:35 PM 80.7°F27.1°C 71.3°F21.8°C 73% 2.3 mph SSE3.7 kmh SSE 2.3 mph3.7 kmh 28.31 in958.7 mb - 0.00 in0.0 mm 0.00 in0.0 mm
12:34 PM 81.1°F27.3°C 71.2°F21.8°C 72% 3.5 mph SSW5.6 kmh SSW 3.5 mph5.6 kmh 28.31 in958.7 mb - 0.00 in0.0 mm 0.00 in0.0 mm
12:33 PM 81.2°F27.3°C 71.7°F22.1°C 73% 3.5 mph SW5.6 kmh SW 3.5 mph5.6 kmh 28.31 in958.7 mb - 0.00 in0.0 mm 0.00 in0.0 mm
12:32 PM 81.5°F27.5°C 72.0°F22.2°C 73% 3.5 mph E5.6 kmh E 4.6 mph7.4 kmh 28.31 in958.7 mb - 0.00 in0.0 mm 0.00 in0.0 mm
12:31 PM 81.5°F27.5°C 73.2°F22.9°C 76% 2.3 mph SE3.7 kmh SE 4.6 mph7.4 kmh 28.31 in958.7 mb - 0.00 in0.0 mm 0.00 in0.0 mm
12:30 PM 81.3°F27.4°C 73.4°F23.0°C 77% 1.2 mph SE1.9 kmh SE 2.3 mph3.7 kmh 28.31 in958.7 mb - 0.00 in0.0 mm 0.00 in0.0 mm
12:29 PM 81.0°F27.2°C 72.8°F22.7°C 76% 1.2 mph E1.9 kmh E 2.3 mph3.7 kmh 28.31 in958.7 mb - 0.00 in0.0 mm 0.00 in0.0 mm
12:28 PM 80.6°F27.0°C 72.3°F22.4°C 76% Calm Calm 2.3 mph3.7 kmh 28.31 in958.7 mb - 0.00 in0.0 mm 0.00 in0.0 mm
12:27 PM 80.4°F26.9°C 72.1°F22.3°C 76% Calm Calm -- 28.31 in958.7 mb - 0.00 in0.0 mm 0.00 in0.0 mm
12:26 PM 80.4°F26.9°C 72.1°F22.3°C 76% 2.3 mph WSW3.7 kmh WSW 2.3 mph3.7 kmh 28.31 in958.7 mb - 0.00 in0.0 mm 0.00 in0.0 mm
12:25 PM 80.2°F26.8°C 72.3°F22.4°C 77% 1.2 mph SW1.9 kmh SW 2.3 mph3.7 kmh 28.31 in958.7 mb - 0.00 in0.0 mm 0.00 in0.0 mm
12:24 PM 80.1°F26.7°C 71.8°F22.1°C 76% 1.2 mph W1.9 kmh W 2.3 mph3.7 kmh 28.31 in958.7 mb - 0.00 in0.0 mm 0.00 in0.0 mm
12:23 PM 80.1°F26.7°C 72.6°F22.6°C 78% 2.3 mph W3.7 kmh W 2.3 mph3.7 kmh 28.31 in958.7 mb - 0.00 in0.0 mm 0.00 in0.0 mm
12:22 PM 80.1°F26.7°C 72.2°F22.3°C 77% 2.3 mph SW3.7 kmh SW 2.3 mph3.7 kmh 28.31 in958.7 mb - 0.00 in0.0 mm 0.00 in0.0 mm
12:21 PM 79.8°F26.6°C 72.3°F22.4°C 78% 1.2 mph S1.9 kmh S 2.3 mph3.7 kmh 28.31 in958.7 mb - 0.00 in0.0 mm 0.00 in0.0 mm
12:20 PM 79.3°F26.3°C 71.9°F22.2°C 78% Calm Calm 1.2 mph1.9 kmh 28.31 in958.7 mb - 0.00 in0.0 mm 0.00 in0.0 mm
12:19 PM 79.5°F26.4°C 72.0°F22.2°C 78% 1.2 mph SSW1.9 kmh SSW 1.2 mph1.9 kmh 28.31 in958.7 mb - 0.00 in0.0 mm 0.00 in0.0 mm
12:18 PM 79.5°F26.4°C 71.7°F22.1°C 77% 2.3 mph WSW3.7 kmh WSW 2.3 mph3.7 kmh 28.31 in958.7 mb - 0.00 in0.0 mm 0.00 in0.0 mm
12:17 PM 79.3°F26.3°C 71.5°F21.9°C 77% 1.2 mph SSW1.9 kmh SSW 2.3 mph3.7 kmh 28.31 in958.7 mb - 0.00 in0.0 mm 0.00 in0.0 mm
12:16 PM 79.3°F26.3°C 71.5°F21.9°C 77% 1.2 mph SW1.9 kmh SW 1.2 mph1.9 kmh 28.31 in958.7 mb - 0.00 in0.0 mm 0.00 in0.0 mm
12:15 PM 79.3°F26.3°C 71.5°F21.9°C 77% 1.2 mph WSW1.9 kmh WSW 2.3 mph3.7 kmh 28.31 in958.7 mb - 0.00 in0.0 mm 0.00 in0.0 mm
12:14 PM 79.3°F26.3°C 71.5°F21.9°C 77% Calm Calm 1.2 mph1.9 kmh 28.31 in958.7 mb - 0.00 in0.0 mm 0.00 in0.0 mm
12:13 PM 79.6°F26.4°C 71.4°F21.9°C 76% Calm Calm 1.2 mph1.9 kmh 28.31 in958.7 mb - 0.00 in0.0 mm 0.00 in0.0 mm
12:12 PM 79.3°F26.3°C 71.1°F21.7°C 76% 1.2 mph SW1.9 kmh SW 1.2 mph1.9 kmh 28.31 in958.7 mb - 0.00 in0.0 mm 0.00 in0.0 mm
12:11 PM 79.3°F26.3°C 71.1°F21.7°C 76% 2.3 mph SW3.7 kmh SW 2.3 mph3.7 kmh 28.31 in958.7 mb - 0.00 in0.0 mm 0.00 in0.0 mm
12:10 PM 79.5°F26.4°C 71.3°F21.8°C 76% 2.3 mph WSW3.7 kmh WSW 3.5 mph5.6 kmh 28.31 in958.7 mb - 0.00 in0.0 mm 0.00 in0.0 mm
12:09 PM 79.6°F26.4°C 71.4°F21.9°C 76% 2.3 mph S3.7 kmh S 3.5 mph5.6 kmh 28.31 in958.7 mb - 0.00 in0.0 mm 0.00 in0.0 mm
12:08 PM 79.5°F26.4°C 71.3°F21.8°C 76% 2.3 mph SSE3.7 kmh SSE 2.3 mph3.7 kmh 28.31 in958.7 mb - 0.00 in0.0 mm 0.00 in0.0 mm
12:07 PM 79.6°F26.4°C 71.7°F22.1°C 77% 2.3 mph S3.7 kmh S 2.3 mph3.7 kmh 28.31 in958.7 mb - 0.00 in0.0 mm 0.00 in0.0 mm
12:06 PM 79.9°F26.6°C 72.4°F22.4°C 78% 2.3 mph S3.7 kmh S 2.3 mph3.7 kmh 28.31 in958.7 mb - 0.00 in0.0 mm 0.00 in0.0 mm
12:05 PM 79.9°F26.6°C 72.4°F22.4°C 78% 2.3 mph S3.7 kmh S 2.3 mph3.7 kmh 28.31 in958.7 mb - 0.00 in0.0 mm 0.00 in0.0 mm
12:04 PM 79.8°F26.6°C 72.0°F22.2°C 77% 1.2 mph S1.9 kmh S 2.3 mph3.7 kmh 28.31 in958.7 mb - 0.00 in0.0 mm 0.00 in0.0 mm
12:03 PM 79.7°F26.5°C 71.8°F22.1°C 77% 2.3 mph S3.7 kmh S 2.3 mph3.7 kmh 28.31 in958.7 mb - 0.00 in0.0 mm 0.00 in0.0 mm
12:02 PM 79.6°F26.4°C 71.7°F22.1°C 77% 2.3 mph SSE3.7 kmh SSE 2.3 mph3.7 kmh 28.31 in958.7 mb - 0.00 in0.0 mm 0.00 in0.0 mm
12:01 PM 79.4°F26.3°C 71.6°F22.0°C 77% 2.3 mph SE3.7 kmh SE 3.5 mph5.6 kmh 28.31 in958.7 mb - 0.00 in0.0 mm 0.00 in0.0 mm
12:00 PM 79.3°F26.3°C 71.8°F22.1°C 78% 2.3 mph NNW3.7 kmh NNW 3.5 mph5.6 kmh 28.31 in958.7 mb - 0.00 in0.0 mm 0.00 in0.0 mm
11:59 AM 79.1°F26.2°C 71.3°F21.8°C 77% 1.2 mph SSE1.9 kmh SSE 3.5 mph5.6 kmh 28.31 in958.7 mb - 0.00 in0.0 mm 0.00 in0.0 mm
11:58 AM 79.2°F26.2°C 71.3°F21.8°C 77% Calm Calm 2.3 mph3.7 kmh 28.31 in958.7 mb - 0.00 in0.0 mm 0.00 in0.0 mm
11:57 AM 79.5°F26.4°C 72.0°F22.2°C 78% 1.2 mph SE1.9 kmh SE 1.2 mph1.9 kmh 28.31 in958.7 mb - 0.00 in0.0 mm 0.00 in0.0 mm
11:56 AM 79.3°F26.3°C 72.2°F22.3°C 79% 2.3 mph SSE3.7 kmh SSE 2.3 mph3.7 kmh 28.31 in958.7 mb - 0.00 in0.0 mm 0.00 in0.0 mm
11:55 AM 79.0°F26.1°C 72.0°F22.2°C 79% 2.3 mph SSE3.7 kmh SSE 2.3 mph3.7 kmh 28.31 in958.7 mb - 0.00 in0.0 mm 0.00 in0.0 mm
11:54 AM 79.2°F26.2°C 71.7°F22.1°C 78% Calm Calm 2.3 mph3.7 kmh 28.31 in958.7 mb - 0.00 in0.0 mm 0.00 in0.0 mm
11:53 AM 79.2°F26.2°C 71.7°F22.1°C 78% Calm Calm -- 28.31 in958.7 mb - 0.00 in0.0 mm 0.00 in0.0 mm
11:52 AM 79.0°F26.1°C 71.6°F22.0°C 78% Calm Calm -- 28.31 in958.7 mb - 0.00 in0.0 mm 0.00 in0.0 mm
11:51 AM 78.9°F26.1°C 71.1°F21.7°C 77% 1.2 mph SSE1.9 kmh SSE 1.2 mph1.9 kmh 28.32 in959.0 mb - 0.00 in0.0 mm 0.00 in0.0 mm
11:50 AM 78.6°F25.9°C 70.8°F21.6°C 77% 2.3 mph NNW3.7 kmh NNW 2.3 mph3.7 kmh 28.32 in959.0 mb - 0.00 in0.0 mm 0.00 in0.0 mm
11:49 AM 78.3°F25.7°C 70.9°F21.6°C 78% 1.2 mph SSE1.9 kmh SSE 2.3 mph3.7 kmh 28.32 in959.0 mb - 0.00 in0.0 mm 0.00 in0.0 mm
11:48 AM 78.6°F25.9°C 70.8°F21.6°C 77% 1.2 mph ENE1.9 kmh ENE 2.3 mph3.7 kmh 28.32 in959.0 mb - 0.00 in0.0 mm 0.00 in0.0 mm
11:47 AM 78.6°F25.9°C 70.8°F21.6°C 77% 1.2 mph NW1.9 kmh NW 2.3 mph3.7 kmh 28.32 in959.0 mb - 0.00 in0.0 mm 0.00 in0.0 mm
11:46 AM 78.5°F25.8°C 70.7°F21.5°C 77% 2.3 mph SSE3.7 kmh SSE 2.3 mph3.7 kmh 28.32 in959.0 mb - 0.00 in0.0 mm 0.00 in0.0 mm
11:45 AM 78.3°F25.7°C 70.9°F21.6°C 78% 2.3 mph SSE3.7 kmh SSE 2.3 mph3.7 kmh 28.32 in959.0 mb - 0.00 in0.0 mm 0.00 in0.0 mm
11:44 AM 78.3°F25.7°C 71.2°F21.8°C 79% 1.2 mph S1.9 kmh S 2.3 mph3.7 kmh 28.32 in959.0 mb - 0.00 in0.0 mm 0.00 in0.0 mm
11:43 AM 78.3°F25.7°C 70.9°F21.6°C 78% 1.2 mph W1.9 kmh W 1.2 mph1.9 kmh 28.32 in959.0 mb - 0.00 in0.0 mm 0.00 in0.0 mm
11:42 AM 78.3°F25.7°C 71.2°F21.8°C 79% 1.2 mph WSW1.9 kmh WSW 1.2 mph1.9 kmh 28.32 in959.0 mb - 0.00 in0.0 mm 0.00 in0.0 mm
11:41 AM 78.2°F25.7°C 70.4°F21.3°C 77% Calm Calm 1.2 mph1.9 kmh 28.32 in959.0 mb - 0.00 in0.0 mm 0.00 in0.0 mm
11:40 AM 77.8°F25.4°C 70.4°F21.3°C 78% Calm Calm -- 28.32 in959.0 mb - 0.00 in0.0 mm 0.00 in0.0 mm
11:39 AM 77.7°F25.4°C 71.0°F21.7°C 80% Calm Calm -- 28.32 in959.0 mb - 0.00 in0.0 mm 0.00 in0.0 mm
11:38 AM 77.5°F25.3°C 70.8°F21.6°C 80% 1.2 mph SW1.9 kmh SW -- 28.32 in959.0 mb - 0.00 in0.0 mm 0.00 in0.0 mm
11:37 AM 77.9°F25.5°C 70.5°F21.4°C 78% 2.3 mph SE3.7 kmh SE 2.3 mph3.7 kmh 28.32 in959.0 mb - 0.00 in0.0 mm 0.00 in0.0 mm
11:36 AM 77.9°F25.5°C 70.9°F21.6°C 79% 2.3 mph S3.7 kmh S 2.3 mph3.7 kmh 28.32 in959.0 mb - 0.00 in0.0 mm 0.00 in0.0 mm
11:35 AM 77.9°F25.5°C 70.9°F21.6°C 79% 1.2 mph SSE1.9 kmh SSE 2.3 mph3.7 kmh 28.32 in959.0 mb - 0.00 in0.0 mm 0.00 in0.0 mm
11:34 AM 77.9°F25.5°C 71.2°F21.8°C 80% Calm Calm 2.3 mph3.7 kmh 28.32 in959.0 mb - 0.00 in0.0 mm 0.00 in0.0 mm
11:33 AM 77.9°F25.5°C 71.2°F21.8°C 80% Calm Calm -- 28.32 in959.0 mb - 0.00 in0.0 mm 0.00 in0.0 mm
11:32 AM 77.4°F25.2°C 70.7°F21.5°C 80% 1.2 mph NE1.9 kmh NE -- 28.32 in959.0 mb - 0.00 in0.0 mm 0.00 in0.0 mm
11:31 AM 76.9°F24.9°C 70.6°F21.4°C 81% 1.2 mph E1.9 kmh E 1.2 mph1.9 kmh 28.32 in959.0 mb - 0.00 in0.0 mm 0.00 in0.0 mm
11:30 AM 76.5°F24.7°C 70.2°F21.2°C 81% 1.2 mph NNE1.9 kmh NNE 1.2 mph1.9 kmh 28.32 in959.0 mb - 0.00 in0.0 mm 0.00 in0.0 mm
11:29 AM 76.3°F24.6°C 70.1°F21.2°C 81% 1.2 mph S1.9 kmh S 1.2 mph1.9 kmh 28.32 in959.0 mb - 0.00 in0.0 mm 0.00 in0.0 mm
11:28 AM 76.6°F24.8°C 69.9°F21.1°C 80% 2.3 mph WSW3.7 kmh WSW 2.3 mph3.7 kmh 28.32 in959.0 mb - 0.00 in0.0 mm 0.00 in0.0 mm
11:27 AM 76.8°F24.9°C 70.1°F21.2°C 80% 2.3 mph WSW3.7 kmh WSW 3.5 mph5.6 kmh 28.32 in959.0 mb - 0.00 in0.0 mm 0.00 in0.0 mm
11:26 AM 77.2°F25.1°C 70.2°F21.2°C 79% 2.3 mph WSW3.7 kmh WSW 3.5 mph5.6 kmh 28.32 in959.0 mb - 0.00 in0.0 mm 0.00 in0.0 mm
11:25 AM 77.9°F25.5°C 70.9°F21.6°C 79% 2.3 mph SW3.7 kmh SW 3.5 mph5.6 kmh 28.32 in959.0 mb - 0.00 in0.0 mm 0.00 in0.0 mm
11:24 AM 77.6°F25.3°C 70.6°F21.4°C 79% Calm Calm 2.3 mph3.7 kmh 28.32 in959.0 mb - 0.00 in0.0 mm 0.00 in0.0 mm
11:23 AM 77.1°F25.1°C 70.1°F21.2°C 79% Calm Calm -- 28.32 in959.0 mb - 0.00 in0.0 mm 0.00 in0.0 mm
11:22 AM 76.5°F24.7°C 69.8°F21.0°C 80% Calm Calm -- 28.32 in959.0 mb - 0.00 in0.0 mm 0.00 in0.0 mm
11:21 AM 76.5°F24.7°C 70.2°F21.2°C 81% 1.2 mph S1.9 kmh S 1.2 mph1.9 kmh 28.32 in959.0 mb - 0.00 in0.0 mm 0.00 in0.0 mm
11:20 AM 76.5°F24.7°C 70.6°F21.4°C 82% Calm Calm 1.2 mph1.9 kmh 28.32 in959.0 mb - 0.00 in0.0 mm 0.00 in0.0 mm
11:19 AM 76.4°F24.7°C 70.5°F21.4°C 82% 1.2 mph SSE1.9 kmh SSE 1.2 mph1.9 kmh 28.32 in959.0 mb - 0.00 in0.0 mm 0.00 in0.0 mm
11:18 AM 76.1°F24.5°C 70.2°F21.2°C 82% 2.3 mph S3.7 kmh S 3.5 mph5.6 kmh 28.32 in959.0 mb - 0.00 in0.0 mm 0.00 in0.0 mm
11:17 AM 75.8°F24.3°C 69.9°F21.1°C 82% 1.2 mph SSW1.9 kmh SSW 3.5 mph5.6 kmh 28.32 in959.0 mb - 0.00 in0.0 mm 0.00 in0.0 mm
11:16 AM 75.9°F24.4°C 70.0°F21.1°C 82% 1.2 mph SW1.9 kmh SW 1.2 mph1.9 kmh 28.32 in959.0 mb - 0.00 in0.0 mm 0.00 in0.0 mm
11:15 AM 75.9°F24.4°C 69.6°F20.9°C 81% 2.3 mph WSW3.7 kmh WSW 1.2 mph1.9 kmh 28.32 in959.0 mb - 0.00 in0.0 mm 0.00 in0.0 mm
11:14 AM 75.9°F24.4°C 69.6°F20.9°C 81% 1.2 mph S1.9 kmh S 2.3 mph3.7 kmh 28.32 in959.0 mb - 0.00 in0.0 mm 0.00 in0.0 mm
11:13 AM 75.8°F24.3°C 69.9°F21.1°C 82% 2.3 mph SE3.7 kmh SE 2.3 mph3.7 kmh 28.32 in959.0 mb - 0.00 in0.0 mm 0.00 in0.0 mm
11:12 AM 75.6°F24.2°C 69.4°F20.8°C 81% 3.5 mph SSE5.6 kmh SSE 3.5 mph5.6 kmh 28.32 in959.0 mb - 0.00 in0.0 mm 0.00 in0.0 mm
11:11 AM 75.4°F24.1°C 69.2°F20.7°C 81% 3.5 mph SSW5.6 kmh SSW 3.5 mph5.6 kmh 28.32 in959.0 mb - 0.00 in0.0 mm 0.00 in0.0 mm
11:10 AM 75.4°F24.1°C 69.5°F20.8°C 82% 2.3 mph S3.7 kmh S 3.5 mph5.6 kmh 28.32 in959.0 mb - 0.00 in0.0 mm 0.00 in0.0 mm
11:09 AM 75.3°F24.1°C 69.4°F20.8°C 82% 1.2 mph WSW1.9 kmh WSW 2.3 mph3.7 kmh 28.32 in959.0 mb - 0.00 in0.0 mm 0.00 in0.0 mm
11:08 AM 75.1°F23.9°C 69.2°F20.7°C 82% 1.2 mph NW1.9 kmh NW 2.3 mph3.7 kmh 28.32 in959.0 mb - 0.00 in0.0 mm 0.00 in0.0 mm
11:07 AM 75.3°F24.1°C 69.4°F20.8°C 82% 1.2 mph W1.9 kmh W 2.3 mph3.7 kmh 28.32 in959.0 mb - 0.00 in0.0 mm 0.00 in0.0 mm
11:06 AM 75.6°F24.2°C 69.7°F20.9°C 82% Calm Calm 2.3 mph3.7 kmh 28.32 in959.0 mb - 0.00 in0.0 mm 0.00 in0.0 mm
11:05 AM 75.7°F24.3°C 69.5°F20.8°C 81% Calm Calm -- 28.31 in958.7 mb - 0.00 in0.0 mm 0.00 in0.0 mm
11:04 AM 75.7°F24.3°C 69.5°F20.8°C 81% 1.2 mph NW1.9 kmh NW 1.2 mph1.9 kmh 28.31 in958.7 mb - 0.00 in0.0 mm 0.00 in0.0 mm
11:03 AM 75.9°F24.4°C 69.6°F20.9°C 81% 1.2 mph W1.9 kmh W 2.3 mph3.7 kmh 28.31 in958.7 mb - 0.00 in0.0 mm 0.00 in0.0 mm
11:02 AM 75.7°F24.3°C 69.1°F20.6°C 80% 1.2 mph WNW1.9 kmh WNW 1.2 mph1.9 kmh 28.31 in958.7 mb - 0.00 in0.0 mm 0.00 in0.0 mm
11:01 AM 75.2°F24.0°C 69.0°F20.6°C 81% 1.2 mph NNW1.9 kmh NNW 2.3 mph3.7 kmh 28.31 in958.7 mb - 0.00 in0.0 mm 0.00 in0.0 mm
11:00 AM 75.4°F24.1°C 69.5°F20.8°C 82% Calm Calm 1.2 mph1.9 kmh 28.31 in958.7 mb - 0.00 in0.0 mm 0.00 in0.0 mm
10:59 AM 75.4°F24.1°C 69.5°F20.8°C 82% Calm Calm -- 28.31 in958.7 mb - 0.00 in0.0 mm 0.00 in0.0 mm
10:58 AM 74.9°F23.8°C 69.1°F20.6°C 82% Calm Calm -- 28.31 in958.7 mb - 0.00 in0.0 mm 0.00 in0.0 mm
10:57 AM 74.8°F23.8°C 69.0°F20.6°C 82% 1.2 mph WSW1.9 kmh WSW 1.2 mph1.9 kmh 28.31 in958.7 mb - 0.00 in0.0 mm 0.00 in0.0 mm
10:56 AM 75.4°F24.1°C 69.5°F20.8°C 82% Calm Calm 1.2 mph1.9 kmh 28.31 in958.7 mb - 0.00 in0.0 mm 0.00 in0.0 mm
10:55 AM 75.3°F24.1°C 69.4°F20.8°C 82% Calm Calm -- 28.31 in958.7 mb - 0.00 in0.0 mm 0.00 in0.0 mm
10:54 AM 75.2°F24.0°C 69.3°F20.7°C 82% Calm Calm -- 28.31 in958.7 mb - 0.00 in0.0 mm 0.00 in0.0 mm
10:53 AM 74.9°F23.8°C 69.1°F20.6°C 82% Calm Calm 1.2 mph1.9 kmh 28.31 in958.7 mb - 0.00 in0.0 mm 0.00 in0.0 mm
10:52 AM 74.7°F23.7°C 68.8°F20.4°C 82% 2.3 mph NW3.7 kmh NW 1.2 mph1.9 kmh 28.31 in958.7 mb - 0.00 in0.0 mm 0.00 in0.0 mm
10:51 AM 74.5°F23.6°C 68.6°F20.3°C 82% 2.3 mph W3.7 kmh W 2.3 mph3.7 kmh 28.31 in958.7 mb - 0.00 in0.0 mm 0.00 in0.0 mm
10:50 AM 74.4°F23.6°C 68.6°F20.3°C 82% 1.2 mph WSW1.9 kmh WSW 2.3 mph3.7 kmh 28.31 in958.7 mb - 0.00 in0.0 mm 0.00 in0.0 mm
10:49 AM 74.5°F23.6°C 68.6°F20.3°C 82% Calm Calm 1.2 mph1.9 kmh 28.31 in958.7 mb - 0.00 in0.0 mm 0.00 in0.0 mm
10:48 AM 74.8°F23.8°C 68.6°F20.3°C 81% 1.2 mph WNW1.9 kmh WNW 1.2 mph1.9 kmh 28.31 in958.7 mb - 0.00 in0.0 mm 0.00 in0.0 mm
10:47 AM 74.8°F23.8°C 68.5°F20.3°C 81% Calm Calm 2.3 mph3.7 kmh 28.31 in958.7 mb - 0.00 in0.0 mm 0.00 in0.0 mm
10:46 AM 74.6°F23.7°C 68.7°F20.4°C 82% 1.2 mph E1.9 kmh E -- 28.31 in958.7 mb - 0.00 in0.0 mm 0.00 in0.0 mm
10:45 AM 74.3°F23.5°C 68.8°F20.4°C 83% 2.3 mph N3.7 kmh N 2.3 mph3.7 kmh 28.31 in958.7 mb - 0.00 in0.0 mm 0.00 in0.0 mm
10:44 AM 73.9°F23.3°C 68.4°F20.2°C 83% 2.3 mph NNW3.7 kmh NNW 2.3 mph3.7 kmh 28.31 in958.7 mb - 0.00 in0.0 mm 0.00 in0.0 mm
10:43 AM 74.3°F23.5°C 68.8°F20.4°C 83% 1.2 mph WSW1.9 kmh WSW 2.3 mph3.7 kmh 28.31 in958.7 mb - 0.00 in0.0 mm 0.00 in0.0 mm
10:42 AM 74.2°F23.4°C 68.3°F20.2°C 82% 1.2 mph N1.9 kmh N 1.2 mph1.9 kmh 28.31 in958.7 mb - 0.00 in0.0 mm 0.00 in0.0 mm
10:41 AM 73.5°F23.1°C 68.0°F20.0°C 83% 2.3 mph N3.7 kmh N 1.2 mph1.9 kmh 28.31 in958.7 mb - 0.00 in0.0 mm 0.00 in0.0 mm
10:40 AM 73.2°F22.9°C 67.7°F19.8°C 83% 2.3 mph WSW3.7 kmh WSW 2.3 mph3.7 kmh 28.31 in958.7 mb - 0.00 in0.0 mm 0.00 in0.0 mm
10:39 AM 73.2°F22.9°C 68.1°F20.1°C 84% Calm Calm 2.3 mph3.7 kmh 28.31 in958.7 mb - 0.00 in0.0 mm 0.00 in0.0 mm
10:38 AM 73.0°F22.8°C 67.9°F19.9°C 84% Calm Calm -- 28.31 in958.7 mb - 0.00 in0.0 mm 0.00 in0.0 mm
10:37 AM 72.9°F22.7°C 67.8°F19.9°C 84% Calm Calm -- 28.31 in958.7 mb - 0.00 in0.0 mm 0.00 in0.0 mm
10:36 AM 72.9°F22.7°C 67.8°F19.9°C 84% Calm Calm -- 28.31 in958.7 mb - 0.00 in0.0 mm 0.00 in0.0 mm
10:35 AM 73.2°F22.9°C 67.8°F19.9°C 83% Calm Calm -- 28.31 in958.7 mb - 0.00 in0.0 mm 0.00 in0.0 mm
10:34 AM 73.6°F23.1°C 67.8°F19.9°C 82% Calm Calm -- 28.31 in958.7 mb - 0.00 in0.0 mm 0.00 in0.0 mm
10:33 AM 73.5°F23.1°C 68.0°F20.0°C 83% Calm Calm -- 28.31 in958.7 mb - 0.00 in0.0 mm 0.00 in0.0 mm
10:32 AM 73.4°F23.0°C 67.9°F19.9°C 83% 1.2 mph ENE1.9 kmh ENE 1.2 mph1.9 kmh 28.31 in958.7 mb - 0.00 in0.0 mm 0.00 in0.0 mm
10:31 AM 73.1°F22.8°C 67.6°F19.8°C 83% 2.3 mph NE3.7 kmh NE 3.5 mph5.6 kmh 28.31 in958.7 mb - 0.00 in0.0 mm 0.00 in0.0 mm
10:30 AM 72.8°F22.7°C 67.6°F19.8°C 84% 1.2 mph N1.9 kmh N 2.3 mph3.7 kmh 28.31 in958.7 mb - 0.00 in0.0 mm 0.00 in0.0 mm
10:29 AM 72.3°F22.4°C 67.2°F19.6°C 84% 1.2 mph SSE1.9 kmh SSE 2.3 mph3.7 kmh 28.31 in958.7 mb - 0.00 in0.0 mm 0.00 in0.0 mm
10:28 AM 71.6°F22.0°C 66.9°F19.4°C 85% Calm Calm 2.3 mph3.7 kmh 28.31 in958.7 mb - 0.00 in0.0 mm 0.00 in0.0 mm
10:27 AM 71.6°F22.0°C 66.8°F19.3°C 85% Calm Calm -- 28.31 in958.7 mb - 0.00 in0.0 mm 0.00 in0.0 mm
10:26 AM 71.6°F22.0°C 66.8°F19.3°C 85% Calm Calm -- 28.31 in958.7 mb - 0.00 in0.0 mm 0.00 in0.0 mm
10:25 AM 71.5°F21.9°C 66.8°F19.3°C 85% Calm Calm -- 28.31 in958.7 mb - 0.00 in0.0 mm 0.00 in0.0 mm
10:24 AM 71.3°F21.8°C 66.5°F19.2°C 85% 1.2 mph SW1.9 kmh SW 1.2 mph1.9 kmh 28.31 in958.7 mb - 0.00 in0.0 mm 0.00 in0.0 mm
10:23 AM 71.2°F21.8°C 66.4°F19.1°C 85% Calm Calm 1.2 mph1.9 kmh 28.31 in958.7 mb - 0.00 in0.0 mm 0.00 in0.0 mm
10:22 AM 71.1°F21.7°C 66.3°F19.1°C 85% 1.2 mph S1.9 kmh S -- 28.31 in958.7 mb - 0.00 in0.0 mm 0.00 in0.0 mm
10:21 AM 70.9°F21.6°C 66.2°F19.0°C 85% 2.3 mph W3.7 kmh W 2.3 mph3.7 kmh 28.31 in958.7 mb - 0.00 in0.0 mm 0.00 in0.0 mm
10:20 AM 70.9°F21.6°C 66.2°F19.0°C 85% 2.3 mph SW3.7 kmh SW 2.3 mph3.7 kmh 28.31 in958.7 mb - 0.00 in0.0 mm 0.00 in0.0 mm
10:19 AM 70.9°F21.6°C 66.2°F19.0°C 85% Calm Calm 2.3 mph3.7 kmh 28.31 in958.7 mb - 0.00 in0.0 mm 0.00 in0.0 mm
10:18 AM 71.0°F21.7°C 66.3°F19.1°C 85% 1.2 mph W1.9 kmh W 2.3 mph3.7 kmh 28.31 in958.7 mb - 0.00 in0.0 mm 0.00 in0.0 mm
10:17 AM 70.9°F21.6°C 66.5°F19.2°C 86% 2.3 mph W3.7 kmh W 2.3 mph3.7 kmh 28.31 in958.7 mb - 0.00 in0.0 mm 0.00 in0.0 mm
10:16 AM 70.7°F21.5°C 66.0°F18.9°C 85% 2.3 mph WSW3.7 kmh WSW 2.3 mph3.7 kmh 28.31 in958.7 mb - 0.00 in0.0 mm 0.00 in0.0 mm
10:15 AM 70.7°F21.5°C 66.0°F18.9°C 85% 2.3 mph W3.7 kmh W 3.5 mph5.6 kmh 28.31 in958.7 mb - 0.00 in0.0 mm 0.00 in0.0 mm
10:14 AM 70.9°F21.6°C 66.5°F19.2°C 86% 1.2 mph WSW1.9 kmh WSW 2.3 mph3.7 kmh 28.31 in958.7 mb - 0.00 in0.0 mm 0.00 in0.0 mm
10:13 AM 70.8°F21.6°C 66.4°F19.1°C 86% 1.2 mph SW1.9 kmh SW 2.3 mph3.7 kmh 28.31 in958.7 mb - 0.00 in0.0 mm 0.00 in0.0 mm
10:12 AM 70.4°F21.3°C 66.0°F18.9°C 86% 1.2 mph SE1.9 kmh SE 1.2 mph1.9 kmh 28.31 in958.7 mb - 0.00 in0.0 mm 0.00 in0.0 mm
10:11 AM 70.2°F21.2°C 65.8°F18.8°C 86% 2.3 mph S3.7 kmh S 2.3 mph3.7 kmh 28.31 in958.7 mb - 0.00 in0.0 mm 0.00 in0.0 mm
10:10 AM 70.3°F21.3°C 65.9°F18.8°C 86% 3.5 mph SW5.6 kmh SW 2.3 mph3.7 kmh 28.31 in958.7 mb - 0.00 in0.0 mm 0.00 in0.0 mm
10:09 AM 70.5°F21.4°C 66.1°F18.9°C 86% 3.5 mph SW5.6 kmh SW 3.5 mph5.6 kmh 28.31 in958.7 mb - 0.00 in0.0 mm 0.00 in0.0 mm
10:08 AM 70.4°F21.3°C 66.3°F19.1°C 87% 2.3 mph WNW3.7 kmh WNW 3.5 mph5.6 kmh 28.31 in958.7 mb - 0.00 in0.0 mm 0.00 in0.0 mm
10:07 AM 70.3°F21.3°C 66.2°F19.0°C 87% Calm Calm 2.3 mph3.7 kmh 28.31 in958.7 mb - 0.00 in0.0 mm 0.00 in0.0 mm
10:06 AM 70.3°F21.3°C 66.2°F19.0°C 87% 1.2 mph WSW1.9 kmh WSW -- 28.31 in958.7 mb - 0.00 in0.0 mm 0.00 in0.0 mm
10:05 AM 70.4°F21.3°C 66.0°F18.9°C 86% 1.2 mph SW1.9 kmh SW 2.3 mph3.7 kmh 28.31 in958.7 mb - 0.00 in0.0 mm 0.00 in0.0 mm
10:04 AM 70.5°F21.4°C 66.1°F18.9°C 86% 2.3 mph W3.7 kmh W 2.3 mph3.7 kmh 28.31 in958.7 mb - 0.00 in0.0 mm 0.00 in0.0 mm
10:03 AM 70.5°F21.4°C 66.1°F18.9°C 86% 2.3 mph WSW3.7 kmh WSW 3.5 mph5.6 kmh 28.31 in958.7 mb - 0.00 in0.0 mm 0.00 in0.0 mm
10:02 AM 70.3°F21.3°C 65.9°F18.8°C 86% 2.3 mph SSW3.7 kmh SSW 3.5 mph5.6 kmh 28.31 in958.7 mb - 0.00 in0.0 mm 0.00 in0.0 mm
10:01 AM 70.4°F21.3°C 66.0°F18.9°C 86% 2.3 mph WSW3.7 kmh WSW 3.5 mph5.6 kmh 28.31 in958.7 mb - 0.00 in0.0 mm 0.00 in0.0 mm
10:00 AM 70.7°F21.5°C 66.3°F19.1°C 86% 3.5 mph WSW5.6 kmh WSW 3.5 mph5.6 kmh 28.31 in958.7 mb - 0.00 in0.0 mm 0.00 in0.0 mm
09:59 AM 70.7°F21.5°C 66.3°F19.1°C 86% 3.5 mph WSW5.6 kmh WSW 3.5 mph5.6 kmh 28.31 in958.7 mb - 0.00 in0.0 mm 0.00 in0.0 mm
09:58 AM 70.7°F21.5°C 66.3°F19.1°C 86% 2.3 mph NW3.7 kmh NW 3.5 mph5.6 kmh 28.31 in958.7 mb - 0.00 in0.0 mm 0.00 in0.0 mm
09:57 AM 70.8°F21.6°C 66.4°F19.1°C 86% 2.3 mph WSW3.7 kmh WSW 2.3 mph3.7 kmh 28.31 in958.7 mb - 0.00 in0.0 mm 0.00 in0.0 mm
09:56 AM 70.9°F21.6°C 66.5°F19.2°C 86% 2.3 mph WSW3.7 kmh WSW 3.5 mph5.6 kmh 28.31 in958.7 mb - 0.00 in0.0 mm 0.00 in0.0 mm
09:55 AM 70.9°F21.6°C 66.5°F19.2°C 86% 2.3 mph NW3.7 kmh NW 2.3 mph3.7 kmh 28.31 in958.7 mb - 0.00 in0.0 mm 0.00 in0.0 mm
09:54 AM 70.6°F21.4°C 66.2°F19.0°C 86% 2.3 mph NW3.7 kmh NW 2.3 mph3.7 kmh 28.31 in958.7 mb - 0.00 in0.0 mm 0.00 in0.0 mm
09:53 AM 70.3°F21.3°C 66.3°F19.1°C 87% 1.2 mph WNW1.9 kmh WNW 3.5 mph5.6 kmh 28.31 in958.7 mb - 0.00 in0.0 mm 0.00 in0.0 mm
09:52 AM 70.1°F21.2°C 66.0°F18.9°C 87% Calm Calm -- 28.31 in958.7 mb - 0.00 in0.0 mm 0.00 in0.0 mm
09:51 AM 70.0°F21.1°C 66.0°F18.9°C 87% Calm Calm -- 28.31 in958.7 mb - 0.00 in0.0 mm 0.00 in0.0 mm
09:50 AM 70.1°F21.2°C 66.0°F18.9°C 87% Calm Calm -- 28.31 in958.7 mb - 0.00 in0.0 mm 0.00 in0.0 mm
09:49 AM 70.3°F21.3°C 66.2°F19.0°C 87% Calm Calm -- 28.31 in958.7 mb - 0.00 in0.0 mm 0.00 in0.0 mm
09:48 AM 70.2°F21.2°C 66.1°F18.9°C 87% Calm Calm -- 28.31 in958.7 mb - 0.00 in0.0 mm 0.00 in0.0 mm
09:47 AM 70.2°F21.2°C 66.1°F18.9°C 87% Calm Calm -- 28.31 in958.7 mb - 0.00 in0.0 mm 0.00 in0.0 mm
09:46 AM 70.2°F21.2°C 66.1°F18.9°C 87% Calm Calm -- 28.31 in958.7 mb - 0.00 in0.0 mm 0.00 in0.0 mm
09:45 AM 70.2°F21.2°C 65.8°F18.8°C 86% Calm Calm -- 28.31 in958.7 mb - 0.00 in0.0 mm 0.00 in0.0 mm
09:44 AM 70.6°F21.4°C 66.2°F19.0°C 86% Calm Calm -- 28.31 in958.7 mb - 0.00 in0.0 mm 0.00 in0.0 mm
09:43 AM 70.9°F21.6°C 66.2°F19.0°C 85% Calm Calm -- 28.31 in958.7 mb - 0.00 in0.0 mm 0.00 in0.0 mm
09:42 AM 70.7°F21.5°C 66.0°F18.9°C 85% Calm Calm -- 28.31 in958.7 mb - 0.00 in0.0 mm 0.00 in0.0 mm
09:41 AM 70.7°F21.5°C 66.0°F18.9°C 85% Calm Calm -- 28.31 in958.7 mb - 0.00 in0.0 mm 0.00 in0.0 mm
09:40 AM 70.7°F21.5°C 66.0°F18.9°C 85% 1.2 mph WNW1.9 kmh WNW -- 28.31 in958.7 mb - 0.00 in0.0 mm 0.00 in0.0 mm
09:39 AM 70.7°F21.5°C 66.0°F18.9°C 85% 1.2 mph N1.9 kmh N 1.2 mph1.9 kmh 28.30 in958.3 mb - 0.00 in0.0 mm 0.00 in0.0 mm
09:38 AM 70.8°F21.6°C 66.1°F18.9°C 85% 2.3 mph NW3.7 kmh NW 2.3 mph3.7 kmh 28.30 in958.3 mb - 0.00 in0.0 mm 0.00 in0.0 mm
09:37 AM 70.9°F21.6°C 66.2°F19.0°C 85% 2.3 mph NW3.7 kmh NW 2.3 mph3.7 kmh 28.30 in958.3 mb - 0.00 in0.0 mm 0.00 in0.0 mm
09:36 AM 70.9°F21.6°C 66.2°F19.0°C 85% Calm Calm 2.3 mph3.7 kmh 28.30 in958.3 mb - 0.00 in0.0 mm 0.00 in0.0 mm
09:35 AM 70.9°F21.6°C 66.2°F19.0°C 85% 1.2 mph NE1.9 kmh NE 1.2 mph1.9 kmh 28.30 in958.3 mb - 0.00 in0.0 mm 0.00 in0.0 mm
09:34 AM 71.2°F21.8°C 66.8°F19.3°C 86% 1.2 mph N1.9 kmh N 1.2 mph1.9 kmh 28.30 in958.3 mb - 0.00 in0.0 mm 0.00 in0.0 mm
09:33 AM 71.1°F21.7°C 66.4°F19.1°C 85% 1.2 mph NNW1.9 kmh NNW 1.2 mph1.9 kmh 28.30 in958.3 mb - 0.00 in0.0 mm 0.00 in0.0 mm
09:32 AM 70.6°F21.4°C 66.2°F19.0°C 86% Calm Calm 1.2 mph1.9 kmh 28.30 in958.3 mb - 0.00 in0.0 mm 0.00 in0.0 mm
09:31 AM 69.8°F21.0°C 65.7°F18.7°C 87% 1.2 mph SW1.9 kmh SW 1.2 mph1.9 kmh 28.30 in958.3 mb - 0.00 in0.0 mm 0.00 in0.0 mm
09:30 AM 69.7°F20.9°C 65.7°F18.7°C 87% 1.2 mph N1.9 kmh N 2.3 mph3.7 kmh 28.30 in958.3 mb - 0.00 in0.0 mm 0.00 in0.0 mm
09:29 AM 69.4°F20.8°C 65.4°F18.6°C 87% 2.3 mph SW3.7 kmh SW 1.2 mph1.9 kmh 28.30 in958.3 mb - 0.00 in0.0 mm 0.00 in0.0 mm
09:28 AM 69.2°F20.7°C 65.5°F18.6°C 88% 2.3 mph W3.7 kmh W 2.3 mph3.7 kmh 28.30 in958.3 mb - 0.00 in0.0 mm 0.00 in0.0 mm
09:27 AM 69.1°F20.6°C 65.4°F18.6°C 88% 1.2 mph WSW1.9 kmh WSW 2.3 mph3.7 kmh 28.30 in958.3 mb - 0.00 in0.0 mm 0.00 in0.0 mm
09:26 AM 68.9°F20.5°C 65.2°F18.4°C 88% 2.3 mph W3.7 kmh W 2.3 mph3.7 kmh 28.30 in958.3 mb - 0.00 in0.0 mm 0.00 in0.0 mm
09:25 AM 68.7°F20.4°C 65.3°F18.5°C 89% 1.2 mph WNW1.9 kmh WNW 2.3 mph3.7 kmh 28.30 in958.3 mb - 0.00 in0.0 mm 0.00 in0.0 mm
09:24 AM 68.9°F20.5°C 65.2°F18.4°C 88% Calm Calm -- 28.30 in958.3 mb - 0.00 in0.0 mm 0.00 in0.0 mm
09:23 AM 69.3°F20.7°C 65.3°F18.5°C 87% 1.2 mph NW1.9 kmh NW 2.3 mph3.7 kmh 28.30 in958.3 mb - 0.00 in0.0 mm 0.00 in0.0 mm
09:22 AM 69.3°F20.7°C 65.3°F18.5°C 87% 1.2 mph NNW1.9 kmh NNW 2.3 mph3.7 kmh 28.30 in958.3 mb - 0.00 in0.0 mm 0.00 in0.0 mm
09:21 AM 69.1°F20.6°C 65.4°F18.6°C 88% 1.2 mph N1.9 kmh N 1.2 mph1.9 kmh 28.30 in958.3 mb - 0.00 in0.0 mm 0.00 in0.0 mm
09:20 AM 68.8°F20.4°C 65.1°F18.4°C 88% Calm Calm 2.3 mph3.7 kmh 28.30 in958.3 mb - 0.00 in0.0 mm 0.00 in0.0 mm
09:19 AM 68.5°F20.3°C 64.8°F18.2°C 88% Calm Calm -- 28.30 in958.3 mb - 0.00 in0.0 mm 0.00 in0.0 mm
09:18 AM 68.2°F20.1°C 64.5°F18.1°C 88% Calm Calm -- 28.30 in958.3 mb - 0.00 in0.0 mm 0.00 in0.0 mm
09:17 AM 67.8°F19.9°C 64.1°F17.8°C 88% Calm Calm -- 28.30 in958.3 mb - 0.00 in0.0 mm 0.00 in0.0 mm
09:16 AM 67.3°F19.6°C 64.2°F17.9°C 90% Calm Calm -- 28.30 in958.3 mb - 0.00 in0.0 mm 0.00 in0.0 mm
09:15 AM 67.0°F19.4°C 63.9°F17.7°C 90% Calm Calm -- 28.30 in958.3 mb - 0.00 in0.0 mm 0.00 in0.0 mm
09:14 AM 66.5°F19.2°C 63.5°F17.5°C 90% Calm Calm -- 28.30 in958.3 mb - 0.00 in0.0 mm 0.00 in0.0 mm
09:13 AM 66.2°F19.0°C 63.5°F17.5°C 91% 1.2 mph NW1.9 kmh NW -- 28.30 in958.3 mb - 0.00 in0.0 mm 0.00 in0.0 mm
09:12 AM 66.2°F19.0°C 63.5°F17.5°C 91% 2.3 mph WSW3.7 kmh WSW 2.3 mph3.7 kmh 28.30 in958.3 mb - 0.00 in0.0 mm 0.00 in0.0 mm
09:11 AM 66.2°F19.0°C 63.5°F17.5°C 91% 2.3 mph WSW3.7 kmh WSW 2.3 mph3.7 kmh 28.30 in958.3 mb - 0.00 in0.0 mm 0.00 in0.0 mm
09:10 AM 66.1°F18.9°C 63.4°F17.4°C 91% 3.5 mph W5.6 kmh W 3.5 mph5.6 kmh 28.30 in958.3 mb - 0.00 in0.0 mm 0.00 in0.0 mm
09:09 AM 66.0°F18.9°C 63.3°F17.4°C 91% 3.5 mph W5.6 kmh W 3.5 mph5.6 kmh 28.30 in958.3 mb - 0.00 in0.0 mm 0.00 in0.0 mm
09:08 AM 66.0°F18.9°C 63.3°F17.4°C 91% 2.3 mph WNW3.7 kmh WNW 3.5 mph5.6 kmh 28.30 in958.3 mb - 0.00 in0.0 mm 0.00 in0.0 mm
09:07 AM 66.0°F18.9°C 63.3°F17.4°C 91% 2.3 mph WNW3.7 kmh WNW 3.5 mph5.6 kmh 28.30 in958.3 mb - 0.00 in0.0 mm 0.00 in0.0 mm
09:06 AM 65.9°F18.8°C 63.5°F17.5°C 92% 3.5 mph W5.6 kmh W 3.5 mph5.6 kmh 28.30 in958.3 mb - 0.00 in0.0 mm 0.00 in0.0 mm
09:05 AM 65.7°F18.7°C 63.3°F17.4°C 92% 2.3 mph WNW3.7 kmh WNW 3.5 mph5.6 kmh 28.30 in958.3 mb - 0.00 in0.0 mm 0.00 in0.0 mm
09:04 AM 65.7°F18.7°C 63.3°F17.4°C 92% 2.3 mph WNW3.7 kmh WNW 2.3 mph3.7 kmh 28.30 in958.3 mb - 0.00 in0.0 mm 0.00 in0.0 mm
09:03 AM 65.6°F18.7°C 63.3°F17.4°C 92% 2.3 mph NW3.7 kmh NW 2.3 mph3.7 kmh 28.30 in958.3 mb - 0.00 in0.0 mm 0.00 in0.0 mm
09:02 AM 65.4°F18.6°C 63.0°F17.2°C 92% 2.3 mph NW3.7 kmh NW 3.5 mph5.6 kmh 28.30 in958.3 mb - 0.00 in0.0 mm 0.00 in0.0 mm
09:01 AM 65.3°F18.5°C 62.9°F17.2°C 92% 2.3 mph NW3.7 kmh NW 2.3 mph3.7 kmh 28.30 in958.3 mb - 0.00 in0.0 mm 0.00 in0.0 mm
09:00 AM 65.3°F18.5°C 62.9°F17.2°C 92% 2.3 mph W3.7 kmh W 3.5 mph5.6 kmh 28.30 in958.3 mb - 0.00 in0.0 mm 0.00 in0.0 mm
08:59 AM 65.1°F18.4°C 62.7°F17.1°C 92% 1.2 mph W1.9 kmh W 3.5 mph5.6 kmh 28.30 in958.3 mb - 0.00 in0.0 mm 0.00 in0.0 mm
08:58 AM 65.1°F18.4°C 62.7°F17.1°C 92% Calm Calm -- 28.30 in958.3 mb - 0.00 in0.0 mm 0.00 in0.0 mm
08:57 AM 64.9°F18.3°C 62.5°F16.9°C 92% Calm Calm -- 28.30 in958.3 mb - 0.00 in0.0 mm 0.00 in0.0 mm
08:56 AM 64.8°F18.2°C 62.4°F16.9°C 92% Calm Calm -- 28.30 in958.3 mb - 0.00 in0.0 mm 0.00 in0.0 mm
08:55 AM 64.8°F18.2°C 62.4°F16.9°C 92% Calm Calm -- 28.30 in958.3 mb - 0.00 in0.0 mm 0.00 in0.0 mm
08:54 AM 64.8°F18.2°C 62.4°F16.9°C 92% Calm Calm -- 28.30 in958.3 mb - 0.00 in0.0 mm 0.00 in0.0 mm
08:53 AM 64.8°F18.2°C 62.4°F16.9°C 92% Calm Calm -- 28.30 in958.3 mb - 0.00 in0.0 mm 0.00 in0.0 mm
08:52 AM 64.8°F18.2°C 62.4°F16.9°C 92% Calm Calm -- 28.30 in958.3 mb - 0.00 in0.0 mm 0.00 in0.0 mm
08:51 AM 64.8°F18.2°C 62.4°F16.9°C 92% Calm Calm -- 28.30 in958.3 mb - 0.00 in0.0 mm 0.00 in0.0 mm
08:50 AM 64.8°F18.2°C 62.5°F16.9°C 92% Calm Calm -- 28.30 in958.3 mb - 0.00 in0.0 mm 0.00 in0.0 mm
08:49 AM 65.1°F18.4°C 62.7°F17.1°C 92% Calm Calm -- 28.30 in958.3 mb - 0.00 in0.0 mm 0.00 in0.0 mm
08:48 AM 65.0°F18.3°C 62.6°F17.0°C 92% Calm Calm -- 28.30 in958.3 mb - 0.00 in0.0 mm 0.00 in0.0 mm
08:47 AM 64.9°F18.3°C 62.5°F16.9°C 92% Calm Calm -- 28.30 in958.3 mb - 0.00 in0.0 mm 0.00 in0.0 mm
08:46 AM 64.7°F18.2°C 62.3°F16.8°C 92% Calm Calm -- 28.30 in958.3 mb - 0.00 in0.0 mm 0.00 in0.0 mm
08:45 AM 64.5°F18.1°C 62.1°F16.7°C 92% 1.2 mph NW1.9 kmh NW 1.2 mph1.9 kmh 28.30 in958.3 mb - 0.00 in0.0 mm 0.00 in0.0 mm
08:44 AM 64.0°F17.8°C 61.7°F16.5°C 92% 1.2 mph NNW1.9 kmh NNW 1.2 mph1.9 kmh 28.30 in958.3 mb - 0.00 in0.0 mm 0.00 in0.0 mm
08:43 AM 64.0°F17.8°C 61.9°F16.6°C 93% Calm Calm 1.2 mph1.9 kmh 28.30 in958.3 mb - 0.00 in0.0 mm 0.00 in0.0 mm
08:42 AM 63.7°F17.6°C 61.7°F16.5°C 93% Calm Calm -- 28.30 in958.3 mb - 0.00 in0.0 mm 0.00 in0.0 mm
08:41 AM 63.3°F17.4°C 61.6°F16.4°C 94% Calm Calm -- 28.29 in958.0 mb - 0.00 in0.0 mm 0.00 in0.0 mm
08:40 AM 63.1°F17.3°C 61.3°F16.3°C 94% Calm Calm -- 28.29 in958.0 mb - 0.00 in0.0 mm 0.00 in0.0 mm
08:39 AM 63.1°F17.3°C 61.4°F16.3°C 94% Calm Calm -- 28.29 in958.0 mb - 0.00 in0.0 mm 0.00 in0.0 mm
08:38 AM 63.3°F17.4°C 61.5°F16.4°C 94% Calm Calm -- 28.29 in958.0 mb - 0.00 in0.0 mm 0.00 in0.0 mm
08:37 AM 63.3°F17.4°C 61.5°F16.4°C 94% 1.2 mph W1.9 kmh W 1.2 mph1.9 kmh 28.29 in958.0 mb - 0.00 in0.0 mm 0.00 in0.0 mm
08:36 AM 63.3°F17.4°C 61.5°F16.4°C 94% Calm Calm 2.3 mph3.7 kmh 28.29 in958.0 mb - 0.00 in0.0 mm 0.00 in0.0 mm
08:35 AM 63.3°F17.4°C 61.5°F16.4°C 94% Calm Calm -- 28.29 in958.0 mb - 0.00 in0.0 mm 0.00 in0.0 mm
08:34 AM 63.2°F17.3°C 61.5°F16.4°C 94% Calm Calm -- 28.29 in958.0 mb - 0.00 in0.0 mm 0.00 in0.0 mm
08:33 AM 63.0°F17.2°C 61.6°F16.4°C 95% Calm Calm -- 28.29 in958.0 mb - 0.00 in0.0 mm 0.00 in0.0 mm
08:32 AM 62.7°F17.1°C 61.3°F16.3°C 95% Calm Calm -- 28.29 in958.0 mb - 0.00 in0.0 mm 0.00 in0.0 mm
08:31 AM 62.4°F16.9°C 61.3°F16.3°C 96% Calm Calm -- 28.29 in958.0 mb - 0.00 in0.0 mm 0.00 in0.0 mm
08:30 AM 62.4°F16.9°C 61.2°F16.2°C 96% Calm Calm -- 28.29 in958.0 mb - 0.00 in0.0 mm 0.00 in0.0 mm
08:29 AM 62.3°F16.8°C 61.2°F16.2°C 96% Calm Calm -- 28.29 in958.0 mb - 0.00 in0.0 mm 0.00 in0.0 mm
08:28 AM 62.2°F16.8°C 61.0°F16.1°C 96% Calm Calm -- 28.28 in957.7 mb - 0.00 in0.0 mm 0.00 in0.0 mm
08:27 AM 62.2°F16.8°C 61.0°F16.1°C 96% Calm Calm -- 28.28 in957.7 mb - 0.00 in0.0 mm 0.00 in0.0 mm
08:26 AM 62.2°F16.8°C 61.0°F16.1°C 96% Calm Calm -- 28.28 in957.7 mb - 0.00 in0.0 mm 0.00 in0.0 mm
08:25 AM 62.0°F16.7°C 60.8°F16.0°C 96% Calm Calm -- 28.28 in957.7 mb - 0.00 in0.0 mm 0.00 in0.0 mm
08:24 AM 61.9°F16.6°C 60.7°F15.9°C 96% Calm Calm -- 28.28 in957.7 mb - 0.00 in0.0 mm 0.00 in0.0 mm
08:23 AM 61.9°F16.6°C 60.7°F15.9°C 96% Calm Calm -- 28.28 in957.7 mb - 0.00 in0.0 mm 0.00 in0.0 mm
08:22 AM 61.8°F16.6°C 60.6°F15.9°C 96% Calm Calm -- 28.28 in957.7 mb - 0.00 in0.0 mm 0.00 in0.0 mm
08:21 AM 61.7°F16.5°C 60.5°F15.8°C 96% Calm Calm -- 28.28 in957.7 mb - 0.00 in0.0 mm 0.00 in0.0 mm
08:20 AM 61.5°F16.4°C 60.4°F15.8°C 96% Calm Calm -- 28.28 in957.7 mb - 0.00 in0.0 mm 0.00 in0.0 mm
08:19 AM 61.5°F16.4°C 60.3°F15.7°C 96% Calm Calm -- 28.28 in957.7 mb - 0.00 in0.0 mm 0.00 in0.0 mm
08:18 AM 61.3°F16.3°C 60.2°F15.7°C 96% Calm Calm -- 28.28 in957.7 mb - 0.00 in0.0 mm 0.00 in0.0 mm
08:17 AM 61.3°F16.3°C 60.2°F15.7°C 96% Calm Calm -- 28.28 in957.7 mb - 0.00 in0.0 mm 0.00 in0.0 mm
08:16 AM 61.3°F16.3°C 60.2°F15.7°C 96% Calm Calm -- 28.28 in957.7 mb - 0.00 in0.0 mm 0.00 in0.0 mm
08:15 AM 61.3°F16.3°C 60.1°F15.6°C 96% Calm Calm -- 28.28 in957.7 mb - 0.00 in0.0 mm 0.00 in0.0 mm
08:14 AM 61.2°F16.2°C 60.1°F15.6°C 96% Calm Calm -- 28.28 in957.7 mb - 0.00 in0.0 mm 0.00 in0.0 mm
08:13 AM 61.2°F16.2°C 60.1°F15.6°C 96% Calm Calm -- 28.28 in957.7 mb - 0.00 in0.0 mm 0.00 in0.0 mm
08:12 AM 61.0°F16.1°C 59.9°F15.5°C 96% Calm Calm -- 28.28 in957.7 mb - 0.00 in0.0 mm 0.00 in0.0 mm
08:11 AM 61.0°F16.1°C 59.9°F15.5°C 96% Calm Calm -- 28.28 in957.7 mb - 0.00 in0.0 mm 0.00 in0.0 mm
08:10 AM 61.0°F16.1°C 59.8°F15.4°C 96% Calm Calm -- 28.28 in957.7 mb - 0.00 in0.0 mm 0.00 in0.0 mm
08:09 AM 60.8°F16.0°C 59.7°F15.4°C 96% Calm Calm -- 28.28 in957.7 mb - 0.00 in0.0 mm 0.00 in0.0 mm
08:08 AM 60.8°F16.0°C 59.7°F15.4°C 96% Calm Calm -- 28.28 in957.7 mb - 0.00 in0.0 mm 0.00 in0.0 mm
08:07 AM 60.8°F16.0°C 59.7°F15.4°C 96% Calm Calm -- 28.28 in957.7 mb - 0.00 in0.0 mm 0.00 in0.0 mm
08:06 AM 60.7°F15.9°C 59.5°F15.3°C 96% Calm Calm -- 28.28 in957.7 mb - 0.00 in0.0 mm 0.00 in0.0 mm
08:05 AM 60.6°F15.9°C 59.5°F15.3°C 96% Calm Calm -- 28.27 in957.3 mb - 0.00 in0.0 mm 0.00 in0.0 mm
08:04 AM 60.6°F15.9°C 59.5°F15.3°C 96% Calm Calm -- 28.27 in957.3 mb - 0.00 in0.0 mm 0.00 in0.0 mm
08:03 AM 60.6°F15.9°C 59.5°F15.3°C 96% 1.2 mph E1.9 kmh E -- 28.27 in957.3 mb - 0.00 in0.0 mm 0.00 in0.0 mm
08:02 AM 60.6°F15.9°C 59.5°F15.3°C 96% 1.2 mph NE1.9 kmh NE 2.3 mph3.7 kmh 28.27 in957.3 mb - 0.00 in0.0 mm 0.00 in0.0 mm
08:01 AM 60.5°F15.8°C 59.3°F15.2°C 96% Calm Calm 2.3 mph3.7 kmh 28.27 in957.3 mb - 0.00 in0.0 mm 0.00 in0.0 mm
08:00 AM 60.4°F15.8°C 59.3°F15.2°C 96% Calm Calm -- 28.27 in957.3 mb - 0.00 in0.0 mm 0.00 in0.0 mm
07:59 AM 60.4°F15.8°C 59.3°F15.2°C 96% 1.2 mph ENE1.9 kmh ENE 1.2 mph1.9 kmh 28.27 in957.3 mb - 0.00 in0.0 mm 0.00 in0.0 mm
07:58 AM 60.4°F15.8°C 59.3°F15.2°C 96% 1.2 mph ENE1.9 kmh ENE 2.3 mph3.7 kmh 28.27 in957.3 mb - 0.00 in0.0 mm 0.00 in0.0 mm
07:57 AM 60.4°F15.8°C 59.3°F15.2°C 96% Calm Calm 2.3 mph3.7 kmh 28.27 in957.3 mb - 0.00 in0.0 mm 0.00 in0.0 mm
07:56 AM 60.3°F15.7°C 59.2°F15.1°C 96% Calm Calm -- 28.27 in957.3 mb - 0.00 in0.0 mm 0.00 in0.0 mm
07:55 AM 60.3°F15.7°C 59.2°F15.1°C 96% Calm Calm -- 28.27 in957.3 mb - 0.00 in0.0 mm 0.00 in0.0 mm
07:54 AM 60.3°F15.7°C 59.2°F15.1°C 96% Calm Calm -- 28.27 in957.3 mb - 0.00 in0.0 mm 0.00 in0.0 mm
07:53 AM 60.3°F15.7°C 59.2°F15.1°C 96% Calm Calm -- 28.27 in957.3 mb - 0.00 in0.0 mm 0.00 in0.0 mm
07:52 AM 60.3°F15.7°C 59.2°F15.1°C 96% Calm Calm -- 28.27 in957.3 mb - 0.00 in0.0 mm 0.00 in0.0 mm
07:51 AM 60.1°F15.6°C 59.0°F15.0°C 96% 1.2 mph W1.9 kmh W 1.2 mph1.9 kmh 28.27 in957.3 mb - 0.00 in0.0 mm 0.00 in0.0 mm
07:50 AM 60.1°F15.6°C 59.0°F15.0°C 96% 1.2 mph NNW1.9 kmh NNW 1.2 mph1.9 kmh 28.27 in957.3 mb - 0.00 in0.0 mm 0.00 in0.0 mm
07:49 AM 60.1°F15.6°C 59.0°F15.0°C 96% 1.2 mph NW1.9 kmh NW 1.2 mph1.9 kmh 28.27 in957.3 mb - 0.00 in0.0 mm 0.00 in0.0 mm
07:48 AM 60.1°F15.6°C 59.0°F15.0°C 96% 1.2 mph NW1.9 kmh NW 1.2 mph1.9 kmh 28.27 in957.3 mb - 0.00 in0.0 mm 0.00 in0.0 mm
07:47 AM 60.1°F15.6°C 59.0°F15.0°C 96% 2.3 mph NW3.7 kmh NW 2.3 mph3.7 kmh 28.27 in957.3 mb - 0.00 in0.0 mm 0.00 in0.0 mm
07:46 AM 60.1°F15.6°C 59.0°F15.0°C 96% 2.3 mph WNW3.7 kmh WNW 2.3 mph3.7 kmh 28.27 in957.3 mb - 0.00 in0.0 mm 0.00 in0.0 mm
07:45 AM 60.1°F15.6°C 59.0°F15.0°C 96% 1.2 mph NW1.9 kmh NW 2.3 mph3.7 kmh 28.27 in957.3 mb - 0.00 in0.0 mm 0.00 in0.0 mm
07:44 AM 60.0°F15.6°C 58.9°F14.9°C 96% 1.2 mph W1.9 kmh W 1.2 mph1.9 kmh 28.27 in957.3 mb - 0.00 in0.0 mm 0.00 in0.0 mm
07:43 AM 59.9°F15.5°C 58.8°F14.9°C 96% Calm Calm 1.2 mph1.9 kmh 28.27 in957.3 mb - 0.00 in0.0 mm 0.00 in0.0 mm
07:42 AM 59.9°F15.5°C 58.8°F14.9°C 96% Calm Calm -- 28.27 in957.3 mb - 0.00 in0.0 mm 0.00 in0.0 mm
07:41 AM 59.9°F15.5°C 58.8°F14.9°C 96% 1.2 mph W1.9 kmh W -- 28.27 in957.3 mb - 0.00 in0.0 mm 0.00 in0.0 mm
07:40 AM 59.8°F15.4°C 58.6°F14.8°C 96% 2.3 mph NNW3.7 kmh NNW 2.3 mph3.7 kmh 28.27 in957.3 mb - 0.00 in0.0 mm 0.00 in0.0 mm
07:39 AM 59.7°F15.4°C 58.6°F14.8°C 96% 2.3 mph NW3.7 kmh NW 2.3 mph3.7 kmh 28.27 in957.3 mb - 0.00 in0.0 mm 0.00 in0.0 mm
07:38 AM 59.7°F15.4°C 58.6°F14.8°C 96% 2.3 mph NNW3.7 kmh NNW 2.3 mph3.7 kmh 28.27 in957.3 mb - 0.00 in0.0 mm 0.00 in0.0 mm
07:37 AM 59.7°F15.4°C 58.6°F14.8°C 96% 2.3 mph N3.7 kmh N 2.3 mph3.7 kmh 28.27 in957.3 mb - 0.00 in0.0 mm 0.00 in0.0 mm
07:36 AM 59.7°F15.4°C 58.6°F14.8°C 96% 1.2 mph N1.9 kmh N 2.3 mph3.7 kmh 28.27 in957.3 mb - 0.00 in0.0 mm 0.00 in0.0 mm
07:35 AM 59.7°F15.4°C 58.6°F14.8°C 96% 2.3 mph SW3.7 kmh SW 1.2 mph1.9 kmh 28.27 in957.3 mb - 0.00 in0.0 mm 0.00 in0.0 mm
07:34 AM 59.7°F15.4°C 58.6°F14.8°C 96% 2.3 mph N3.7 kmh N 2.3 mph3.7 kmh 28.27 in957.3 mb - 0.00 in0.0 mm 0.00 in0.0 mm
07:33 AM 59.6°F15.3°C 58.5°F14.7°C 96% 1.2 mph NNE1.9 kmh NNE 2.3 mph3.7 kmh 28.27 in957.3 mb - 0.00 in0.0 mm 0.00 in0.0 mm
07:32 AM 59.5°F15.3°C 58.4°F14.7°C 96% Calm Calm 2.3 mph3.7 kmh 28.27 in957.3 mb - 0.00 in0.0 mm 0.00 in0.0 mm
07:31 AM 59.5°F15.3°C 58.4°F14.7°C 96% Calm Calm -- 28.27 in957.3 mb - 0.00 in0.0 mm 0.00 in0.0 mm
07:30 AM 59.4°F15.2°C 58.3°F14.6°C 96% Calm Calm 1.2 mph1.9 kmh 28.27 in957.3 mb - 0.00 in0.0 mm 0.00 in0.0 mm
07:29 AM 59.4°F15.2°C 58.3°F14.6°C 96% Calm Calm -- 28.27 in957.3 mb - 0.00 in0.0 mm 0.00 in0.0 mm
07:28 AM 59.4°F15.2°C 58.3°F14.6°C 96% Calm Calm -- 28.27 in957.3 mb - 0.00 in0.0 mm 0.00 in0.0 mm
07:27 AM 59.4°F15.2°C 58.3°F14.6°C 96% Calm Calm -- 28.27 in957.3 mb - 0.00 in0.0 mm 0.00 in0.0 mm
07:26 AM 59.2°F15.1°C 58.1°F14.5°C 96% Calm Calm -- 28.27 in957.3 mb - 0.00 in0.0 mm 0.00 in0.0 mm
07:25 AM 59.2°F15.1°C 58.1°F14.5°C 96% Calm Calm -- 28.27 in957.3 mb - 0.00 in0.0 mm 0.00 in0.0 mm
07:24 AM 59.2°F15.1°C 58.0°F14.4°C 96% Calm Calm -- 28.27 in957.3 mb - 0.00 in0.0 mm 0.00 in0.0 mm
07:23 AM 59.0°F15.0°C 57.9°F14.4°C 96% 1.2 mph E1.9 kmh E 1.2 mph1.9 kmh 28.27 in957.3 mb - 0.00 in0.0 mm 0.00 in0.0 mm
07:22 AM 59.0°F15.0°C 57.9°F14.4°C 96% 1.2 mph N1.9 kmh N 1.2 mph1.9 kmh 28.27 in957.3 mb - 0.00 in0.0 mm 0.00 in0.0 mm
07:21 AM 59.0°F15.0°C 57.9°F14.4°C 96% 1.2 mph E1.9 kmh E 1.2 mph1.9 kmh 28.27 in957.3 mb - 0.00 in0.0 mm 0.00 in0.0 mm
07:20 AM 59.0°F15.0°C 57.9°F14.4°C 96% 1.2 mph NE1.9 kmh NE 1.2 mph1.9 kmh 28.27 in957.3 mb - 0.00 in0.0 mm 0.00 in0.0 mm
07:19 AM 59.0°F15.0°C 57.9°F14.4°C 96% Calm Calm 1.2 mph1.9 kmh 28.27 in957.3 mb - 0.00 in0.0 mm 0.00 in0.0 mm
07:18 AM 59.0°F15.0°C 57.9°F14.4°C 96% Calm Calm -- 28.27 in957.3 mb - 0.00 in0.0 mm 0.00 in0.0 mm
07:17 AM 59.0°F15.0°C 57.9°F14.4°C 96% Calm Calm -- 28.27 in957.3 mb - 0.00 in0.0 mm 0.00 in0.0 mm
07:16 AM 59.0°F15.0°C 57.9°F14.4°C 96% Calm Calm -- 28.26 in957.0 mb - 0.00 in0.0 mm 0.00 in0.0 mm
07:15 AM 59.0°F15.0°C 57.9°F14.4°C 96% Calm Calm -- 28.26 in957.0 mb - 0.00 in0.0 mm 0.00 in0.0 mm
07:14 AM 59.0°F15.0°C 57.9°F14.4°C 96% Calm Calm -- 28.26 in957.0 mb - 0.00 in0.0 mm 0.00 in0.0 mm
07:13 AM 59.0°F15.0°C 57.9°F14.4°C 96% Calm Calm -- 28.26 in957.0 mb - 0.00 in0.0 mm 0.00 in0.0 mm
07:12 AM 58.8°F14.9°C 57.7°F14.3°C 96% Calm Calm -- 28.26 in957.0 mb - 0.00 in0.0 mm 0.00 in0.0 mm
07:11 AM 58.7°F14.8°C 57.5°F14.2°C 96% Calm Calm -- 28.26 in957.0 mb - 0.00 in0.0 mm 0.00 in0.0 mm
07:10 AM 58.6°F14.8°C 57.5°F14.2°C 96% Calm Calm -- 28.26 in957.0 mb - 0.00 in0.0 mm 0.00 in0.0 mm
07:09 AM 58.6°F14.8°C 57.5°F14.2°C 96% Calm Calm -- 28.26 in957.0 mb - 0.00 in0.0 mm 0.00 in0.0 mm
07:08 AM 58.6°F14.8°C 57.5°F14.2°C 96% Calm Calm -- 28.26 in957.0 mb - 0.00 in0.0 mm 0.00 in0.0 mm
07:07 AM 58.6°F14.8°C 57.5°F14.2°C 96% Calm Calm -- 28.26 in957.0 mb - 0.00 in0.0 mm 0.00 in0.0 mm
07:06 AM 58.6°F14.8°C 57.5°F14.2°C 96% Calm Calm -- 28.26 in957.0 mb - 0.00 in0.0 mm 0.00 in0.0 mm
07:05 AM 58.6°F14.8°C 57.5°F14.2°C 96% Calm Calm -- 28.26 in957.0 mb - 0.00 in0.0 mm 0.00 in0.0 mm
07:04 AM 58.5°F14.7°C 57.4°F14.1°C 96% Calm Calm -- 28.26 in957.0 mb - 0.00 in0.0 mm 0.00 in0.0 mm
07:03 AM 58.5°F14.7°C 57.4°F14.1°C 96% Calm Calm -- 28.25 in956.7 mb - 0.00 in0.0 mm 0.00 in0.0 mm
07:02 AM 58.5°F14.7°C 57.4°F14.1°C 96% Calm Calm -- 28.25 in956.7 mb - 0.00 in0.0 mm 0.00 in0.0 mm
07:01 AM 58.5°F14.7°C 57.4°F14.1°C 96% Calm Calm -- 28.25 in956.7 mb - 0.00 in0.0 mm 0.00 in0.0 mm
07:00 AM 58.6°F14.8°C 57.4°F14.1°C 96% Calm Calm -- 28.25 in956.7 mb - 0.00 in0.0 mm 0.00 in0.0 mm
06:59 AM 58.6°F14.8°C 57.5°F14.2°C 96% Calm Calm -- 28.25 in956.7 mb - 0.00 in0.0 mm 0.00 in0.0 mm
06:58 AM 58.6°F14.8°C 57.5°F14.2°C 96% Calm Calm -- 28.25 in956.7 mb - 0.00 in0.0 mm 0.00 in0.0 mm
06:57 AM 58.6°F14.8°C 57.5°F14.2°C 96% Calm Calm -- 28.25 in956.7 mb - 0.00 in0.0 mm 0.00 in0.0 mm
06:56 AM 58.6°F14.8°C 57.5°F14.2°C 96% Calm Calm -- 28.25 in956.7 mb - 0.00 in0.0 mm 0.00 in0.0 mm
06:55 AM 58.8°F14.9°C 57.7°F14.3°C 96% Calm Calm -- 28.25 in956.7 mb - 0.00 in0.0 mm 0.00 in0.0 mm
06:54 AM 58.8°F14.9°C 57.7°F14.3°C 96% Calm Calm -- 28.25 in956.7 mb - 0.00 in0.0 mm 0.00 in0.0 mm
06:53 AM 58.8°F14.9°C 57.7°F14.3°C 96% Calm Calm -- 28.25 in956.7 mb - 0.00 in0.0 mm 0.00 in0.0 mm
06:52 AM 58.8°F14.9°C 57.7°F14.3°C 96% Calm Calm -- 28.25 in956.7 mb - 0.00 in0.0 mm 0.00 in0.0 mm
06:51 AM 58.8°F14.9°C 57.7°F14.3°C 96% Calm Calm -- 28.25 in956.7 mb - 0.00 in0.0 mm 0.00 in0.0 mm
06:50 AM 58.8°F14.9°C 57.7°F14.3°C 96% Calm Calm -- 28.25 in956.7 mb - 0.00 in0.0 mm 0.00 in0.0 mm
06:49 AM 58.8°F14.9°C 57.7°F14.3°C 96% Calm Calm -- 28.25 in956.7 mb - 0.00 in0.0 mm 0.00 in0.0 mm
06:48 AM 58.8°F14.9°C 57.7°F14.3°C 96% Calm Calm -- 28.25 in956.7 mb - 0.00 in0.0 mm 0.00 in0.0 mm
06:47 AM 58.8°F14.9°C 57.7°F14.3°C 96% Calm Calm -- 28.25 in956.7 mb - 0.00 in0.0 mm 0.00 in0.0 mm
06:46 AM 58.8°F14.9°C 57.7°F14.3°C 96% Calm Calm -- 28.25 in956.7 mb - 0.00 in0.0 mm 0.00 in0.0 mm
06:45 AM 58.8°F14.9°C 57.7°F14.3°C 96% Calm Calm -- 28.25 in956.7 mb - 0.00 in0.0 mm 0.00 in0.0 mm
06:44 AM 58.8°F14.9°C 57.7°F14.3°C 96% Calm Calm -- 28.25 in956.7 mb - 0.00 in0.0 mm 0.00 in0.0 mm
06:43 AM 58.8°F14.9°C 57.7°F14.3°C 96% Calm Calm -- 28.25 in956.7 mb - 0.00 in0.0 mm 0.00 in0.0 mm
06:42 AM 58.8°F14.9°C 57.7°F14.3°C 96% Calm Calm -- 28.25 in956.7 mb - 0.00 in0.0 mm 0.00 in0.0 mm
06:41 AM 58.8°F14.9°C 57.7°F14.3°C 96% Calm Calm -- 28.25 in956.7 mb - 0.00 in0.0 mm 0.00 in0.0 mm
06:40 AM 58.8°F14.9°C 57.7°F14.3°C 96% Calm Calm -- 28.25 in956.7 mb - 0.00 in0.0 mm 0.00 in0.0 mm
06:39 AM 58.8°F14.9°C 57.7°F14.3°C 96% Calm Calm -- 28.25 in956.7 mb - 0.00 in0.0 mm 0.00 in0.0 mm
06:38 AM 58.8°F14.9°C 57.7°F14.3°C 96% Calm Calm -- 28.25 in956.7 mb - 0.00 in0.0 mm 0.00 in0.0 mm
06:37 AM 58.8°F14.9°C 57.7°F14.3°C 96% Calm Calm -- 28.25 in956.7 mb - 0.00 in0.0 mm 0.00 in0.0 mm
06:36 AM 58.8°F14.9°C 57.7°F14.3°C 96% Calm Calm -- 28.25 in956.7 mb - 0.00 in0.0 mm 0.00 in0.0 mm
06:35 AM 58.8°F14.9°C 57.7°F14.3°C 96% Calm Calm -- 28.25 in956.7 mb - 0.00 in0.0 mm 0.00 in0.0 mm
06:34 AM 58.8°F14.9°C 57.7°F14.3°C 96% Calm Calm -- 28.25 in956.7 mb - 0.00 in0.0 mm 0.00 in0.0 mm
06:33 AM 58.9°F14.9°C 57.8°F14.3°C 96% Calm Calm -- 28.25 in956.7 mb - 0.00 in0.0 mm 0.00 in0.0 mm
06:32 AM 59.0°F15.0°C 57.9°F14.4°C 96% Calm Calm -- 28.25 in956.7 mb - 0.00 in0.0 mm 0.00 in0.0 mm
06:31 AM 59.0°F15.0°C 57.9°F14.4°C 96% Calm Calm -- 28.25 in956.7 mb - 0.00 in0.0 mm 0.00 in0.0 mm
06:30 AM 59.0°F15.0°C 57.9°F14.4°C 96% Calm Calm -- 28.25 in956.7 mb - 0.00 in0.0 mm 0.00 in0.0 mm
06:29 AM 59.0°F15.0°C 57.9°F14.4°C 96% Calm Calm -- 28.25 in956.7 mb - 0.00 in0.0 mm 0.00 in0.0 mm
06:28 AM 59.0°F15.0°C 57.9°F14.4°C 96% Calm Calm -- 28.25 in956.7 mb - 0.00 in0.0 mm 0.00 in0.0 mm
06:27 AM 59.0°F15.0°C 57.9°F14.4°C 96% Calm Calm -- 28.25 in956.7 mb - 0.00 in0.0 mm 0.00 in0.0 mm
06:26 AM 59.0°F15.0°C 57.9°F14.4°C 96% Calm Calm -- 28.25 in956.7 mb - 0.00 in0.0 mm 0.00 in0.0 mm
06:25 AM 59.0°F15.0°C 57.9°F14.4°C 96% Calm Calm -- 28.25 in956.7 mb - 0.00 in0.0 mm 0.00 in0.0 mm
06:24 AM 59.0°F15.0°C 57.9°F14.4°C 96% Calm Calm -- 28.25 in956.7 mb - 0.00 in0.0 mm 0.00 in0.0 mm
06:23 AM 59.0°F15.0°C 57.9°F14.4°C 96% Calm Calm -- 28.25 in956.7 mb - 0.00 in0.0 mm 0.00 in0.0 mm
06:22 AM 59.0°F15.0°C 57.9°F14.4°C 96% Calm Calm -- 28.25 in956.7 mb - 0.00 in0.0 mm 0.00 in0.0 mm
06:21 AM 59.0°F15.0°C 57.9°F14.4°C 96% Calm Calm -- 28.25 in956.7 mb - 0.00 in0.0 mm 0.00 in0.0 mm
06:20 AM 59.0°F15.0°C 57.9°F14.4°C 96% Calm Calm -- 28.25 in956.7 mb - 0.00 in0.0 mm 0.00 in0.0 mm
06:19 AM 59.1°F15.1°C 57.9°F14.4°C 96% Calm Calm -- 28.25 in956.7 mb - 0.00 in0.0 mm 0.00 in0.0 mm
06:18 AM 59.2°F15.1°C 58.1°F14.5°C 96% Calm Calm -- 28.25 in956.7 mb - 0.00 in0.0 mm 0.00 in0.0 mm
06:17 AM 59.2°F15.1°C 58.1°F14.5°C 96% Calm Calm -- 28.25 in956.7 mb - 0.00 in0.0 mm 0.00 in0.0 mm
06:16 AM 59.2°F15.1°C 58.1°F14.5°C 96% Calm Calm -- 28.25 in956.7 mb - 0.00 in0.0 mm 0.00 in0.0 mm
06:15 AM 59.2°F15.1°C 58.1°F14.5°C 96% Calm Calm -- 28.25 in956.7 mb - 0.00 in0.0 mm 0.00 in0.0 mm
06:14 AM 59.2°F15.1°C 58.1°F14.5°C 96% Calm Calm -- 28.25 in956.7 mb - 0.00 in0.0 mm 0.00 in0.0 mm
06:13 AM 59.2°F15.1°C 58.0°F14.4°C 96% Calm Calm -- 28.25 in956.7 mb - 0.00 in0.0 mm 0.00 in0.0 mm
06:12 AM 59.0°F15.0°C 57.6°F14.2°C 95% Calm Calm -- 28.25 in956.7 mb - 0.00 in0.0 mm 0.00 in0.0 mm
06:11 AM 58.8°F14.9°C 57.4°F14.1°C 95% Calm Calm -- 28.25 in956.7 mb - 0.00 in0.0 mm 0.00 in0.0 mm
06:10 AM 58.8°F14.9°C 57.4°F14.1°C 95% Calm Calm -- 28.25 in956.7 mb - 0.00 in0.0 mm 0.00 in0.0 mm
06:09 AM 58.8°F14.9°C 57.4°F14.1°C 95% Calm Calm -- 28.25 in956.7 mb - 0.00 in0.0 mm 0.00 in0.0 mm
06:08 AM 58.8°F14.9°C 57.4°F14.1°C 95% Calm Calm -- 28.25 in956.7 mb - 0.00 in0.0 mm 0.00 in0.0 mm
06:07 AM 58.8°F14.9°C 57.4°F14.1°C 95% Calm Calm -- 28.25 in956.7 mb - 0.00 in0.0 mm 0.00 in0.0 mm
06:06 AM 58.8°F14.9°C 57.4°F14.1°C 95% Calm Calm -- 28.25 in956.7 mb - 0.00 in0.0 mm 0.00 in0.0 mm
06:05 AM 58.8°F14.9°C 57.4°F14.1°C 95% Calm Calm -- 28.25 in956.7 mb - 0.00 in0.0 mm 0.00 in0.0 mm
06:04 AM 58.8°F14.9°C 57.4°F14.1°C 95% Calm Calm -- 28.25 in956.7 mb - 0.00 in0.0 mm 0.00 in0.0 mm
06:03 AM 58.8°F14.9°C 57.4°F14.1°C 95% Calm Calm -- 28.25 in956.7 mb - 0.00 in0.0 mm 0.00 in0.0 mm
06:02 AM 58.8°F14.9°C 57.4°F14.1°C 95% Calm Calm -- 28.25 in956.7 mb - 0.00 in0.0 mm 0.00 in0.0 mm
06:01 AM 58.8°F14.9°C 57.4°F14.1°C 95% Calm Calm -- 28.25 in956.7 mb - 0.00 in0.0 mm 0.00 in0.0 mm
06:00 AM 58.8°F14.9°C 57.4°F14.1°C 95% Calm Calm -- 28.25 in956.7 mb - 0.00 in0.0 mm 0.00 in0.0 mm
05:59 AM 58.8°F14.9°C 57.4°F14.1°C 95% Calm Calm -- 28.25 in956.7 mb - 0.00 in0.0 mm 0.00 in0.0 mm
05:58 AM 58.8°F14.9°C 57.4°F14.1°C 95% Calm Calm -- 28.25 in956.7 mb - 0.00 in0.0 mm 0.00 in0.0 mm
05:57 AM 58.8°F14.9°C 57.4°F14.1°C 95% Calm Calm -- 28.25 in956.7 mb - 0.00 in0.0 mm 0.00 in0.0 mm
05:56 AM 59.0°F15.0°C 57.6°F14.2°C 95% Calm Calm -- 28.25 in956.7 mb - 0.00 in0.0 mm 0.00 in0.0 mm
05:55 AM 59.0°F15.0°C 57.6°F14.2°C 95% Calm Calm -- 28.25 in956.7 mb - 0.00 in0.0 mm 0.00 in0.0 mm
05:54 AM 59.0°F15.0°C 57.6°F14.2°C 95% Calm Calm -- 28.25 in956.7 mb - 0.00 in0.0 mm 0.00 in0.0 mm
05:53 AM 59.0°F15.0°C 57.6°F14.2°C 95% Calm Calm -- 28.25 in956.7 mb - 0.00 in0.0 mm 0.00 in0.0 mm
05:52 AM 59.0°F15.0°C 57.6°F14.2°C 95% Calm Calm -- 28.25 in956.7 mb - 0.00 in0.0 mm 0.00 in0.0 mm
05:51 AM 59.0°F15.0°C 57.6°F14.2°C 95% Calm Calm -- 28.25 in956.7 mb - 0.00 in0.0 mm 0.00 in0.0 mm
05:50 AM 59.0°F15.0°C 57.6°F14.2°C 95% Calm Calm -- 28.25 in956.7 mb - 0.00 in0.0 mm 0.00 in0.0 mm
05:49 AM 59.0°F15.0°C 57.6°F14.2°C 95% Calm Calm -- 28.25 in956.7 mb - 0.00 in0.0 mm 0.00 in0.0 mm
05:48 AM 59.0°F15.0°C 57.6°F14.2°C 95% Calm Calm -- 28.25 in956.7 mb - 0.00 in0.0 mm 0.00 in0.0 mm
05:47 AM 59.0°F15.0°C 57.6°F14.2°C 95% Calm Calm -- 28.25 in956.7 mb - 0.00 in0.0 mm 0.00 in0.0 mm
05:46 AM 59.0°F15.0°C 57.6°F14.2°C 95% Calm Calm -- 28.25 in956.7 mb - 0.00 in0.0 mm 0.00 in0.0 mm
05:45 AM 59.0°F15.0°C 57.6°F14.2°C 95% Calm Calm -- 28.25 in956.7 mb - 0.00 in0.0 mm 0.00 in0.0 mm
05:44 AM 59.0°F15.0°C 57.6°F14.2°C 95% Calm Calm -- 28.25 in956.7 mb - 0.00 in0.0 mm 0.00 in0.0 mm
05:43 AM 59.0°F15.0°C 57.6°F14.2°C 95% Calm Calm -- 28.25 in956.7 mb - 0.00 in0.0 mm 0.00 in0.0 mm
05:42 AM 59.1°F15.1°C 57.6°F14.2°C 95% Calm Calm -- 28.25 in956.7 mb - 0.00 in0.0 mm 0.00 in0.0 mm
05:41 AM 59.2°F15.1°C 57.8°F14.3°C 95% Calm Calm -- 28.25 in956.7 mb - 0.00 in0.0 mm 0.00 in0.0 mm
05:40 AM 59.2°F15.1°C 57.8°F14.3°C 95% Calm Calm -- 28.25 in956.7 mb - 0.00 in0.0 mm 0.00 in0.0 mm
05:39 AM 59.2°F15.1°C 57.8°F14.3°C 95% Calm Calm -- 28.25 in956.7 mb - 0.00 in0.0 mm 0.00 in0.0 mm
05:38 AM 59.2°F15.1°C 57.8°F14.3°C 95% Calm Calm -- 28.25 in956.7 mb - 0.00 in0.0 mm 0.00 in0.0 mm
05:37 AM 59.2°F15.1°C 57.8°F14.3°C 95% Calm Calm -- 28.25 in956.7 mb - 0.00 in0.0 mm 0.00 in0.0 mm
05:36 AM 59.2°F15.1°C 57.8°F14.3°C 95% Calm Calm -- 28.25 in956.7 mb - 0.00 in0.0 mm 0.00 in0.0 mm
05:35 AM 59.2°F15.1°C 57.8°F14.3°C 95% Calm Calm -- 28.25 in956.7 mb - 0.00 in0.0 mm 0.00 in0.0 mm
05:34 AM 59.3°F15.2°C 57.8°F14.3°C 95% Calm Calm -- 28.25 in956.7 mb - 0.00 in0.0 mm 0.00 in0.0 mm
05:33 AM 59.4°F15.2°C 58.0°F14.4°C 95% Calm Calm -- 28.25 in956.7 mb - 0.00 in0.0 mm 0.00 in0.0 mm
05:32 AM 59.4°F15.2°C 58.0°F14.4°C 95% Calm Calm -- 28.25 in956.7 mb - 0.00 in0.0 mm 0.00 in0.0 mm
05:31 AM 59.4°F15.2°C 58.0°F14.4°C 95% Calm Calm -- 28.25 in956.7 mb - 0.00 in0.0 mm 0.00 in0.0 mm
05:30 AM 59.4°F15.2°C 58.0°F14.4°C 95% 1.2 mph NW1.9 kmh NW 1.2 mph1.9 kmh 28.25 in956.7 mb - 0.00 in0.0 mm 0.00 in0.0 mm
05:29 AM 59.4°F15.2°C 58.0°F14.4°C 95% 1.2 mph NW1.9 kmh NW 1.2 mph1.9 kmh 28.25 in956.7 mb - 0.00 in0.0 mm 0.00 in0.0 mm
05:28 AM 59.4°F15.2°C 58.0°F14.4°C 95% 1.2 mph WNW1.9 kmh WNW 1.2 mph1.9 kmh 28.25 in956.7 mb - 0.00 in0.0 mm 0.00 in0.0 mm
05:27 AM 59.4°F15.2°C 58.0°F14.4°C 95% 1.2 mph NW1.9 kmh NW 1.2 mph1.9 kmh 28.25 in956.7 mb - 0.00 in0.0 mm 0.00 in0.0 mm
05:26 AM 59.5°F15.3°C 58.1°F14.5°C 95% Calm Calm 1.2 mph1.9 kmh 28.25 in956.7 mb - 0.00 in0.0 mm 0.00 in0.0 mm
05:25 AM 59.5°F15.3°C 58.1°F14.5°C 95% Calm Calm -- 28.25 in956.7 mb - 0.00 in0.0 mm 0.00 in0.0 mm
05:24 AM 59.5°F15.3°C 58.1°F14.5°C 95% Calm Calm -- 28.25 in956.7 mb - 0.00 in0.0 mm 0.00 in0.0 mm
05:23 AM 59.5°F15.3°C 58.1°F14.5°C 95% Calm Calm 1.2 mph1.9 kmh 28.25 in956.7 mb - 0.00 in0.0 mm 0.00 in0.0 mm
05:22 AM 59.5°F15.3°C 58.1°F14.5°C 95% Calm Calm -- 28.25 in956.7 mb - 0.00 in0.0 mm 0.00 in0.0 mm
05:21 AM 59.5°F15.3°C 58.1°F14.5°C 95% Calm Calm -- 28.25 in956.7 mb - 0.00 in0.0 mm 0.00 in0.0 mm
05:20 AM 59.5°F15.3°C 58.1°F14.5°C 95% 1.2 mph WNW1.9 kmh WNW 1.2 mph1.9 kmh 28.25 in956.7 mb - 0.00 in0.0 mm 0.00 in0.0 mm
05:19 AM 59.5°F15.3°C 58.1°F14.5°C 95% 1.2 mph N1.9 kmh N 1.2 mph1.9 kmh 28.25 in956.7 mb - 0.00 in0.0 mm 0.00 in0.0 mm
05:18 AM 59.5°F15.3°C 58.1°F14.5°C 95% 1.2 mph N1.9 kmh N 2.3 mph3.7 kmh 28.25 in956.7 mb - 0.00 in0.0 mm 0.00 in0.0 mm
05:17 AM 59.5°F15.3°C 58.1°F14.5°C 95% 1.2 mph NE1.9 kmh NE 2.3 mph3.7 kmh 28.25 in956.7 mb - 0.00 in0.0 mm 0.00 in0.0 mm
05:16 AM 59.5°F15.3°C 58.1°F14.5°C 95% 2.3 mph NNE3.7 kmh NNE 2.3 mph3.7 kmh 28.25 in956.7 mb - 0.00 in0.0 mm 0.00 in0.0 mm
05:15 AM 59.5°F15.3°C 58.1°F14.5°C 95% 1.2 mph NE1.9 kmh NE 2.3 mph3.7 kmh 28.25 in956.7 mb - 0.00 in0.0 mm 0.00 in0.0 mm
05:14 AM 59.5°F15.3°C 58.1°F14.5°C 95% Calm Calm 2.3 mph3.7 kmh 28.25 in956.7 mb - 0.00 in0.0 mm 0.00 in0.0 mm
05:13 AM 59.5°F15.3°C 58.1°F14.5°C 95% Calm Calm -- 28.25 in956.7 mb - 0.00 in0.0 mm 0.00 in0.0 mm
05:12 AM 59.5°F15.3°C 58.1°F14.5°C 95% Calm Calm -- 28.25 in956.7 mb - 0.00 in0.0 mm 0.00 in0.0 mm
05:11 AM 59.6°F15.3°C 58.2°F14.6°C 95% Calm Calm -- 28.25 in956.7 mb - 0.00 in0.0 mm 0.00 in0.0 mm
05:10 AM 59.7°F15.4°C 58.3°F14.6°C 95% Calm Calm -- 28.25 in956.7 mb - 0.00 in0.0 mm 0.00 in0.0 mm
05:09 AM 59.7°F15.4°C 58.3°F14.6°C 95% Calm Calm -- 28.25 in956.7 mb - 0.00 in0.0 mm 0.00 in0.0 mm
05:08 AM 59.8°F15.4°C 58.4°F14.7°C 95% Calm Calm -- 28.25 in956.7 mb - 0.00 in0.0 mm 0.00 in0.0 mm
05:07 AM 59.9°F15.5°C 58.5°F14.7°C 95% Calm Calm -- 28.25 in956.7 mb - 0.00 in0.0 mm 0.00 in0.0 mm
05:06 AM 59.9°F15.5°C 58.5°F14.7°C 95% Calm Calm -- 28.25 in956.7 mb - 0.00 in0.0 mm 0.00 in0.0 mm
05:05 AM 59.9°F15.5°C 58.5°F14.7°C 95% Calm Calm -- 28.25 in956.7 mb - 0.00 in0.0 mm 0.00 in0.0 mm
05:04 AM 59.9°F15.5°C 58.5°F14.7°C 95% Calm Calm -- 28.25 in956.7 mb - 0.00 in0.0 mm 0.00 in0.0 mm
05:03 AM 59.9°F15.5°C 58.5°F14.7°C 95% Calm Calm -- 28.25 in956.7 mb - 0.00 in0.0 mm 0.00 in0.0 mm
05:02 AM 59.9°F15.5°C 58.5°F14.7°C 95% Calm Calm -- 28.25 in956.7 mb - 0.00 in0.0 mm 0.00 in0.0 mm
05:01 AM 59.9°F15.5°C 58.5°F14.7°C 95% Calm Calm -- 28.25 in956.7 mb - 0.00 in0.0 mm 0.00 in0.0 mm
05:00 AM 59.9°F15.5°C 58.5°F14.7°C 95% Calm Calm -- 28.25 in956.7 mb - 0.00 in0.0 mm 0.00 in0.0 mm
04:59 AM 59.7°F15.4°C 58.3°F14.6°C 95% Calm Calm -- 28.25 in956.7 mb - 0.00 in0.0 mm 0.00 in0.0 mm
04:58 AM 59.7°F15.4°C 58.3°F14.6°C 95% Calm Calm -- 28.25 in956.7 mb - 0.00 in0.0 mm 0.00 in0.0 mm
04:57 AM 59.7°F15.4°C 58.3°F14.6°C 95% Calm Calm -- 28.25 in956.7 mb - 0.00 in0.0 mm 0.00 in0.0 mm
04:56 AM 59.7°F15.4°C 58.3°F14.6°C 95% Calm Calm -- 28.25 in956.7 mb - 0.00 in0.0 mm 0.00 in0.0 mm
04:55 AM 59.7°F15.4°C 58.3°F14.6°C 95% Calm Calm -- 28.25 in956.7 mb - 0.00 in0.0 mm 0.00 in0.0 mm
04:54 AM 59.7°F15.4°C 58.3°F14.6°C 95% Calm Calm -- 28.25 in956.7 mb - 0.00 in0.0 mm 0.00 in0.0 mm
04:53 AM 59.7°F15.4°C 58.3°F14.6°C 95% Calm Calm -- 28.25 in956.7 mb - 0.00 in0.0 mm 0.00 in0.0 mm
04:52 AM 59.7°F15.4°C 58.3°F14.6°C 95% Calm Calm -- 28.25 in956.7 mb - 0.00 in0.0 mm 0.00 in0.0 mm
04:51 AM 59.7°F15.4°C 58.3°F14.6°C 95% Calm Calm -- 28.25 in956.7 mb - 0.00 in0.0 mm 0.00 in0.0 mm
04:50 AM 59.8°F15.4°C 58.4°F14.7°C 95% Calm Calm -- 28.25 in956.7 mb - 0.00 in0.0 mm 0.00 in0.0 mm
04:49 AM 59.9°F15.5°C 58.5°F14.7°C 95% Calm Calm -- 28.25 in956.7 mb - 0.00 in0.0 mm 0.00 in0.0 mm
04:48 AM 59.9°F15.5°C 58.5°F14.7°C 95% Calm Calm -- 28.25 in956.7 mb - 0.00 in0.0 mm 0.00 in0.0 mm
04:47 AM 59.9°F15.5°C 58.5°F14.7°C 95% Calm Calm -- 28.25 in956.7 mb - 0.00 in0.0 mm 0.00 in0.0 mm
04:46 AM 59.9°F15.5°C 58.5°F14.7°C 95% Calm Calm -- 28.25 in956.7 mb - 0.00 in0.0 mm 0.00 in0.0 mm
04:45 AM 59.9°F15.5°C 58.5°F14.7°C 95% Calm Calm -- 28.25 in956.7 mb - 0.00 in0.0 mm 0.00 in0.0 mm
04:44 AM 59.9°F15.5°C 58.5°F14.7°C 95% Calm Calm -- 28.25 in956.7 mb - 0.00 in0.0 mm 0.00 in0.0 mm
04:43 AM 59.9°F15.5°C 58.5°F14.7°C 95% Calm Calm -- 28.25 in956.7 mb - 0.00 in0.0 mm 0.00 in0.0 mm
04:42 AM 59.9°F15.5°C 58.5°F14.7°C 95% Calm Calm -- 28.25 in956.7 mb - 0.00 in0.0 mm 0.00 in0.0 mm
04:41 AM 59.9°F15.5°C 58.5°F14.7°C 95% Calm Calm -- 28.25 in956.7 mb - 0.00 in0.0 mm 0.00 in0.0 mm
04:40 AM 59.9°F15.5°C 58.5°F14.7°C 95% Calm Calm -- 28.25 in956.7 mb - 0.00 in0.0 mm 0.00 in0.0 mm
04:39 AM 59.7°F15.4°C 58.3°F14.6°C 95% Calm Calm -- 28.26 in957.0 mb - 0.00 in0.0 mm 0.00 in0.0 mm
04:38 AM 59.7°F15.4°C 58.3°F14.6°C 95% Calm Calm -- 28.26 in957.0 mb - 0.00 in0.0 mm 0.00 in0.0 mm
04:37 AM 59.7°F15.4°C 58.3°F14.6°C 95% Calm Calm -- 28.26 in957.0 mb - 0.00 in0.0 mm 0.00 in0.0 mm
04:36 AM 59.7°F15.4°C 58.3°F14.6°C 95% Calm Calm -- 28.26 in957.0 mb - 0.00 in0.0 mm 0.00 in0.0 mm
04:35 AM 59.7°F15.4°C 58.3°F14.6°C 95% Calm Calm -- 28.26 in957.0 mb - 0.00 in0.0 mm 0.00 in0.0 mm
04:34 AM 59.7°F15.4°C 58.3°F14.6°C 95% Calm Calm -- 28.26 in957.0 mb - 0.00 in0.0 mm 0.00 in0.0 mm
04:33 AM 59.7°F15.4°C 58.3°F14.6°C 95% Calm Calm -- 28.26 in957.0 mb - 0.00 in0.0 mm 0.00 in0.0 mm
04:32 AM 59.7°F15.4°C 58.3°F14.6°C 95% Calm Calm -- 28.26 in957.0 mb - 0.00 in0.0 mm 0.00 in0.0 mm
04:31 AM 59.7°F15.4°C 58.3°F14.6°C 95% Calm Calm -- 28.26 in957.0 mb - 0.00 in0.0 mm 0.00 in0.0 mm
04:30 AM 59.7°F15.4°C 58.3°F14.6°C 95% Calm Calm -- 28.26 in957.0 mb - 0.00 in0.0 mm 0.00 in0.0 mm
04:29 AM 59.7°F15.4°C 58.3°F14.6°C 95% Calm Calm -- 28.26 in957.0 mb - 0.00 in0.0 mm 0.00 in0.0 mm
04:28 AM 59.7°F15.4°C 58.3°F14.6°C 95% Calm Calm -- 28.26 in957.0 mb - 0.00 in0.0 mm 0.00 in0.0 mm
04:27 AM 59.7°F15.4°C 58.3°F14.6°C 95% Calm Calm -- 28.26 in957.0 mb - 0.00 in0.0 mm 0.00 in0.0 mm
04:26 AM 59.7°F15.4°C 58.3°F14.6°C 95% Calm Calm -- 28.26 in957.0 mb - 0.00 in0.0 mm 0.00 in0.0 mm
04:25 AM 59.9°F15.5°C 58.4°F14.7°C 95% Calm Calm -- 28.26 in957.0 mb - 0.00 in0.0 mm 0.00 in0.0 mm
04:24 AM 59.9°F15.5°C 58.5°F14.7°C 95% Calm Calm -- 28.26 in957.0 mb - 0.00 in0.0 mm 0.00 in0.0 mm
04:23 AM 60.1°F15.6°C 58.7°F14.8°C 95% Calm Calm -- 28.26 in957.0 mb - 0.00 in0.0 mm 0.00 in0.0 mm
04:22 AM 60.1°F15.6°C 58.7°F14.8°C 95% Calm Calm -- 28.26 in957.0 mb - 0.00 in0.0 mm 0.00 in0.0 mm
04:21 AM 60.1°F15.6°C 58.7°F14.8°C 95% Calm Calm -- 28.26 in957.0 mb - 0.00 in0.0 mm 0.00 in0.0 mm
04:20 AM 60.1°F15.6°C 58.7°F14.8°C 95% Calm Calm -- 28.26 in957.0 mb - 0.00 in0.0 mm 0.00 in0.0 mm
04:19 AM 60.3°F15.7°C 58.9°F14.9°C 95% Calm Calm -- 28.26 in957.0 mb - 0.00 in0.0 mm 0.00 in0.0 mm
04:18 AM 60.3°F15.7°C 58.9°F14.9°C 95% Calm Calm -- 28.26 in957.0 mb - 0.00 in0.0 mm 0.00 in0.0 mm
04:17 AM 60.3°F15.7°C 58.9°F14.9°C 95% Calm Calm -- 28.26 in957.0 mb - 0.00 in0.0 mm 0.00 in0.0 mm
04:16 AM 60.4°F15.8°C 58.9°F14.9°C 95% Calm Calm -- 28.26 in957.0 mb - 0.00 in0.0 mm 0.00 in0.0 mm
04:15 AM 60.4°F15.8°C 59.0°F15.0°C 95% Calm Calm -- 28.26 in957.0 mb - 0.00 in0.0 mm 0.00 in0.0 mm
04:14 AM 60.4°F15.8°C 59.0°F15.0°C 95% Calm Calm -- 28.26 in957.0 mb - 0.00 in0.0 mm 0.00 in0.0 mm
04:13 AM 60.4°F15.8°C 59.0°F15.0°C 95% Calm Calm -- 28.26 in957.0 mb - 0.00 in0.0 mm 0.00 in0.0 mm
04:12 AM 60.4°F15.8°C 59.0°F15.0°C 95% Calm Calm -- 28.26 in957.0 mb - 0.00 in0.0 mm 0.00 in0.0 mm
04:11 AM 60.4°F15.8°C 59.0°F15.0°C 95% Calm Calm -- 28.26 in957.0 mb - 0.00 in0.0 mm 0.00 in0.0 mm
04:10 AM 60.4°F15.8°C 59.0°F15.0°C 95% Calm Calm -- 28.26 in957.0 mb - 0.00 in0.0 mm 0.00 in0.0 mm
04:09 AM 60.4°F15.8°C 59.0°F15.0°C 95% Calm Calm -- 28.26 in957.0 mb - 0.00 in0.0 mm 0.00 in0.0 mm
04:08 AM 60.4°F15.8°C 59.0°F15.0°C 95% Calm Calm -- 28.26 in957.0 mb - 0.00 in0.0 mm 0.00 in0.0 mm
04:07 AM 60.4°F15.8°C 59.0°F15.0°C 95% Calm Calm -- 28.26 in957.0 mb - 0.00 in0.0 mm 0.00 in0.0 mm
04:06 AM 60.4°F15.8°C 59.0°F15.0°C 95% Calm Calm -- 28.26 in957.0 mb - 0.00 in0.0 mm 0.00 in0.0 mm
04:05 AM 60.6°F15.9°C 59.2°F15.1°C 95% Calm Calm -- 28.25 in956.7 mb - 0.00 in0.0 mm 0.00 in0.0 mm
04:04 AM 60.6°F15.9°C 59.2°F15.1°C 95% Calm Calm -- 28.25 in956.7 mb - 0.00 in0.0 mm 0.00 in0.0 mm
04:03 AM 60.6°F15.9°C 59.2°F15.1°C 95% Calm Calm -- 28.25 in956.7 mb - 0.00 in0.0 mm 0.00 in0.0 mm
04:02 AM 60.6°F15.9°C 59.2°F15.1°C 95% Calm Calm -- 28.25 in956.7 mb - 0.00 in0.0 mm 0.00 in0.0 mm
04:01 AM 60.6°F15.9°C 59.2°F15.1°C 95% Calm Calm -- 28.25 in956.7 mb - 0.00 in0.0 mm 0.00 in0.0 mm
04:00 AM 60.6°F15.9°C 59.2°F15.1°C 95% Calm Calm -- 28.25 in956.7 mb - 0.00 in0.0 mm 0.00 in0.0 mm
03:59 AM 60.6°F15.9°C 59.2°F15.1°C 95% Calm Calm 1.2 mph1.9 kmh 28.25 in956.7 mb - 0.00 in0.0 mm 0.00 in0.0 mm
03:58 AM 60.8°F16.0°C 59.4°F15.2°C 95% Calm Calm -- 28.25 in956.7 mb - 0.00 in0.0 mm 0.00 in0.0 mm
03:57 AM 60.8°F16.0°C 59.4°F15.2°C 95% Calm Calm -- 28.25 in956.7 mb - 0.00 in0.0 mm 0.00 in0.0 mm
03:56 AM 60.8°F16.0°C 59.4°F15.2°C 95% 1.2 mph W1.9 kmh W 1.2 mph1.9 kmh 28.25 in956.7 mb - 0.00 in0.0 mm 0.00 in0.0 mm
03:55 AM 60.8°F16.0°C 59.4°F15.2°C 95% 2.3 mph NW3.7 kmh NW 1.2 mph1.9 kmh 28.25 in956.7 mb - 0.00 in0.0 mm 0.00 in0.0 mm
03:54 AM 60.8°F16.0°C 59.4°F15.2°C 95% 2.3 mph WNW3.7 kmh WNW 2.3 mph3.7 kmh 28.25 in956.7 mb - 0.00 in0.0 mm 0.00 in0.0 mm
03:53 AM 60.8°F16.0°C 59.4°F15.2°C 95% 2.3 mph WNW3.7 kmh WNW 2.3 mph3.7 kmh 28.25 in956.7 mb - 0.00 in0.0 mm 0.00 in0.0 mm
03:52 AM 60.8°F16.0°C 59.4°F15.2°C 95% 2.3 mph NW3.7 kmh NW 2.3 mph3.7 kmh 28.25 in956.7 mb - 0.00 in0.0 mm 0.00 in0.0 mm
03:51 AM 60.8°F16.0°C 59.4°F15.2°C 95% 2.3 mph NW3.7 kmh NW 2.3 mph3.7 kmh 28.25 in956.7 mb - 0.00 in0.0 mm 0.00 in0.0 mm
03:50 AM 60.8°F16.0°C 59.4°F15.2°C 95% 1.2 mph NW1.9 kmh NW 2.3 mph3.7 kmh 28.25 in956.7 mb - 0.00 in0.0 mm 0.00 in0.0 mm
03:49 AM 60.8°F16.0°C 59.4°F15.2°C 95% 2.3 mph N3.7 kmh N 2.3 mph3.7 kmh 28.25 in956.7 mb - 0.00 in0.0 mm 0.00 in0.0 mm
03:48 AM 60.6°F15.9°C 59.2°F15.1°C 95% 2.3 mph NNE3.7 kmh NNE 2.3 mph3.7 kmh 28.25 in956.7 mb - 0.00 in0.0 mm 0.00 in0.0 mm
03:47 AM 60.6°F15.9°C 59.2°F15.1°C 95% 1.2 mph NNE1.9 kmh NNE 2.3 mph3.7 kmh 28.25 in956.7 mb - 0.00 in0.0 mm 0.00 in0.0 mm
03:46 AM 60.6°F15.9°C 59.2°F15.1°C 95% Calm Calm -- 28.25 in956.7 mb - 0.00 in0.0 mm 0.00 in0.0 mm
03:45 AM 60.6°F15.9°C 59.2°F15.1°C 95% Calm Calm -- 28.25 in956.7 mb - 0.00 in0.0 mm 0.00 in0.0 mm
03:44 AM 60.6°F15.9°C 59.2°F15.1°C 95% Calm Calm -- 28.25 in956.7 mb - 0.00 in0.0 mm 0.00 in0.0 mm
03:43 AM 60.4°F15.8°C 59.0°F15.0°C 95% Calm Calm -- 28.25 in956.7 mb - 0.00 in0.0 mm 0.00 in0.0 mm
03:42 AM 60.4°F15.8°C 59.0°F15.0°C 95% Calm Calm -- 28.25 in956.7 mb - 0.00 in0.0 mm 0.00 in0.0 mm
03:41 AM 60.4°F15.8°C 59.0°F15.0°C 95% Calm Calm -- 28.25 in956.7 mb - 0.00 in0.0 mm 0.00 in0.0 mm
03:40 AM 60.4°F15.8°C 59.0°F15.0°C 95% Calm Calm -- 28.26 in957.0 mb - 0.00 in0.0 mm 0.00 in0.0 mm
03:39 AM 60.4°F15.8°C 59.0°F15.0°C 95% Calm Calm -- 28.26 in957.0 mb - 0.00 in0.0 mm 0.00 in0.0 mm
03:38 AM 60.4°F15.8°C 59.0°F15.0°C 95% Calm Calm -- 28.26 in957.0 mb - 0.00 in0.0 mm 0.00 in0.0 mm
03:37 AM 60.4°F15.8°C 59.0°F15.0°C 95% Calm Calm -- 28.26 in957.0 mb - 0.00 in0.0 mm 0.00 in0.0 mm
03:36 AM 60.4°F15.8°C 59.0°F15.0°C 95% Calm Calm -- 28.26 in957.0 mb - 0.00 in0.0 mm 0.00 in0.0 mm
03:35 AM 60.5°F15.8°C 59.0°F15.0°C 95% Calm Calm -- 28.26 in957.0 mb - 0.00 in0.0 mm 0.00 in0.0 mm
03:34 AM 60.6°F15.9°C 59.2°F15.1°C 95% Calm Calm -- 28.26 in957.0 mb - 0.00 in0.0 mm 0.00 in0.0 mm
03:33 AM 60.6°F15.9°C 59.2°F15.1°C 95% Calm Calm -- 28.26 in957.0 mb - 0.00 in0.0 mm 0.00 in0.0 mm
03:32 AM 60.6°F15.9°C 59.2°F15.1°C 95% Calm Calm -- 28.26 in957.0 mb - 0.00 in0.0 mm 0.00 in0.0 mm
03:31 AM 60.6°F15.9°C 59.2°F15.1°C 95% Calm Calm -- 28.26 in957.0 mb - 0.00 in0.0 mm 0.00 in0.0 mm
03:30 AM 60.6°F15.9°C 59.2°F15.1°C 95% Calm Calm -- 28.26 in957.0 mb - 0.00 in0.0 mm 0.00 in0.0 mm
03:29 AM 60.6°F15.9°C 59.2°F15.1°C 95% 1.2 mph SSE1.9 kmh SSE 1.2 mph1.9 kmh 28.26 in957.0 mb - 0.00 in0.0 mm 0.00 in0.0 mm
03:28 AM 60.6°F15.9°C 59.2°F15.1°C 95% Calm Calm 1.2 mph1.9 kmh 28.26 in957.0 mb - 0.00 in0.0 mm 0.00 in0.0 mm
03:27 AM 60.8°F16.0°C 59.3°F15.2°C 95% Calm Calm 1.2 mph1.9 kmh 28.26 in957.0 mb - 0.00 in0.0 mm 0.00 in0.0 mm
03:26 AM 60.8°F16.0°C 59.4°F15.2°C 95% Calm Calm -- 28.26 in957.0 mb - 0.00 in0.0 mm 0.00 in0.0 mm
03:25 AM 60.9°F16.1°C 59.5°F15.3°C 95% Calm Calm -- 28.26 in957.0 mb - 0.00 in0.0 mm 0.00 in0.0 mm
03:24 AM 61.0°F16.1°C 59.6°F15.3°C 95% Calm Calm -- 28.26 in957.0 mb - 0.00 in0.0 mm 0.00 in0.0 mm
03:23 AM 61.0°F16.1°C 59.6°F15.3°C 95% Calm Calm -- 28.26 in957.0 mb - 0.00 in0.0 mm 0.00 in0.0 mm
03:22 AM 61.0°F16.1°C 59.6°F15.3°C 95% Calm Calm -- 28.26 in957.0 mb - 0.00 in0.0 mm 0.00 in0.0 mm
03:21 AM 61.0°F16.1°C 59.6°F15.3°C 95% Calm Calm -- 28.26 in957.0 mb - 0.00 in0.0 mm 0.00 in0.0 mm
03:20 AM 61.0°F16.1°C 59.6°F15.3°C 95% Calm Calm -- 28.26 in957.0 mb - 0.00 in0.0 mm 0.00 in0.0 mm
03:19 AM 61.0°F16.1°C 59.6°F15.3°C 95% Calm Calm -- 28.26 in957.0 mb - 0.00 in0.0 mm 0.00 in0.0 mm
03:18 AM 61.0°F16.1°C 59.6°F15.3°C 95% Calm Calm -- 28.26 in957.0 mb - 0.00 in0.0 mm 0.00 in0.0 mm
03:17 AM 61.0°F16.1°C 59.6°F15.3°C 95% Calm Calm -- 28.26 in957.0 mb - 0.00 in0.0 mm 0.00 in0.0 mm
03:16 AM 61.0°F16.1°C 59.6°F15.3°C 95% Calm Calm -- 28.26 in957.0 mb - 0.00 in0.0 mm 0.00 in0.0 mm
03:15 AM 61.0°F16.1°C 59.6°F15.3°C 95% Calm Calm -- 28.26 in957.0 mb - 0.00 in0.0 mm 0.00 in0.0 mm
03:14 AM 61.0°F16.1°C 59.6°F15.3°C 95% Calm Calm -- 28.26 in957.0 mb - 0.00 in0.0 mm 0.00 in0.0 mm
03:13 AM 61.0°F16.1°C 59.6°F15.3°C 95% Calm Calm -- 28.26 in957.0 mb - 0.00 in0.0 mm 0.00 in0.0 mm
03:12 AM 61.0°F16.1°C 59.6°F15.3°C 95% Calm Calm -- 28.26 in957.0 mb - 0.00 in0.0 mm 0.00 in0.0 mm
03:11 AM 61.0°F16.1°C 59.6°F15.3°C 95% Calm Calm -- 28.26 in957.0 mb - 0.00 in0.0 mm 0.00 in0.0 mm
03:10 AM 61.0°F16.1°C 59.6°F15.3°C 95% Calm Calm -- 28.26 in957.0 mb - 0.00 in0.0 mm 0.00 in0.0 mm
03:09 AM 61.0°F16.1°C 59.6°F15.3°C 95% Calm Calm -- 28.26 in957.0 mb - 0.00 in0.0 mm 0.00 in0.0 mm
03:08 AM 61.0°F16.1°C 59.6°F15.3°C 95% Calm Calm -- 28.26 in957.0 mb - 0.00 in0.0 mm 0.00 in0.0 mm
03:07 AM 61.0°F16.1°C 59.6°F15.3°C 95% Calm Calm -- 28.26 in957.0 mb - 0.00 in0.0 mm 0.00 in0.0 mm
03:06 AM 61.0°F16.1°C 59.6°F15.3°C 95% Calm Calm -- 28.26 in957.0 mb - 0.00 in0.0 mm 0.00 in0.0 mm
03:05 AM 61.1°F16.2°C 59.7°F15.4°C 95% Calm Calm -- 28.26 in957.0 mb - 0.00 in0.0 mm 0.00 in0.0 mm
03:04 AM 61.2°F16.2°C 59.8°F15.4°C 95% Calm Calm -- 28.26 in957.0 mb - 0.00 in0.0 mm 0.00 in0.0 mm
03:03 AM 61.2°F16.2°C 59.8°F15.4°C 95% Calm Calm -- 28.26 in957.0 mb - 0.00 in0.0 mm 0.00 in0.0 mm
03:02 AM 61.2°F16.2°C 59.8°F15.4°C 95% Calm Calm -- 28.26 in957.0 mb - 0.00 in0.0 mm 0.00 in0.0 mm
03:01 AM 61.2°F16.2°C 59.8°F15.4°C 95% Calm Calm -- 28.26 in957.0 mb - 0.00 in0.0 mm 0.00 in0.0 mm
03:00 AM 61.2°F16.2°C 59.8°F15.4°C 95% 1.2 mph SE1.9 kmh SE 1.2 mph1.9 kmh 28.26 in957.0 mb - 0.00 in0.0 mm 0.00 in0.0 mm
02:59 AM 61.2°F16.2°C 59.8°F15.4°C 95% 1.2 mph SE1.9 kmh SE 2.3 mph3.7 kmh 28.26 in957.0 mb - 0.00 in0.0 mm 0.00 in0.0 mm
02:58 AM 61.3°F16.3°C 59.9°F15.5°C 95% 2.3 mph S3.7 kmh S 2.3 mph3.7 kmh 28.26 in957.0 mb - 0.00 in0.0 mm 0.00 in0.0 mm
02:57 AM 61.7°F16.5°C 60.2°F15.7°C 95% 1.2 mph S1.9 kmh S 2.3 mph3.7 kmh 28.26 in957.0 mb - 0.00 in0.0 mm 0.00 in0.0 mm
02:56 AM 61.9°F16.6°C 60.5°F15.8°C 95% Calm Calm -- 28.26 in957.0 mb - 0.00 in0.0 mm 0.00 in0.0 mm
02:55 AM 61.9°F16.6°C 60.5°F15.8°C 95% Calm Calm -- 28.26 in957.0 mb - 0.00 in0.0 mm 0.00 in0.0 mm
02:54 AM 61.9°F16.6°C 60.5°F15.8°C 95% Calm Calm -- 28.26 in957.0 mb - 0.00 in0.0 mm 0.00 in0.0 mm
02:53 AM 61.9°F16.6°C 60.5°F15.8°C 95% Calm Calm -- 28.26 in957.0 mb - 0.00 in0.0 mm 0.00 in0.0 mm
02:52 AM 61.9°F16.6°C 60.5°F15.8°C 95% Calm Calm -- 28.26 in957.0 mb - 0.00 in0.0 mm 0.00 in0.0 mm
02:51 AM 61.9°F16.6°C 60.5°F15.8°C 95% Calm Calm -- 28.26 in957.0 mb - 0.00 in0.0 mm 0.00 in0.0 mm
02:50 AM 62.1°F16.7°C 60.6°F15.9°C 95% Calm Calm -- 28.26 in957.0 mb - 0.00 in0.0 mm 0.00 in0.0 mm
02:49 AM 62.1°F16.7°C 60.7°F15.9°C 95% Calm Calm -- 28.26 in957.0 mb - 0.00 in0.0 mm 0.00 in0.0 mm
02:48 AM 62.1°F16.7°C 60.7°F15.9°C 95% Calm Calm -- 28.26 in957.0 mb - 0.00 in0.0 mm 0.00 in0.0 mm
02:47 AM 62.1°F16.7°C 60.7°F15.9°C 95% Calm Calm -- 28.26 in957.0 mb - 0.00 in0.0 mm 0.00 in0.0 mm
02:46 AM 62.1°F16.7°C 60.7°F15.9°C 95% Calm Calm -- 28.26 in957.0 mb - 0.00 in0.0 mm 0.00 in0.0 mm
02:45 AM 62.1°F16.7°C 60.7°F15.9°C 95% Calm Calm -- 28.26 in957.0 mb - 0.00 in0.0 mm 0.00 in0.0 mm
02:44 AM 62.1°F16.7°C 60.7°F15.9°C 95% Calm Calm -- 28.26 in957.0 mb - 0.00 in0.0 mm 0.00 in0.0 mm
02:43 AM 61.9°F16.6°C 60.5°F15.8°C 95% Calm Calm -- 28.26 in957.0 mb - 0.00 in0.0 mm 0.00 in0.0 mm
02:42 AM 61.9°F16.6°C 60.2°F15.7°C 94% Calm Calm -- 28.26 in957.0 mb - 0.00 in0.0 mm 0.00 in0.0 mm
02:41 AM 61.9°F16.6°C 60.2°F15.7°C 94% Calm Calm -- 28.26 in957.0 mb - 0.00 in0.0 mm 0.00 in0.0 mm
02:40 AM 61.9°F16.6°C 60.2°F15.7°C 94% Calm Calm -- 28.26 in957.0 mb - 0.00 in0.0 mm 0.00 in0.0 mm
02:39 AM 62.1°F16.7°C 60.3°F15.7°C 94% Calm Calm -- 28.26 in957.0 mb - 0.00 in0.0 mm 0.00 in0.0 mm
02:38 AM 62.1°F16.7°C 60.4°F15.8°C 94% Calm Calm -- 28.26 in957.0 mb - 0.00 in0.0 mm 0.00 in0.0 mm
02:37 AM 62.1°F16.7°C 60.4°F15.8°C 94% Calm Calm -- 28.26 in957.0 mb - 0.00 in0.0 mm 0.00 in0.0 mm
02:36 AM 62.1°F16.7°C 60.4°F15.8°C 94% Calm Calm -- 28.26 in957.0 mb - 0.00 in0.0 mm 0.00 in0.0 mm
02:35 AM 62.1°F16.7°C 60.4°F15.8°C 94% Calm Calm -- 28.26 in957.0 mb - 0.00 in0.0 mm 0.00 in0.0 mm
02:34 AM 62.1°F16.7°C 60.4°F15.8°C 94% Calm Calm -- 28.26 in957.0 mb - 0.00 in0.0 mm 0.00 in0.0 mm
02:33 AM 62.1°F16.7°C 60.4°F15.8°C 94% Calm Calm -- 28.26 in957.0 mb - 0.00 in0.0 mm 0.00 in0.0 mm
02:32 AM 62.1°F16.7°C 60.4°F15.8°C 94% Calm Calm -- 28.26 in957.0 mb - 0.00 in0.0 mm 0.00 in0.0 mm
02:31 AM 62.1°F16.7°C 60.4°F15.8°C 94% Calm Calm -- 28.26 in957.0 mb - 0.00 in0.0 mm 0.00 in0.0 mm
02:30 AM 61.9°F16.6°C 60.2°F15.7°C 94% Calm Calm -- 28.26 in957.0 mb - 0.00 in0.0 mm 0.00 in0.0 mm
02:29 AM 61.9°F16.6°C 60.2°F15.7°C 94% 1.2 mph NNE1.9 kmh NNE 1.2 mph1.9 kmh 28.26 in957.0 mb - 0.00 in0.0 mm 0.00 in0.0 mm
02:28 AM 61.9°F16.6°C 60.2°F15.7°C 94% 1.2 mph NNE1.9 kmh NNE 1.2 mph1.9 kmh 28.26 in957.0 mb - 0.00 in0.0 mm 0.00 in0.0 mm
02:27 AM 61.9°F16.6°C 60.2°F15.7°C 94% 1.2 mph NNE1.9 kmh NNE 2.3 mph3.7 kmh 28.26 in957.0 mb - 0.00 in0.0 mm 0.00 in0.0 mm
02:26 AM 61.9°F16.6°C 60.2°F15.7°C 94% Calm Calm 1.2 mph1.9 kmh 28.26 in957.0 mb - 0.00 in0.0 mm 0.00 in0.0 mm
02:25 AM 61.9°F16.6°C 60.2°F15.7°C 94% Calm Calm -- 28.26 in957.0 mb - 0.00 in0.0 mm 0.00 in0.0 mm
02:24 AM 61.9°F16.6°C 60.2°F15.7°C 94% Calm Calm -- 28.26 in957.0 mb - 0.00 in0.0 mm 0.00 in0.0 mm
02:23 AM 61.9°F16.6°C 60.2°F15.7°C 94% Calm Calm 1.2 mph1.9 kmh 28.26 in957.0 mb - 0.00 in0.0 mm 0.00 in0.0 mm
02:22 AM 62.1°F16.7°C 60.4°F15.8°C 94% Calm Calm 1.2 mph1.9 kmh 28.26 in957.0 mb - 0.00 in0.0 mm 0.00 in0.0 mm
02:21 AM 62.1°F16.7°C 60.4°F15.8°C 94% Calm Calm -- 28.26 in957.0 mb - 0.00 in0.0 mm 0.00 in0.0 mm
02:20 AM 62.1°F16.7°C 60.4°F15.8°C 94% Calm Calm -- 28.26 in957.0 mb - 0.00 in0.0 mm 0.00 in0.0 mm
02:19 AM 62.2°F16.8°C 60.5°F15.8°C 94% Calm Calm -- 28.26 in957.0 mb - 0.00 in0.0 mm 0.00 in0.0 mm
02:18 AM 62.2°F16.8°C 60.5°F15.8°C 94% Calm Calm -- 28.26 in957.0 mb - 0.00 in0.0 mm 0.00 in0.0 mm
02:17 AM 62.2°F16.8°C 60.5°F15.8°C 94% Calm Calm -- 28.26 in957.0 mb - 0.00 in0.0 mm 0.00 in0.0 mm
02:16 AM 62.4°F16.9°C 60.6°F15.9°C 94% Calm Calm -- 28.26 in957.0 mb - 0.00 in0.0 mm 0.00 in0.0 mm
02:15 AM 62.4°F16.9°C 60.7°F15.9°C 94% Calm Calm -- 28.27 in957.3 mb - 0.00 in0.0 mm 0.00 in0.0 mm
02:14 AM 62.4°F16.9°C 60.7°F15.9°C 94% Calm Calm -- 28.27 in957.3 mb - 0.00 in0.0 mm 0.00 in0.0 mm
02:13 AM 62.4°F16.9°C 60.7°F15.9°C 94% Calm Calm -- 28.27 in957.3 mb - 0.00 in0.0 mm 0.00 in0.0 mm
02:12 AM 62.4°F16.9°C 60.6°F15.9°C 94% Calm Calm -- 28.27 in957.3 mb - 0.00 in0.0 mm 0.00 in0.0 mm
02:11 AM 62.2°F16.8°C 60.5°F15.8°C 94% 1.2 mph NNE1.9 kmh NNE 1.2 mph1.9 kmh 28.27 in957.3 mb - 0.00 in0.0 mm 0.00 in0.0 mm
02:10 AM 62.1°F16.7°C 60.4°F15.8°C 94% 1.2 mph N1.9 kmh N 1.2 mph1.9 kmh 28.27 in957.3 mb - 0.00 in0.0 mm 0.00 in0.0 mm
02:09 AM 62.1°F16.7°C 60.4°F15.8°C 94% 1.2 mph NNE1.9 kmh NNE 1.2 mph1.9 kmh 28.27 in957.3 mb - 0.00 in0.0 mm 0.00 in0.0 mm
02:08 AM 61.9°F16.6°C 60.2°F15.7°C 94% 1.2 mph N1.9 kmh N 1.2 mph1.9 kmh 28.27 in957.3 mb - 0.00 in0.0 mm 0.00 in0.0 mm
02:07 AM 61.9°F16.6°C 60.2°F15.7°C 94% 1.2 mph NNE1.9 kmh NNE 1.2 mph1.9 kmh 28.27 in957.3 mb - 0.00 in0.0 mm 0.00 in0.0 mm
02:06 AM 61.9°F16.6°C 60.2°F15.7°C 94% 1.2 mph NE1.9 kmh NE 1.2 mph1.9 kmh 28.27 in957.3 mb - 0.00 in0.0 mm 0.00 in0.0 mm
02:05 AM 61.9°F16.6°C 60.2°F15.7°C 94% Calm Calm 1.2 mph1.9 kmh 28.27 in957.3 mb - 0.00 in0.0 mm 0.00 in0.0 mm
02:04 AM 62.0°F16.7°C 60.3°F15.7°C 94% Calm Calm -- 28.27 in957.3 mb - 0.00 in0.0 mm 0.00 in0.0 mm
02:03 AM 62.1°F16.7°C 60.4°F15.8°C 94% Calm Calm -- 28.27 in957.3 mb - 0.00 in0.0 mm 0.00 in0.0 mm
02:02 AM 62.1°F16.7°C 60.4°F15.8°C 94% Calm Calm -- 28.27 in957.3 mb - 0.00 in0.0 mm 0.00 in0.0 mm
02:01 AM 62.1°F16.7°C 60.4°F15.8°C 94% Calm Calm -- 28.27 in957.3 mb - 0.00 in0.0 mm 0.00 in0.0 mm
02:00 AM 62.1°F16.7°C 60.4°F15.8°C 94% Calm Calm -- 28.27 in957.3 mb - 0.00 in0.0 mm 0.00 in0.0 mm
01:59 AM 62.1°F16.7°C 60.4°F15.8°C 94% Calm Calm -- 28.27 in957.3 mb - 0.00 in0.0 mm 0.00 in0.0 mm
01:58 AM 62.1°F16.7°C 60.4°F15.8°C 94% Calm Calm -- 28.27 in957.3 mb - 0.00 in0.0 mm 0.00 in0.0 mm
01:57 AM 62.1°F16.7°C 60.4°F15.8°C 94% Calm Calm -- 28.27 in957.3 mb - 0.00 in0.0 mm 0.00 in0.0 mm
01:56 AM 62.2°F16.8°C 60.4°F15.8°C 94% Calm Calm -- 28.27 in957.3 mb - 0.00 in0.0 mm 0.00 in0.0 mm
01:55 AM 62.2°F16.8°C 60.5°F15.8°C 94% Calm Calm -- 28.27 in957.3 mb - 0.00 in0.0 mm 0.00 in0.0 mm
01:54 AM 62.2°F16.8°C 60.5°F15.8°C 94% Calm Calm -- 28.27 in957.3 mb - 0.00 in0.0 mm 0.00 in0.0 mm
01:53 AM 62.2°F16.8°C 60.5°F15.8°C 94% Calm Calm -- 28.27 in957.3 mb - 0.00 in0.0 mm 0.00 in0.0 mm
01:52 AM 62.3°F16.8°C 60.5°F15.8°C 94% Calm Calm -- 28.27 in957.3 mb - 0.00 in0.0 mm 0.00 in0.0 mm
01:51 AM 62.4°F16.9°C 60.7°F15.9°C 94% Calm Calm -- 28.27 in957.3 mb - 0.00 in0.0 mm 0.00 in0.0 mm
01:50 AM 62.4°F16.9°C 60.7°F15.9°C 94% Calm Calm -- 28.27 in957.3 mb - 0.00 in0.0 mm 0.00 in0.0 mm
01:49 AM 62.4°F16.9°C 60.7°F15.9°C 94% Calm Calm -- 28.27 in957.3 mb - 0.00 in0.0 mm 0.00 in0.0 mm
01:48 AM 62.4°F16.9°C 60.7°F15.9°C 94% Calm Calm -- 28.27 in957.3 mb - 0.00 in0.0 mm 0.00 in0.0 mm
01:47 AM 62.4°F16.9°C 60.7°F15.9°C 94% 1.2 mph N1.9 kmh N -- 28.27 in957.3 mb - 0.00 in0.0 mm 0.00 in0.0 mm
01:46 AM 62.4°F16.9°C 60.7°F15.9°C 94% 1.2 mph NW1.9 kmh NW 1.2 mph1.9 kmh 28.27 in957.3 mb - 0.00 in0.0 mm 0.00 in0.0 mm
01:45 AM 62.4°F16.9°C 60.7°F15.9°C 94% 1.2 mph NNW1.9 kmh NNW 1.2 mph1.9 kmh 28.27 in957.3 mb - 0.00 in0.0 mm 0.00 in0.0 mm
01:44 AM 62.4°F16.9°C 60.7°F15.9°C 94% 1.2 mph NW1.9 kmh NW 1.2 mph1.9 kmh 28.27 in957.3 mb - 0.00 in0.0 mm 0.00 in0.0 mm
01:43 AM 62.4°F16.9°C 60.7°F15.9°C 94% Calm Calm 1.2 mph1.9 kmh 28.27 in957.3 mb - 0.00 in0.0 mm 0.00 in0.0 mm
01:42 AM 62.4°F16.9°C 60.7°F15.9°C 94% 1.2 mph NW1.9 kmh NW 1.2 mph1.9 kmh 28.27 in957.3 mb - 0.00 in0.0 mm 0.00 in0.0 mm
01:41 AM 62.2°F16.8°C 60.5°F15.8°C 94% 1.2 mph NNW1.9 kmh NNW 2.3 mph3.7 kmh 28.27 in957.3 mb - 0.00 in0.0 mm 0.00 in0.0 mm
01:40 AM 62.2°F16.8°C 60.5°F15.8°C 94% Calm Calm 2.3 mph3.7 kmh 28.27 in957.3 mb - 0.00 in0.0 mm 0.00 in0.0 mm
01:39 AM 62.2°F16.8°C 60.5°F15.8°C 94% Calm Calm -- 28.27 in957.3 mb - 0.00 in0.0 mm 0.00 in0.0 mm
01:38 AM 62.2°F16.8°C 60.5°F15.8°C 94% Calm Calm -- 28.27 in957.3 mb - 0.00 in0.0 mm 0.00 in0.0 mm
01:37 AM 62.2°F16.8°C 60.5°F15.8°C 94% Calm Calm -- 28.27 in957.3 mb - 0.00 in0.0 mm 0.00 in0.0 mm
01:36 AM 62.2°F16.8°C 60.5°F15.8°C 94% Calm Calm -- 28.27 in957.3 mb - 0.00 in0.0 mm 0.00 in0.0 mm
01:35 AM 62.4°F16.9°C 60.7°F15.9°C 94% Calm Calm -- 28.27 in957.3 mb - 0.00 in0.0 mm 0.00 in0.0 mm
01:34 AM 62.4°F16.9°C 60.7°F15.9°C 94% Calm Calm -- 28.27 in957.3 mb - 0.00 in0.0 mm 0.00 in0.0 mm
01:33 AM 62.4°F16.9°C 60.7°F15.9°C 94% Calm Calm -- 28.27 in957.3 mb - 0.00 in0.0 mm 0.00 in0.0 mm
01:32 AM 62.4°F16.9°C 60.7°F15.9°C 94% Calm Calm -- 28.27 in957.3 mb - 0.00 in0.0 mm 0.00 in0.0 mm
01:31 AM 62.4°F16.9°C 60.7°F15.9°C 94% Calm Calm -- 28.27 in957.3 mb - 0.00 in0.0 mm 0.00 in0.0 mm
01:30 AM 62.4°F16.9°C 60.7°F15.9°C 94% Calm Calm 1.2 mph1.9 kmh 28.27 in957.3 mb - 0.00 in0.0 mm 0.00 in0.0 mm
01:29 AM 62.4°F16.9°C 60.7°F15.9°C 94% Calm Calm -- 28.27 in957.3 mb - 0.00 in0.0 mm 0.00 in0.0 mm
01:28 AM 62.4°F16.9°C 60.7°F15.9°C 94% 1.2 mph NNE1.9 kmh NNE 1.2 mph1.9 kmh 28.27 in957.3 mb - 0.00 in0.0 mm 0.00 in0.0 mm
01:27 AM 62.2°F16.8°C 60.5°F15.8°C 94% 1.2 mph N1.9 kmh N 1.2 mph1.9 kmh 28.27 in957.3 mb - 0.00 in0.0 mm 0.00 in0.0 mm
01:26 AM 62.2°F16.8°C 60.5°F15.8°C 94% Calm Calm -- 28.27 in957.3 mb - 0.00 in0.0 mm 0.00 in0.0 mm
01:25 AM 62.2°F16.8°C 60.5°F15.8°C 94% Calm Calm -- 28.27 in957.3 mb - 0.00 in0.0 mm 0.00 in0.0 mm
01:24 AM 62.2°F16.8°C 60.5°F15.8°C 94% Calm Calm -- 28.27 in957.3 mb - 0.00 in0.0 mm 0.00 in0.0 mm
01:23 AM 62.2°F16.8°C 60.5°F15.8°C 94% 1.2 mph NE1.9 kmh NE -- 28.27 in957.3 mb - 0.00 in0.0 mm 0.00 in0.0 mm
01:22 AM 62.2°F16.8°C 60.5°F15.8°C 94% Calm Calm 1.2 mph1.9 kmh 28.27 in957.3 mb - 0.00 in0.0 mm 0.00 in0.0 mm
01:21 AM 62.2°F16.8°C 60.5°F15.8°C 94% Calm Calm -- 28.27 in957.3 mb - 0.00 in0.0 mm 0.00 in0.0 mm
01:20 AM 62.2°F16.8°C 60.5°F15.8°C 94% 1.2 mph NE1.9 kmh NE 1.2 mph1.9 kmh 28.27 in957.3 mb - 0.00 in0.0 mm 0.00 in0.0 mm
01:19 AM 62.2°F16.8°C 60.5°F15.8°C 94% 1.2 mph NNE1.9 kmh NNE 1.2 mph1.9 kmh 28.27 in957.3 mb - 0.00 in0.0 mm 0.00 in0.0 mm
01:18 AM 62.2°F16.8°C 60.5°F15.8°C 94% 2.3 mph NE3.7 kmh NE 1.2 mph1.9 kmh 28.27 in957.3 mb - 0.00 in0.0 mm 0.00 in0.0 mm
01:17 AM 62.2°F16.8°C 60.5°F15.8°C 94% 1.2 mph NNE1.9 kmh NNE 2.3 mph3.7 kmh 28.27 in957.3 mb - 0.00 in0.0 mm 0.00 in0.0 mm
01:16 AM 62.2°F16.8°C 60.5°F15.8°C 94% 1.2 mph NNE1.9 kmh NNE 1.2 mph1.9 kmh 28.27 in957.3 mb - 0.00 in0.0 mm 0.00 in0.0 mm
01:15 AM 62.2°F16.8°C 60.5°F15.8°C 94% 1.2 mph N1.9 kmh N 1.2 mph1.9 kmh 28.27 in957.3 mb - 0.00 in0.0 mm 0.00 in0.0 mm
01:14 AM 62.2°F16.8°C 60.5°F15.8°C 94% 2.3 mph NNW3.7 kmh NNW 2.3 mph3.7 kmh 28.27 in957.3 mb - 0.00 in0.0 mm 0.00 in0.0 mm
01:13 AM 62.2°F16.8°C 60.5°F15.8°C 94% 2.3 mph NW3.7 kmh NW 2.3 mph3.7 kmh 28.27 in957.3 mb - 0.00 in0.0 mm 0.00 in0.0 mm
01:12 AM 62.2°F16.8°C 60.5°F15.8°C 94% 2.3 mph NW3.7 kmh NW 2.3 mph3.7 kmh 28.27 in957.3 mb - 0.00 in0.0 mm 0.00 in0.0 mm
01:11 AM 62.2°F16.8°C 60.5°F15.8°C 94% 2.3 mph NW3.7 kmh NW 2.3 mph3.7 kmh 28.27 in957.3 mb - 0.00 in0.0 mm 0.00 in0.0 mm
01:10 AM 62.2°F16.8°C 60.2°F15.7°C 93% 3.5 mph NW5.6 kmh NW 2.3 mph3.7 kmh 28.27 in957.3 mb - 0.00 in0.0 mm 0.00 in0.0 mm
01:09 AM 62.2°F16.8°C 60.2°F15.7°C 93% 2.3 mph NW3.7 kmh NW 3.5 mph5.6 kmh 28.27 in957.3 mb - 0.00 in0.0 mm 0.00 in0.0 mm
01:08 AM 62.3°F16.8°C 60.2°F15.7°C 93% Calm Calm 2.3 mph3.7 kmh 28.27 in957.3 mb - 0.00 in0.0 mm 0.00 in0.0 mm
01:07 AM 62.4°F16.9°C 60.3°F15.7°C 93% Calm Calm -- 28.27 in957.3 mb - 0.00 in0.0 mm 0.00 in0.0 mm
01:06 AM 62.5°F16.9°C 60.5°F15.8°C 93% Calm Calm -- 28.27 in957.3 mb - 0.00 in0.0 mm 0.00 in0.0 mm
01:05 AM 62.6°F17.0°C 60.5°F15.8°C 93% Calm Calm -- 28.28 in957.7 mb - 0.00 in0.0 mm 0.00 in0.0 mm
01:04 AM 62.8°F17.1°C 60.7°F15.9°C 93% Calm Calm -- 28.28 in957.7 mb - 0.00 in0.0 mm 0.00 in0.0 mm
01:03 AM 62.8°F17.1°C 60.7°F15.9°C 93% Calm Calm -- 28.28 in957.7 mb - 0.00 in0.0 mm 0.00 in0.0 mm
01:02 AM 62.8°F17.1°C 60.7°F15.9°C 93% Calm Calm -- 28.28 in957.7 mb - 0.00 in0.0 mm 0.00 in0.0 mm
01:01 AM 62.8°F17.1°C 60.7°F15.9°C 93% Calm Calm -- 28.28 in957.7 mb - 0.00 in0.0 mm 0.00 in0.0 mm
01:00 AM 62.8°F17.1°C 60.7°F15.9°C 93% Calm Calm -- 28.28 in957.7 mb - 0.00 in0.0 mm 0.00 in0.0 mm
12:59 AM 62.8°F17.1°C 60.7°F15.9°C 93% Calm Calm -- 28.28 in957.7 mb - 0.00 in0.0 mm 0.00 in0.0 mm
12:58 AM 62.8°F17.1°C 60.7°F15.9°C 93% Calm Calm -- 28.28 in957.7 mb - 0.00 in0.0 mm 0.00 in0.0 mm
12:57 AM 62.8°F17.1°C 60.7°F15.9°C 93% Calm Calm -- 28.28 in957.7 mb - 0.00 in0.0 mm 0.00 in0.0 mm
12:56 AM 62.8°F17.1°C 60.8°F16.0°C 93% Calm Calm -- 28.28 in957.7 mb - 0.00 in0.0 mm 0.00 in0.0 mm
12:55 AM 63.0°F17.2°C 60.9°F16.1°C 93% Calm Calm -- 28.28 in957.7 mb - 0.00 in0.0 mm 0.00 in0.0 mm
12:54 AM 63.0°F17.2°C 60.9°F16.1°C 93% Calm Calm -- 28.28 in957.7 mb - 0.00 in0.0 mm 0.00 in0.0 mm
12:53 AM 63.0°F17.2°C 60.9°F16.1°C 93% Calm Calm -- 28.28 in957.7 mb - 0.00 in0.0 mm 0.00 in0.0 mm
12:52 AM 63.0°F17.2°C 60.9°F16.1°C 93% Calm Calm -- 28.28 in957.7 mb - 0.00 in0.0 mm 0.00 in0.0 mm
12:51 AM 63.0°F17.2°C 60.9°F16.1°C 93% Calm Calm -- 28.28 in957.7 mb - 0.00 in0.0 mm 0.00 in0.0 mm
12:50 AM 63.0°F17.2°C 60.9°F16.1°C 93% Calm Calm -- 28.28 in957.7 mb - 0.00 in0.0 mm 0.00 in0.0 mm
12:49 AM 63.0°F17.2°C 60.9°F16.1°C 93% Calm Calm -- 28.28 in957.7 mb - 0.00 in0.0 mm 0.00 in0.0 mm
12:48 AM 63.0°F17.2°C 60.9°F16.1°C 93% Calm Calm -- 28.28 in957.7 mb - 0.00 in0.0 mm 0.00 in0.0 mm
12:47 AM 63.0°F17.2°C 60.9°F16.1°C 93% Calm Calm -- 28.28 in957.7 mb - 0.00 in0.0 mm 0.00 in0.0 mm
12:46 AM 63.0°F17.2°C 60.9°F16.1°C 93% Calm Calm -- 28.28 in957.7 mb - 0.00 in0.0 mm 0.00 in0.0 mm
12:45 AM 63.0°F17.2°C 60.9°F16.1°C 93% Calm Calm -- 28.28 in957.7 mb - 0.00 in0.0 mm 0.00 in0.0 mm
12:44 AM 63.0°F17.2°C 60.9°F16.1°C 93% Calm Calm -- 28.28 in957.7 mb - 0.00 in0.0 mm 0.00 in0.0 mm
12:43 AM 63.0°F17.2°C 60.9°F16.1°C 93% Calm Calm -- 28.28 in957.7 mb - 0.00 in0.0 mm 0.00 in0.0 mm
12:42 AM 63.0°F17.2°C 60.9°F16.1°C 93% Calm Calm -- 28.28 in957.7 mb - 0.00 in0.0 mm 0.00 in0.0 mm
12:41 AM 63.0°F17.2°C 60.9°F16.1°C 93% Calm Calm -- 28.28 in957.7 mb - 0.00 in0.0 mm 0.00 in0.0 mm
12:40 AM 63.0°F17.2°C 60.9°F16.1°C 93% Calm Calm -- 28.27 in957.3 mb - 0.00 in0.0 mm 0.00 in0.0 mm
12:39 AM 63.0°F17.2°C 60.9°F16.1°C 93% Calm Calm -- 28.27 in957.3 mb - 0.00 in0.0 mm 0.00 in0.0 mm
12:38 AM 63.0°F17.2°C 60.9°F16.1°C 93% Calm Calm -- 28.27 in957.3 mb - 0.00 in0.0 mm 0.00 in0.0 mm
12:37 AM 63.0°F17.2°C 60.9°F16.1°C 93% Calm Calm -- 28.27 in957.3 mb - 0.00 in0.0 mm 0.00 in0.0 mm
12:36 AM 63.0°F17.2°C 60.9°F16.1°C 93% Calm Calm -- 28.27 in957.3 mb - 0.00 in0.0 mm 0.00 in0.0 mm
12:35 AM 63.0°F17.2°C 60.9°F16.1°C 93% Calm Calm -- 28.27 in957.3 mb - 0.00 in0.0 mm 0.00 in0.0 mm
12:34 AM 63.0°F17.2°C 60.9°F16.1°C 93% Calm Calm -- 28.27 in957.3 mb - 0.00 in0.0 mm 0.00 in0.0 mm
12:33 AM 63.0°F17.2°C 60.9°F16.1°C 93% Calm Calm -- 28.27 in957.3 mb - 0.00 in0.0 mm 0.00 in0.0 mm
12:32 AM 63.0°F17.2°C 60.9°F16.1°C 93% Calm Calm -- 28.27 in957.3 mb - 0.00 in0.0 mm 0.00 in0.0 mm
12:31 AM 63.0°F17.2°C 60.6°F15.9°C 92% Calm Calm -- 28.27 in957.3 mb - 0.00 in0.0 mm 0.00 in0.0 mm
12:30 AM 63.0°F17.2°C 60.6°F15.9°C 92% Calm Calm -- 28.27 in957.3 mb - 0.00 in0.0 mm 0.00 in0.0 mm
12:29 AM 63.0°F17.2°C 60.6°F15.9°C 92% Calm Calm -- 28.27 in957.3 mb - 0.00 in0.0 mm 0.00 in0.0 mm
12:28 AM 63.0°F17.2°C 60.6°F15.9°C 92% Calm Calm -- 28.28 in957.7 mb - 0.00 in0.0 mm 0.00 in0.0 mm
12:27 AM 63.0°F17.2°C 60.6°F15.9°C 92% Calm Calm -- 28.28 in957.7 mb - 0.00 in0.0 mm 0.00 in0.0 mm
12:26 AM 63.0°F17.2°C 60.6°F15.9°C 92% Calm Calm -- 28.28 in957.7 mb - 0.00 in0.0 mm 0.00 in0.0 mm
12:25 AM 63.0°F17.2°C 60.7°F15.9°C 92% Calm Calm -- 28.28 in957.7 mb - 0.00 in0.0 mm 0.00 in0.0 mm
12:24 AM 63.1°F17.3°C 60.7°F15.9°C 92% Calm Calm -- 28.28 in957.7 mb - 0.00 in0.0 mm 0.00 in0.0 mm
12:23 AM 63.1°F17.3°C 60.7°F15.9°C 92% Calm Calm -- 28.28 in957.7 mb - 0.00 in0.0 mm 0.00 in0.0 mm
12:22 AM 63.1°F17.3°C 60.7°F15.9°C 92% Calm Calm -- 28.28 in957.7 mb - 0.00 in0.0 mm 0.00 in0.0 mm
12:21 AM 63.1°F17.3°C 60.7°F15.9°C 92% Calm Calm -- 28.28 in957.7 mb - 0.00 in0.0 mm 0.00 in0.0 mm
12:20 AM 63.2°F17.3°C 60.8°F16.0°C 92% Calm Calm -- 28.28 in957.7 mb - 0.00 in0.0 mm 0.00 in0.0 mm
12:19 AM 63.3°F17.4°C 60.9°F16.1°C 92% Calm Calm -- 28.28 in957.7 mb - 0.00 in0.0 mm 0.00 in0.0 mm
12:18 AM 63.3°F17.4°C 60.9°F16.1°C 92% Calm Calm -- 28.28 in957.7 mb - 0.00 in0.0 mm 0.00 in0.0 mm
12:17 AM 63.3°F17.4°C 60.9°F16.1°C 92% Calm Calm -- 28.28 in957.7 mb - 0.00 in0.0 mm 0.00 in0.0 mm
12:16 AM 63.3°F17.4°C 61.0°F16.1°C 92% Calm Calm -- 28.27 in957.3 mb - 0.00 in0.0 mm 0.00 in0.0 mm
12:15 AM 63.5°F17.5°C 61.1°F16.2°C 92% Calm Calm -- 28.27 in957.3 mb - 0.00 in0.0 mm 0.00 in0.0 mm
12:14 AM 63.5°F17.5°C 61.1°F16.2°C 92% Calm Calm -- 28.27 in957.3 mb - 0.00 in0.0 mm 0.00 in0.0 mm
12:13 AM 63.5°F17.5°C 61.1°F16.2°C 92% Calm Calm -- 28.27 in957.3 mb - 0.00 in0.0 mm 0.00 in0.0 mm
12:12 AM 63.5°F17.5°C 61.1°F16.2°C 92% Calm Calm -- 28.27 in957.3 mb - 0.00 in0.0 mm 0.00 in0.0 mm
12:11 AM 63.5°F17.5°C 61.1°F16.2°C 92% Calm Calm -- 28.27 in957.3 mb - 0.00 in0.0 mm 0.00 in0.0 mm
12:10 AM 63.5°F17.5°C 61.1°F16.2°C 92% Calm Calm -- 28.27 in957.3 mb - 0.00 in0.0 mm 0.00 in0.0 mm
12:09 AM 63.5°F17.5°C 61.1°F16.2°C 92% Calm Calm -- 28.27 in957.3 mb - 0.00 in0.0 mm 0.00 in0.0 mm
12:08 AM 63.5°F17.5°C 61.1°F16.2°C 92% Calm Calm -- 28.27 in957.3 mb - 0.00 in0.0 mm 0.00 in0.0 mm
12:07 AM 63.5°F17.5°C 61.1°F16.2°C 92% Calm Calm -- 28.27 in957.3 mb - 0.00 in0.0 mm 0.00 in0.0 mm
12:06 AM 63.6°F17.6°C 61.2°F16.2°C 92% Calm Calm --